Santa Monica - Venice Christmas Run
Santa Monica, Ca.
December 11, 2010
     
Results by results@resultsbyprimetime.com  
Software by ChuckScore  
     
  State/
Place Name Bib Gun Tag Pace Sex Age City County
1 Okello,Tony 3704 30:46.3 29:39.5 4:47 M 25
2 Avila,Ricky 3649 31:26.4 31:27.0 5:04 M 21 Sylmar CA
3 Lamar,Brian 3658 32:34.5 32:35.1 5:15 M 27 Whittier CA
4 Coleman,Adam 1359 33:41.0 33:41.6 5:26 M 25 San Diego CA
5 Ramos,Bryan 3650 33:41.6 33:42.2 5:26 M 35 Montrose CA
6 Birney,Peter 4711 34:18.1 34:18.4 5:32 M 26 Santa Monica CA
7 Pena,Horacio 4803 34:40.9 34:40.5 5:36 M 33 Los Angeles CA
8 Aklufi,Erika 904 34:48.0 34:48.3 5:37 F 34 Los Angeles CA
9 Soto,Michael 3229 35:32.9 35:33.2 5:44 M 27 Temple City CA
10 Thompson,Alex 3998 35:54.1 35:54.8 5:48 M 30 Los Angeles CA
11 Sanchez,Jose 3058 36:13.3 36:14.0 5:51 M 39 Rancho Cucamonga CA
12 Paquette,Ron 3815 36:17.4 36:17.7 5:51 M 52 Los Angeles CA
13 Reichley,Thaddeus 4954 38:30.0 36:26.7 5:53 M 36 Los Angeles CA
14 Ehsaei,Amir 1579 36:28.4 36:27.9 5:53 M 34 Sherman Oaks CA
15 Huss,Eric 2044 36:32.1 36:32.4 5:54 M 43 Glendora CA
16 Foote,David 4712 36:37.6 36:36.0 5:54 M 43 Los Angeles CA
17 Ricardo,Jose 3990 36:53.6 36:48.2 5:56 M 48 South Gate CA
18 Korich,Mark 2235 37:14.1 37:14.1 6:00 M 25 Hermosa Beach CA
19 Coulibaly,Meredith 4943 37:57.9 37:57.6 6:07 F 31 Los Angeles CA
20 Chapus,Cami 4826 40:28.4 38:08.5 6:09 F 16 Pacific Palisades CA
21 Ochoa,Vivian 3651 38:13.2 38:13.4 6:10 F 19 Burbank CA
22 Davis,Robert 1457 38:16.6 38:16.7 6:10 M 41 Torrance CA
23 Lawton,Adam 2311 38:21.8 38:19.4 6:11 M 31 Los Angeles CA
24 Fisher,Zafar 1664 38:27.9 38:24.6 6:12 M 31 Santa Monica CA
25 Hennessy,Matt 1946 38:42.4 38:29.0 6:12 M 24 Santa Monica CA
26 Ono,Satoshi 2751 38:29.3 38:29.5 6:13 M 36 Pasadena CA
27 Seidel,Scott 3124 38:35.4 38:32.1 6:13 M 43 Los Angeles CA
28 Kelley,Michael 497 38:36.6 38:33.6 6:13 M 44 Santa Monica CA
29 Oles,Brian 2744 38:40.3 38:36.7 6:14 M 34 Los Angeles CA
30 Kristen,Jens 4760 38:44.1 38:39.4 6:14 M 40 Altadena CA
31 Woodward,Elaine 3553 38:40.3 38:39.9 6:14 F 25 Canyon Country CA
32 Schiepke,Michael 3097 38:52.1 38:45.3 6:15 M 48 Los Angeles CA
33 Levine,Justin 2356 38:50.1 38:50.6 6:16 M 31 Visalia CA
34 Manzella,Tony 4957 38:57.6 38:53.6 6:16 M 37 Los Angeles CA
35 Preston,Michael 2872 38:54.2 38:54.0 6:16 M 40 Van Nuys CA
36 Mitchell,Susan 2605 38:58.8 38:57.3 6:17 F 35 Venice CA
37 Colangelo,Aaron 1355 38:59.7 38:58.4 6:17 M 36 Washington DC
38 Crowe,Scotty 1420 39:38.2 38:58.7 6:17 M 29 Los Angeles CA
39 Ladd,Ginna 3729 39:03.8 39:03.0 6:18 F 34 Santa Monica CA
40 Mejia,Anthony 2561 39:13.2 39:03.2 6:18 M 19 Los Angeles CA
41 Wood,Ross 3674 39:05.2 39:05.0 6:18 M 32 Agoura Hills CA
42 Kusurelis,Stefan 2266 39:18.9 39:08.9 6:19 M 41 Venice CA
43 Stolz,Gary 3987 39:24.3 39:11.9 6:19 M 39 Torrance CA
44 Rees,Wynn 699 39:23.8 39:16.4 6:20 M 38 Los Angeles CA
45 Ash,David 299 39:31.0 39:17.8 6:20 M 30 Los Angeles CA
46 Lubobe,Jessie 700 39:23.5 39:23.1 6:21 M 15
47 Ortiz,Ralph 3996 39:30.0 39:24.7 6:21 M 43 Alhambra CA
48 Bezzola,Andri 1076 40:04.1 39:27.5 6:22 M 29 Santa Barbara CA
49 Mejia,Carlos 2562 39:35.7 39:30.8 6:22 M 42 Los Angeles CA
50 Chipot,Dominique 1307 39:44.7 39:31.7 6:23 M 52 Monrovia CA
51 Sheehy,Peter 3991 39:51.2 39:49.1 6:25 M 42 Pacific Palisades CA
52 Pocasangre,Kenneth 2855 39:57.2 39:53.2 6:26 M 20 Los Angeles CA
53 Pogozelski,Roger 4937 40:30.1 39:57.4 6:27 M 30 Hermosa Beach CA
54 Najselova,Monika 2664 40:05.0 40:02.2 6:27 F 26 San Rafael CA
55 Forrester,Perry 631 40:10.6 40:11.1 6:29 M 58 Topanga CA
56 Doss,Matt 1534 40:12.9 40:11.8 6:29 M 45 Santa Monica CA
57 Schuette,Chris 695 40:15.2 40:12.3 6:29 M 51 Los Angeles CA
58 Draver,Simon 818 40:15.6 40:13.6 6:29 M 48 Woodland Hills CA
59 Kutsenda,Eric 2267 40:16.3 40:14.9 6:30 M 39 Manhattan Beach CA
60 Silka,Paul 3720 40:22.2 40:21.8 6:31 M 49 Pacific Palisades CA
61 Beruldsen,John 1071 40:35.2 40:24.4 6:31 M 21 Aliso Viejo CA
62 Gomez,Rudy 1799 40:34.2 40:28.7 6:32 M 17 Los Angeles CA
63 Toshima,Kenneth 3362 44:03.0 40:31.6 6:32 M 38 Santa Monica CA
64 Panosian,Brian 2779 40:34.3 40:34.4 6:33 M 45 Los Angeles CA
65 Mayorkas,Anthony 464 40:44.0 40:44.1 6:34 M 41 Santa Monica CA
66 Stetson,John 676 40:50.6 40:46.3 6:35 M 39 Los Angeles CA
67 Moser,Paul 312 40:51.3 40:48.5 6:35 M 47 Northridge CA
68 Rossi,Lorenzo 3728 40:53.4 40:48.7 6:35 M 35 Los Angeles CA
69 Hedrick,Stephen 1933 43:41.9 40:49.2 6:35 M 59 Solana Beach CA
70 Dulai,Simren 1557 41:03.5 40:51.8 6:35 M 26 Santa Monica CA
71 Eng,Susanne 3691 40:53.9 40:52.2 6:36 F 43 Los Angeles CA
72 Salinas,Lydia 4764 40:52.5 40:52.4 6:36 F 59 Los Angeles CA
73 Mazdisnian,Keon 467 40:52.5 40:52.5 6:36 M 9 Los Angeles CA
74 Gustafson,Logan 1854 43:12.6 40:54.0 6:36 M 25 Valley Village CA
75 Patten,Clay 3655 40:56.6 40:55.5 6:36 M 51 Lancaster CA
76 Kelly,Chris 2159 42:04.6 41:01.4 6:37 M 19 Anaheim CA
77 Spector,Josh 406 41:10.9 41:03.3 6:37 M 37 Los Angeles CA
78 Hamid,Rumsey 1874 41:19.1 41:06.6 6:38 M 35 Manhattan Beach CA
79 Gertler,Stan 4708 41:16.0 41:12.1 6:39 M 58 Villa Park CA
80 Ross,Jeremy 3725 41:23.4 41:13.1 6:39 M 32 Los Angeles CA
81 Hordan,Chris 1991 41:22.0 41:20.3 6:40 M 49 Hermosa Beach CA
82 Hurt,Brian 4890 42:11.7 41:20.8 6:40 M 26 Santa Monica CA
83 Berumen,Alfonso 1072 41:25.8 41:21.3 6:40 M 25 Santa Monica CA
84 Lister,Dale 103 41:29.2 41:28.3 6:41 M 48 Palmdale CA
85 Paul,Keith 430 41:41.7 41:30.1 6:42 M 52 Burbank CA
86 Simpson,Dan 3177 41:45.0 41:30.8 6:42 M 51 Whittier CA
87 Morel,Brian 4981 41:40.4 41:32.7 6:42 M 41 Los Angeles CA
88 Azad,Azita 469 41:34.6 41:34.3 6:42 F 45 Los Angeles CA
89 Kamiya,Ko 3958 41:46.7 41:35.7 6:43 M 38 Torrance CA
90 Tapia,Lou 3623 41:42.5 41:40.9 6:43 M 31 Los Angeles CA
91 Nuruki,Jeffrey 2724 42:41.4 41:41.7 6:44 M 37 Harbor City CA
92 Silver,Chad 3171 41:48.3 41:45.0 6:44 M 35 Sherman Oaks CA
93 Arce,Steve 968 41:52.3 41:52.1 6:45 M 46 Malibu CA
94 Gonzalez,Eduardo 4779 42:37.9 41:56.3 6:46 M 35 Los Angeles CA
95 Stannard,Greg 3671 41:59.6 41:57.4 6:46 M 54 Culver City CA
96 Snyder,Jeff 4752 41:58.6 41:58.9 6:46 M 54 Pasadena CA
97 Kim,Sol 2189 41:59.0 41:59.0 6:46 M 22 Riverside CA
98 Upshur,Matthew 3398 42:04.6 41:59.3 6:46 M 31 Los Angeles CA
99 Duff,Michelle 1551 42:07.0 42:02.1 6:47 F 35 Los Angeles CA
100 Kim,Bennett 2181 42:05.6 42:05.3 6:47 M 38 Beverly Hills CA
101 Sturgeon,Al 3275 42:10.8 42:06.0 6:47 M 40 Malibu CA
102 Ragona,Rachel 56 42:16.3 42:12.4 6:48 F 27 Manhattan Beach CA
103 Faris,Andrew 1632 42:46.1 42:12.9 6:49 M 32 Santa Monica CA
104 Oehm,David 2738 42:20.2 42:14.3 6:49 M 26 Santa Monica CA
105 Farrington,Kevin 1637 42:40.8 42:15.8 6:49 M 49 Playa Del Rey CA
106 Orzeck,Kurt 4964 42:59.1 42:17.0 6:49 M 32 Santa Monica CA
107 Davis,Mark 1456 42:29.0 42:19.3 6:50 M 32 Redondo Beach CA
108 Stockard JR.,Russell 3263 48:15.4 42:19.4 6:50 M 63 Oak Park CA
109 Burnett,Molly 292 43:04.6 42:19.5 6:50 F 26 Los Angeles CA
110 Butler,Brendt 1213 42:22.1 42:20.0 6:50 M 38 Los Angeles CA
111 Duda,Matthew 1550 43:21.9 42:22.0 6:50 M 39 Pasadena CA
112 Harbert,Chris 1891 42:27.3 42:22.2 6:50 M 47 Santa Monica CA
113 Shelly,Zach 3995 42:30.1 42:23.5 6:50 M 15 Collinsville MS
114 Sweeney,Rob 320 42:34.4 42:24.3 6:50 M 56 Santa Monica CA
115 Morrissey,John 3978 42:33.8 42:28.1 6:51 M 52 Pacific Palisades CA
116 Perez,Cristian 2819 43:12.1 42:30.8 6:51 M 15 Canyon Country CA
117 Hong,Ban 1986 43:58.3 42:31.8 6:52 M 34 Los Angeles CA
118 Kintz,Natalie 2203 42:44.4 42:33.1 6:52 F 24 Los Angeles CA
119 Antrobius,Sue 962 42:35.4 42:33.6 6:52 F 40 Hermosa Beach CA
120 Noori,Farzad 2717 42:36.7 42:36.8 6:52 M 42 Santa Monica CA
121 Doss,Damien 1533 42:44.5 42:42.7 6:53 M 48 Palos Verdes Peninsu CA
122 Brettler,Jeff 1159 42:55.3 42:47.0 6:54 M 30 Los Angeles CA
123 Fiedler,Lynne 1653 42:49.7 42:47.6 6:54 F 48 Beverly Hills CA
124 Beech,Gregory 730 43:08.1 42:48.5 6:54 M 31 North Hollywood CA
125 Schneider,Lars 572 42:55.1 42:51.4 6:55 M 54 Pacific Palisades CA
126 Winston,Henry 3660 43:11.6 42:52.7 6:55 M 40 Oak Park CA
127 Cruz,Javier 4736 43:28.4 42:53.6 6:55 M 44 Los Angeles CA
128 Blau,Jennah 1096 43:42.5 42:57.3 6:56 F 21 Tampa FL
129 Onwunyi,Eloka 3818 43:40.1 42:57.4 6:56 M 29 Marina Del Rey CA
130 Sullivan,Scott 3279 43:05.7 42:57.8 6:56 M 51 Culver City CA
131 Frizzell,Erin 5001 43:04.3 43:00.3 6:56 F 23 Boise ID
132 Jones,Charles 2102 44:58.8 43:00.3 6:56 M 39 Canoga Park CA
133 Stone,David 3268 43:03.5 43:01.4 6:56 M 28 Los Angeles CA
134 Symington,Brian 786 45:43.8 43:07.2 6:57 M 43 Santa Monica CA
135 Kent,David 4867 43:12.8 43:08.4 6:57 M 48 Los Angeles CA
136 Garrett,Ben 3999 43:40.0 43:18.9 6:59 M 45 Santa Monica CA
137 Johnstone,Rob 2098 47:13.7 43:23.9 7:00 M 29 New York NY
138 Maloney,Rory 2459 45:38.6 43:26.1 7:00 M 28 Santa Monica CA
139 Alvarado,Nestor 930 43:42.3 43:30.1 7:01 M 15 Los Angeles CA
140 Sundstrom,J 4972 43:36.8 43:30.6 7:01 M 38 Los Angeles CA
141 Sirpal,Sanjeev 3180 43:42.5 43:33.3 7:02 M 31 Los Angeles CA
142 Nitka,David 3973 46:57.8 43:34.7 7:02 M 31 Hermosa Beach CA
143 Hornstra,Steve 1995 44:49.1 43:41.3 7:03 M 41 Torrance CA
144 Staid,Andrea 766 43:58.9 43:47.2 7:04 F 25 West Hills CA
145 Hochman,Michael 1975 44:15.5 43:48.6 7:04 M 31 Santa Monica CA
146 Ramirez,Raul 2905 44:45.2 43:48.9 7:04 M 15 Los Angeles CA
147 Pollecutt,Brendan 2861 44:58.6 43:50.0 7:04 M 37 Los Angeles CA
148 Shanks,James 3907 47:25.4 43:50.6 7:04 M 60 Sun Valley CA
149 Hsu,Kevin 472 47:23.3 43:51.5 7:04 M 38 West Hollywood CA
150 Crane,Chris 1407 44:56.5 43:55.0 7:05 M 23 Los Angeles CA
151 Lucas,Brian 2415 44:07.6 43:56.7 7:05 M 28 Sherman Oaks CA
152 Wong,Wenise 3663 44:03.7 43:59.1 7:06 F 41 Los Angeles CA
153 Shahrouz,Henri 3143 44:00.5 43:59.2 7:06 M 43 Santa Monica CA
154 Ashlock,Juli 4850 44:21.6 43:59.4 7:06 F 24 Santa Monica CA
155 Brown,Lindsay 4786 45:48.4 44:02.7 7:06 F 23 Dana Point CA
156 Ritter,Ashley 2958 44:16.4 44:03.4 7:06 F 32 Manhattan Beach CA
157 Silver,Roy 4880 44:09.8 44:03.6 7:06 M 37 Los Angeles CA
158 Clarke,Julia 1341 44:08.6 44:05.1 7:07 F 42 Malibu CA
159 Slagle,Jerad 3187 46:26.9 44:07.3 7:07 M 26 Hermosa Beach CA
160 Michaels,Arianna 2582 44:57.6 44:08.3 7:07 F 17 Valencia CA
161 Green,Alec 4963 44:21.0 44:10.9 7:08 M 38 Santa Monica CA
162 Manger,Brad 3727 44:22.1 44:11.7 7:08 M 56 Palos Verdes Peninsu CA
163 Smith,Brian 3193 46:28.1 44:15.1 7:08 M 32 Los Angeles CA
164 Fogt,Martina 1681 45:41.6 44:16.5 7:08 F 41 Culver City CA
165 Seyler,Todd 4913 46:44.7 44:20.7 7:09 M 36 Santa Monica CA
166 Burnside,Lisa-marie 1205 46:41.2 44:21.0 7:09 F 26 Burbank CA
167 Chong,Andrew 1319 44:36.3 44:26.1 7:10 M 16 Los Angeles CA
168 Cooper,Craig 1377 44:54.3 44:27.3 7:10 M 44 Beverly Hills CA
169 Tiamfook,Marissa 3738 44:31.2 44:27.4 7:10 F 35 Los Angeles CA
170 Del Greco,Peter 1470 45:44.8 44:28.0 7:10 M 55 Santa Monica CA
171 Soroudi,Paul 3226 44:37.2 44:28.1 7:10 M 40 Los Angeles CA
172 Garcia,Jerry 1735 46:49.4 44:28.4 7:10 M 33 Temple City CA
173 Moore Ii,Richard 2622 44:54.1 44:29.5 7:11 M 26 Richmond VA
174 Ogata,Joe 2740 44:29.8 44:30.4 7:11 M 61 Pacoima CA
175 Gauthier,Mike 1754 44:38.6 44:33.5 7:11 M 56 Manhattan Beach CA
176 Macdonald,Nancy 2433 44:39.7 44:33.9 7:11 F 47 Santa Monica CA
177 Mazdisnian,Neda 468 44:34.7 44:34.7 7:11 F 12 Los Angeles CA
178 Lakin,Ross 2384 45:23.5 44:38.9 7:12 M 46 Valencia CA
179 Adams,Dan 889 44:46.7 44:40.4 7:12 M 62 Pinon Hills CA
180 Meyer,Richard 680 45:01.6 44:44.1 7:13 M 44 Los Angeles CA
181 Morris,Sean 2638 45:13.6 44:47.7 7:14 M 36 Pasadena CA
182 Bryant,Chad 1190 45:10.7 44:53.4 7:14 M 22 Ventura CA
183 Vasel,Melissa 3418 45:40.4 44:54.9 7:15 F 34 San Diego CA
184 Marlow,Fred 2476 45:09.7 44:55.5 7:15 M 43 Thousand Oaks CA
185 Davis,Gary 1453 45:09.6 44:56.3 7:15 M 58 Camarillo CA
186 Sansone,Michelle 3068 44:59.0 44:59.0 7:15 F 26 Riverside CA
187 Feldman,Nicole 1641 45:30.1 45:01.5 7:16 F 37 Los Angeles CA
188 Hooper,Deidra 282 45:45.1 45:03.1 7:16 F 43 Santa Monica CA
189 Smith,David 3810 46:54.0 45:03.5 7:16 M 26 Santa Monica CA
190 Goodman,Dean 1812 45:07.6 45:03.6 7:16 M 59 Venice CA
191 Walker,Abi 3459 45:50.9 45:04.7 7:16 F 30 Simi Valley CA
192 Fields,Robert 1654 45:57.5 45:05.8 7:16 M 49 Los Angeles CA
193 Rossi,Justin 3005 45:08.1 45:07.0 7:17 M 40 Lawndale CA
194 Lopez,Lisa 4756 45:14.8 45:07.6 7:17 F 40 Thousand Oaks CA
195 Weintraub,Brian 4724 45:10.8 45:08.7 7:17 M 53 Pacific Palisades CA
196 Kabe,Caroline 2121 45:29.7 45:11.2 7:17 F 28 Palos Verdes Peninsu CA
197 Greenberg,Maxim 1835 47:18.2 45:13.0 7:18 M 28 Santa Monica CA
198 Tao,Phillip 554 45:47.0 45:14.3 7:18 M 23 Los Angeles CA
199 Steinbaum,Glenn 4848 45:41.4 45:19.0 7:19 M 24 Santa Monica CA
200 Miller,Danielle 2592 45:31.2 45:21.4 7:19 F 27 Los Angeles CA
201 Isaac,Joe 2059 47:32.0 45:21.8 7:19 M 24 Los Angeles CA
202 Perry,Arry 3966 45:23.7 45:22.6 7:19 M 60 Beverly Hills CA
203 Long,Tyler 2393 47:14.4 45:23.1 7:19 M 32 Los Angeles CA
204 Cordova,Peter 1382 45:30.7 45:23.5 7:19 M 41 Encino CA
205 Leon,Javier 624 45:24.6 45:23.9 7:19 M 44 Palos Verdes Peninsu CA
206 RosÚn,Mats 3008 45:40.6 45:24.4 7:19 M 33 Reedsville WI
207 Hudson,Mike 2028 45:45.8 45:24.9 7:20 M 33 Los Angeles CA
208 Cho,Yangnun 661 45:59.9 45:26.6 7:20 M 22
209 Hashmi,Jason 1911 45:36.3 45:26.6 7:20 M 41 Los Angeles CA
210 Werle,Grant 3500 45:35.7 45:26.9 7:20 M 30 Venice CA
211 Lee,James 2328 49:35.9 45:27.0 7:20 M 37 Lakewood CA
212 Hemanus,Juha 1941 45:28.2 45:27.9 7:20 M 48 Santa Monica CA
213 Souter,Molly 3230 45:40.3 45:28.5 7:20 F 34 Richmond VA
214 Shaw,Sloan 772 46:12.7 45:28.8 7:20 M 36 Los Angeles CA
215 Jacobs,Janelle 2064 46:45.8 45:31.5 7:21 F 22 Culver City CA
216 Mirage,Quincy 2600 45:38.1 45:31.7 7:21 M 31 La Verne CA
217 Hess,Larry 1955 46:04.2 45:35.8 7:21 M 44 Los Angeles CA
218 Morris,William 191 45:51.5 45:36.2 7:21 M 26 Los Angeles CA
219 Shelly,Paul 3994 45:44.5 45:37.7 7:22 M 43 Collinsville MS
220 Pasula,Michal 4723 45:43.2 45:42.7 7:22 M 35 Manhattan Beach CA
221 Sibrel,Alesia 3622 45:44.9 45:42.8 7:22 F 26 Los Angeles CA
222 Andrade,Jane 4929 46:14.9 45:44.2 7:23 F 30
223 Rufca,Mitch 4716 46:11.3 45:46.4 7:23 M 32 Hermosa Beach CA
224 Ford,Heidi 362 48:15.5 45:47.1 7:23 F 40 Los Angeles CA
225 Nam,Jay 473 49:20.4 45:48.5 7:23 M 38 Los Angeles CA
226 Regan,Katrina 2927 45:58.0 45:48.8 7:23 F 20 Los Angeles CA
227 Rustrum,William 3028 47:18.4 45:49.4 7:23 M 39 Los Angeles CA
228 Arcuri,Ally 972 45:54.3 45:51.4 7:24 F 21 Fullerton CA
229 Mcbride,Tim 774 46:11.8 45:53.5 7:24 M 28 Marina Del Rey CA
230 Ventura Luna,Jose 3432 45:59.5 45:54.2 7:24 M 17 Los Angeles CA
231 Brettler,Kim 1162 46:02.8 45:54.3 7:24 F 46 Los Angeles CA
232 Meamber,Tim 2553 46:43.3 45:54.7 7:24 M 45 Las Vegas NV
233 Johnson,Tanya 2094 46:13.2 45:57.2 7:25 F 49 Rialto CA
234 King,Dennis 2195 46:48.0 45:58.0 7:25 M 41 Santa Monica CA
235 Crow,Laura 1419 46:18.2 45:59.4 7:25 F 37 Los Angeles CA
236 Navarro,Jose 2675 46:04.8 45:59.9 7:25 M 15 Los Angeles CA
237 Burch,Brendan 1200 47:20.2 45:59.9 7:25 M 32 Los Angeles CA
238 Hewes,William 4985 46:07.2 46:01.1 7:25 M 57 Santa Monica CA
239 Hutchison,Kyle 2046 48:28.3 46:02.8 7:26 M 32 Los Angeles CA
240 Garcia,Felipe 1732 48:23.9 46:03.3 7:26 M 22 Los Angeles CA
241 Dareau,Hubert 1445 46:12.0 46:03.4 7:26 M 51 Redondo Beach CA
242 Frizzell,Tyler 1701 46:19.1 46:03.6 7:26 M 51 Boise ID
243 Han,Terry 1882 49:39.3 46:08.2 7:26 M 38 San Mateo CA
244 Bloomingdale,James 1099 46:15.9 46:09.9 7:27 M 28 Los Angeles CA
245 Baez,Oriando 4960 46:31.0 46:10.6 7:27 M 32 Los Angeles CA
246 Huang,Edythe 3681 47:57.1 46:16.4 7:28 F 26 Venice CA
247 Williams,Casey 708 47:12.2 46:19.2 7:28 M 24 Los Angeles CA
248 Mcgroder,Claire 706 47:12.5 46:19.2 7:28 F 22 Los Angeles CA
249 Amimoto,Toshiaki 940 46:22.8 46:19.2 7:28 M 56 Torrance CA
250 Garcia,Robert 1745 47:16.0 46:19.4 7:28 M 14 Los Angeles CA
251 Torres Collado,Antonio 3360 46:39.2 46:20.5 7:28 M 33 Los Angeles CA
252 Kamarauskaite,Daiva 4884 46:22.9 46:22.1 7:29 F 41 Santa Monica CA
253 Snyder,Denny 3209 46:25.4 46:22.7 7:29 M 62 Northridge CA
254 Zimmerman,Ross 3601 46:50.0 46:23.2 7:29 M 23 Los Angeles CA
255 Hawkings,Francis 194 46:35.5 46:23.9 7:29 M 56 Playa Del Rey CA
256 Kimbrey,Ian 538 46:43.8 46:24.3 7:29 M 55 Venice CA
257 Klepek,Patrick 2213 47:08.0 46:24.4 7:29 M 25 Los Angeles CA
258 Tolentino,Justin 3357 48:22.1 46:25.6 7:29 M 27 Anaheim CA
259 Ortega,Stephen 2757 46:36.7 46:25.7 7:29 M 23 Los Angeles CA
260 Rupp,Scott 3023 48:34.5 46:27.3 7:30 M 49 Torrance CA
261 Shorter,Charles 3158 46:53.0 46:29.1 7:30 M 46 West Hollywood CA
262 Kanuth,David 356 48:11.0 46:32.5 7:30 M 34 Venice CA
263 Sands,Michael 3064 46:44.0 46:33.1 7:31 M 28 Los Angeles CA
264 Schanz,Adam 3089 46:46.4 46:33.9 7:31 M 32 Los Angeles CA
265 Restifo,Carmelo 2937 47:23.6 46:35.1 7:31 M 39 Los Angeles CA
266 Osullivan,Rob 2761 48:22.3 46:35.2 7:31 M 36 Los Angeles CA
267 Volk,Chris 659 47:23.0 46:40.0 7:32 M 40 Santa Monica CA
268 Swegle,Connor 3732 48:16.9 46:44.0 7:32 M 30 Santa Monica CA
269 Cunningham,Rosanne 726 47:13.6 46:46.8 7:33 F 42 Los Angeles CA
270 Pahl,Douglas 529 47:04.7 46:48.0 7:33 M 57 Los Angeles CA
271 Gryczman,Robin 1850 47:37.1 46:48.2 7:33 F 29 Los Angeles CA
272 Kaviere,Ligita 2152 47:35.8 46:48.3 7:33 F 25 Los Angeles CA
273 Kaye,Michael 4844 48:09.4 46:49.0 7:33 M 41 Los Angeles CA
274 Clingerman,Yuri 3734 46:50.7 46:49.2 7:33 F 50 Glendale CA
275 Flores,Daniel 1669 46:53.9 46:49.7 7:33 M 18 Los Angeles CA
276 Williams,Gene 126 47:24.3 46:49.8 7:33 M 39 Hermosa Beach CA
277 Robertson,Christopher 429 47:02.5 46:50.2 7:33 M 38 Malibu CA
278 Homer,Ron 3687 47:12.4 46:50.5 7:33 M 37 Manhattan Beach CA
279 Norman,Patricia 2718 47:22.9 46:51.0 7:33 F 31 Venice CA
280 Wu,Jeanne 4971 47:14.9 46:52.1 7:34 F 35 Santa Monica CA
281 Rajagopal,Sudhi 2899 48:38.1 46:52.8 7:34 M 31 Santa Monica CA
282 Dirienzo,Matthew 393 46:55.2 46:54.1 7:34 M 28 Los Angeles CA
283 Fielding,Keith 4899 47:03.6 46:56.6 7:34 M 39 Los Angeles CA
284 Kand,Justin 3911 47:18.1 46:58.6 7:35 M 30 Los Angeles CA
285 Wilson,Logan 3536 47:04.4 46:58.6 7:35 M 16 Santa Clarita CA
286 Neulight,Nina 3918 47:06.5 47:03.0 7:35 F 40 Venice CA
287 Mihal,Sean 2585 49:42.3 47:03.2 7:35 M 36 Santa Monica CA
288 Sessions,Karen 3130 47:53.6 47:03.2 7:35 F 41 Santa Monica CA
289 Homer,Suzanne 3683 47:25.9 47:03.9 7:35 F 37 Manhattan Beach CA
290 Shaffer,Doug 3139 47:05.4 47:03.9 7:35 M 53 Santa Monica CA
291 Brandenberger,Casey 1146 48:56.1 47:05.5 7:36 F 32 Santa Monica CA
292 Rwiz,Gilbert 3031 47:46.7 47:05.7 7:36 M 16 Canyon Country CA
293 Swafford,John 3286 47:31.1 47:06.8 7:36 M 53 Santa Monica CA
294 Gebben,Jeffrey 81 48:27.3 47:08.9 7:36 M 28 Los Angeles CA
295 Bencivenga,Richie 193 47:59.9 47:09.1 7:36 M 27 Los Angeles CA
296 Boden,David 1105 48:54.1 47:09.2 7:36 M 27 Santa Monica CA
297 Young,Alexandra 3573 47:36.4 47:11.1 7:37 F 30 Santa Monica CA
298 Tan,Jason 3306 47:35.7 47:13.0 7:37 M 30 Playa Del Rey CA
299 Gressett,Charlie 1838 53:40.1 47:14.0 7:37 M 34 Los Angeles CA
300 Kemp,Barrett 2163 47:17.2 47:14.7 7:37 M 24 Fullerton CA
301 Dingsdale,Alicia 1506 48:02.3 47:16.1 7:37 F 41 Pasadena CA
302 Wachter,Tara 3456 47:25.4 47:17.3 7:38 F 33 Santa Monica CA
303 Quemada,Sarah 2888 47:52.6 47:17.5 7:38 F 35 Pahoa HI
304 Sim,Jeff 3173 49:17.8 47:19.3 7:38 M 31 Santa Monica CA
305 Baski,Gina 4851 49:09.8 47:21.0 7:38 F 42 Santa Monica CA
306 Lopez,Gustavo 2396 47:31.6 47:21.8 7:38 M 31 Los Angeles CA
307 Wilson,Barry 3808 47:27.6 47:22.5 7:38 M 46 New York NY
308 Houser,Linda 2008 47:30.8 47:22.8 7:39 F 47 Simi Valley CA
309 Mukai,Emi 2644 47:35.8 47:24.5 7:39 F 34 Venice CA
310 Buliczka,Laszlo 504 47:24.4 47:24.7 7:39 M 70 Sherman Oaks CA
311 Tampubolon,Rama 3305 48:04.4 47:27.1 7:39 M 26 Riverside CA
312 Hochman,Ehud 306 48:18.8 47:28.4 7:39 M 32 Los Angeles CA
313 Antonio,Luis 4754 49:02.7 47:28.6 7:39 M 26 Los Angeles CA
314 Matias,Jose 4855 49:24.3 47:29.5 7:40 M 17 Los Angeles CA
315 Weissert,Laura 4706 47:44.5 47:30.0 7:40 F 52 Costa Mesa CA
316 Knudson-goodwin,Maxwell 2220 47:51.2 47:32.7 7:40 M 14 West Hills CA
317 Hesston,Roger 15 47:53.7 47:33.8 7:40 M 40 Santa Monica CA
318 Aguirre,Frank 4727 47:37.8 47:35.3 7:41 M 36 Los Angeles CA
319 Nakazawa,Ichiro 398 48:22.9 47:36.9 7:41 M 52 Torrance CA
320 Kennedy,Emily 3645 48:24.3 47:37.0 7:41 F 47 Manhattan Beach CA
321 Martinez,Adrian 3933 50:56.0 47:37.1 7:41 M 31 Santa Monica CA
322 Pallotta,Eric 3912 47:57.4 47:38.2 7:41 M 25 Los Angeles CA
323 Doucette,Michael 4817 50:24.7 47:39.1 7:41 M 26 El Segundo CA
324 Abrego,Joshua 885 47:52.9 47:40.8 7:41 M 16 Los Angeles CA
325 Corpuz,Alistaire 277 49:58.3 47:42.4 7:42 M 30 Burbank CA
326 Kabe,Erik 2122 48:02.0 47:43.5 7:42 M 23 Palos Verdes Peninsu CA
327 Zamora,Anthony 3590 47:52.7 47:43.6 7:42 M 49 Los Angeles CA
328 Bouchard,Philippe 1121 50:43.9 47:43.6 7:42 M 24 Santa Monica CA
329 Schwartz,Robert 3118 48:12.3 47:45.8 7:42 M 40 Venice CA
330 Fernandez,Franco 1648 47:52.6 47:46.4 7:42 M 15 Los Angeles CA
331 Kovacs,Steven 2240 48:15.2 47:47.5 7:43 M 27 Beverly Hills CA
332 Fulton,Deanna 4782 48:27.5 47:48.8 7:43 F 34 Santa Monica CA
333 Burnett,Alan 229 48:17.9 47:49.6 7:43 M 48 Mountain View CA
334 Wilson,Ned 185 49:57.1 47:49.7 7:43 M 31 Los Angeles CA
335 Morrow,Chris 4973 48:47.3 47:51.3 7:43 M 35 Los Angeles CA
336 Sanders,Barrett 3060 48:15.5 47:52.1 7:43 M 37 Redondo Beach CA
337 Alpert,Alex 926 47:53.9 47:52.1 7:43 M 33 Hermosa Beach CA
338 Mcclelland,Craig 2512 47:57.7 47:52.8 7:43 M 50 Malibu CA
339 Gaiss,Martin 1715 49:58.1 47:53.6 7:43 M 41 Beverly Hills CA
340 Adams,Vickie 893 48:04.9 47:58.7 7:44 F 50 Pinon Hills CA
341 Grush,John 1848 50:00.9 47:58.8 7:44 M 36 Sherman Oaks CA
342 Pantoja,Jose 2780 48:05.2 47:59.8 7:44 M 17 Los Angeles CA
343 Obermeyer,Andrew 4990 48:16.1 47:59.9 7:45 M 38 Santa Monica CA
344 Johnson,Marc 2092 48:16.8 48:00.3 7:45 M 49 Rialto CA
345 Bernstein,David 4849 49:52.3 48:03.8 7:45 M 50 Santa Monica CA
346 Hatton,Mirjam 186 48:14.2 48:05.4 7:45 F 38 Los Angeles CA
347 Brookbanks,Richard 1176 48:07.2 48:05.9 7:45 M 43 Pasadena CA
348 Carrillo,David 1248 48:16.3 48:06.8 7:46 M 16 Los Angeles CA
349 Gerhard,Morgan 1765 49:12.7 48:07.4 7:46 M 44 Burbank CA
350 Birnkammer,Jack 1087 48:21.4 48:07.8 7:46 M 50 Los Angeles CA
351 Hotchkin,John 2004 50:41.8 48:10.1 7:46 M 48 Ventura CA
352 Cornwell,Nancy 1388 48:19.4 48:10.9 7:46 F 43 Santa Monica CA
353 Su,Andy 4731 49:24.7 48:12.3 7:47 M 29 La Palma CA
354 Doyle,Andrew 1542 50:33.1 48:12.7 7:47 M 35 Santa Monica CA
355 Hamasaki,Sonya 4895 48:30.5 48:14.2 7:47 F 33 Santa Monica CA
356 Chown,Chris 1323 49:00.9 48:15.4 7:47 M 24 Los Angeles CA
357 Beech,Curt 731 48:37.2 48:17.2 7:47 M 39 Altadena CA
358 Ramos,Cecilia 2908 48:24.9 48:20.6 7:48 F 59 Lompoc CA
359 Harrison,Paige 1897 49:48.4 48:20.9 7:48 F 35 Santa Monica CA
360 Bravo Pedraza,Gerardo 1152 48:28.0 48:21.0 7:48 M 15 Los Angeles CA
361 Rogers,Katelyn 2988 49:00.6 48:21.4 7:48 F 23 Los Angeles CA
362 Campbell,Linda 409 49:37.7 48:21.9 7:48 F 42 Redondo Beach CA
363 Olsen,Taryn 2747 48:30.8 48:26.0 7:49 F 24 Los Angeles CA
364 Tinoco,Daniel 3349 49:44.9 48:26.5 7:49 M 33 Van Nuys CA
365 Divine,Matt 3721 48:45.0 48:28.1 7:49 M 30 Santa Monica CA
366 Chicas,Brian 1303 48:33.3 48:28.9 7:49 M 16 Los Angeles CA
367 Emenike,Chike 1589 48:32.3 48:30.3 7:49 M 32 Los Angeles CA
368 Wien,Dagmar 112 48:39.8 48:32.6 7:50 F 36 Santa Monica CA
369 Vanos,Vincent 3414 49:50.9 48:32.6 7:50 M 54 Topanga CA
370 Geary,Jim 4709 48:50.5 48:33.8 7:50 M 61 Los Angeles CA
371 Mnuk,Anthony 3806 48:39.2 48:35.7 7:50 M 65 Torrance CA
372 Hodes,Evan 573 50:41.9 48:36.6 7:50 M 30
373 Liew,Sook-lei 2369 48:53.4 48:37.4 7:51 F 26 Pacific Palisades CA
374 Steiger,Eric 4769 49:09.4 48:38.2 7:51 M 31 Marina Del Rey CA
375 Schmitz,Kyle 3104 50:21.4 48:39.4 7:51 M 25 Los Angeles CA
376 Erlich,Ryan 1600 49:48.0 48:39.8 7:51 M 31 Los Angeles CA
377 Clark,Julie 338 49:54.6 48:39.9 7:51 F 35 Santa Monica CA
378 Caille,Mariel 1222 49:25.3 48:40.2 7:51 F 22 Los Angeles CA
379 Green,Amy 1832 49:03.1 48:41.7 7:51 F 29 Santa Monica CA
380 Krasilnikova,Svitlana 118 48:58.0 48:42.0 7:51 F 38 Simi Valley CA
381 Nicholson,Shannon 4000 49:26.7 48:42.7 7:51 F 43 Manhattan Beach CA
382 Horiba,Tsuyoshi 386 49:16.1 48:42.9 7:51 M 38 Santa Monica CA
383 Hernandez,Anel 284 52:05.9 48:43.2 7:51 F 30 Inglewood CA
384 Preciado,Arturo 2870 50:44.2 48:43.3 7:52 M 31 Upland CA
385 Shibata,Keith 3150 49:57.4 48:43.3 7:52 M 46 Los Angeles CA
386 Hirschberger,Monica 4914 48:48.1 48:43.6 7:52 F 46 Santa Monica CA
387 Pacheco,Kevin 2770 48:51.7 48:44.1 7:52 M 17 Los Angeles CA
388 Cuevas,Ruben 1426 48:54.3 48:44.7 7:52 M 16 Los Angeles CA
389 Keiley,Gretchen 2155 50:16.2 48:46.6 7:52 F 36 Santa Monica CA
390 Smith,Jenni 4947 49:05.7 48:48.1 7:52 F 32 Studio City CA
391 Wallace,Gabe 4728 50:41.2 48:48.9 7:52 M 34 Santa Monica CA
392 Elias,Christopher 1585 50:27.9 48:49.2 7:52 M 32 Culver City CA
393 Sovero,Monica 3232 50:08.6 48:49.2 7:52 F 30 San Diego CA
394 Delwiche,Alexa 1475 50:28.1 48:49.3 7:52 F 31 Culver City CA
395 Wiedemann,Jeremy 3522 50:08.8 48:50.1 7:53 M 30 San Diego CA
396 Duckett,Keith 1549 49:31.1 48:50.9 7:53 M 33 Torrance CA
397 Ford,Susan Alvano 1686 48:58.3 48:51.9 7:53 F 57 Downey CA
398 Cho,Steve 4742 52:56.2 48:52.3 7:53 M 45 Manhattan Beach CA
399 Velasco,Cauhtemoc 3657 50:26.3 48:52.7 7:53 M 40 Los Angeles CA
400 Lansley,Craig 2300 49:40.8 48:54.3 7:53 M 32 Indio CA
401 Greger,Jodie 3824 49:28.0 48:55.4 7:53 F 50 El Segundo CA
402 Wong,Eva 3546 50:13.0 48:55.6 7:53 F 46 Manhattan Beach CA
403 Muro,Isaiah 2655 49:15.0 48:56.5 7:54 M 41 Westlake Village CA
404 Gobel,Edie 1789 53:14.9 48:56.5 7:54 F 28 Newport Beach CA
405 Paterno,Molly 4771 50:28.2 48:57.0 7:54 F 25 Santa Monica CA
406 Vera,Nicole 754 49:17.1 48:58.9 7:54 F 21 Playa Del Rey CA
407 Lewis,Jenny 2363 50:42.2 49:00.1 7:54 F 25 Los Angeles CA
408 Culver,Rich 1429 51:19.5 49:00.3 7:54 M 39 Culver City CA
409 Denby,Katelyn 1477 50:20.4 49:00.5 7:54 F 26 Santa Monica CA
410 Reilly,Kevin 3812 50:53.4 49:01.4 7:54 M 33 Venice CA
411 Kritzeck,Bryan 2255 50:27.5 49:02.0 7:55 M 27 Burbank CA
412 Sroka,John 4710 50:47.7 49:02.6 7:55 M 29 Burbank CA
413 Quemada,John 2887 49:39.4 49:04.6 7:55 M 56 Pahoa HI
414 Gilbert,Greg 1774 50:35.7 49:06.1 7:55 M 36 Glendale CA
415 Waters,Simon 3483 50:26.9 49:06.6 7:55 M 40 Altadena CA
416 Kuzina,Christopher 2269 51:32.8 49:08.5 7:56 M 37 Long Beach CA
417 Friedman,Danielle 1695 51:20.8 49:08.6 7:56 F 36 Studio City CA
418 Wooden,Casey 4983 49:20.8 49:09.3 7:56 M 29 Los Angeles CA
419 House,Tim 2007 49:33.5 49:11.0 7:56 M 55 Palmdale CA
420 Sandoval,Francisco 3061 50:30.2 49:12.8 7:56 M 43 Venice CA
421 Triquart,Stephanie 3375 50:50.5 49:14.0 7:56 F 36 Pasadena CA
422 Metz,Mike 579 49:20.4 49:17.3 7:57 M 26 Los Angeles CA
423 Parra,James 3930 51:24.5 49:17.7 7:57 M 32 Los Angeles CA
424 Allen,Scott 294 49:25.4 49:19.2 7:57 M 50 Santa Monica CA
425 Ayon,Mario 991 50:35.7 49:20.8 7:58 M 52 Downey CA
426 Zaeske,Jeff 4843 49:22.8 49:21.5 7:58 M 37 Los Angeles CA
427 Cabral,Carlos 3926 52:11.0 49:21.6 7:58 M 60 Laguna Niguel CA
428 Pongmanopap,Melody 687 51:02.5 49:22.8 7:58 F 24 Redondo Beach CA
429 Beauregard,Michael 1037 50:21.5 49:25.8 7:58 M 36 Los Angeles CA
430 Ryan,Jacquelyn 3032 49:57.1 49:26.4 7:58 F 26 Livonia MI
431 Jury,Paul 4854 52:13.5 49:28.6 7:59 M 31 Venice CA
432 Sardelli,Steven 3073 49:58.0 49:29.7 7:59 M 46 Sherman Oaks CA
433 Hartman,Jeff 4909 49:58.1 49:30.2 7:59 M 39 Sherman Oaks CA
434 Florentino,Christian 1668 49:42.1 49:32.4 7:59 M 16 Los Angeles CA
435 Schreiber,Nick 4732 52:13.6 49:35.5 8:00 M 24 Los Angeles CA
436 Passalacqua,Patricia 4891 50:27.0 49:35.6 8:00 F 25 Valencia CA
437 Nonnemaker,Christi 517 49:52.5 49:36.0 8:00 F 23 Playa Del Rey CA
438 Dobos,Bruce 461 51:29.6 49:36.7 8:00 M 60 Lomita CA
439 Bushi,Angelyn 1208 51:05.1 49:36.7 8:00 F 23 Santa Monica CA
440 Chase,Tyler 1281 50:02.6 49:37.5 8:00 F 21 Los Angeles CA
441 Edwards,Aaron 1574 50:58.2 49:38.3 8:00 M 27 Los Angeles CA
442 Soga,Saori 3212 51:04.5 49:39.6 8:01 F 37 Santa Monica CA
443 Reade,Bobby 2917 51:16.3 49:39.8 8:01 M 35 North Hollywood CA
444 Hartinger,Michael 1902 51:18.5 49:41.6 8:01 M 27 Los Angeles CA
445 Thomas,Jim 3331 53:14.2 49:41.7 8:01 M 35 Los Angeles CA
446 Murakami,Larry 2654 49:52.2 49:41.8 8:01 M 62 Torrance CA
447 Kwan,Phillip 2271 50:41.5 49:43.7 8:01 M 47 Culver City CA
448 Cho,Teresa 4740 53:47.3 49:43.8 8:01 F 46
449 Penaloza,Tawny 3902 52:21.5 49:52.4 8:03 F 26 Venice CA
450 Poddigue,Umberto 2857 50:09.8 49:53.4 8:03 M 25 Riverside CA
451 Gilbert,Craig 1773 50:05.5 49:55.6 8:03 M 61 Venice CA
452 Rosien,Christopher 2997 52:39.9 49:55.8 8:03 M 41 Culver City CA
453 Cavallaro,Kathryn 1262 50:53.6 49:55.9 8:03 F 28 Santa Monica CA
454 Rodriguez,Sal 2984 50:57.4 49:56.7 8:03 M 40 Torrance CA
455 Perry,Jennifer 2827 50:03.0 49:56.9 8:03 F 50 Santa Monica CA
456 Greenfield,Glen 3635 50:17.4 49:58.1 8:04 M 57 Santa Monica CA
457 Johnson,Jennifer 2090 50:22.6 49:58.9 8:04 F 35 Torrance CA
458 Faris,Maureen 1633 50:32.5 50:00.8 8:04 F 33 Santa Monica CA
459 Wong,Lauren 3548 50:25.5 50:00.9 8:04 F 29 Venice CA
460 Galiano,Sue 4776 50:32.8 50:01.2 8:04 F 34 Santa Monica CA
461 Slapnicka,Allison 3188 50:25.8 50:01.6 8:04 F 29 Hermosa Beach CA
462 Peterson,Anna 2833 50:33.0 50:01.8 8:04 F 30 Pacific Palisades CA
463 Szalankiewicz,George 4979 52:28.5 50:03.5 8:04 M 36 Los Angeles CA
464 Newman,Mark 3977 50:16.3 50:04.7 8:05 M 44 Granada Hills CA
465 Chapus,Victoria 4827 52:26.7 50:05.8 8:05 F 47 Pacific Palisades CA
466 Rose,Monis 2993 50:40.4 50:06.3 8:05 M 25 Los Angeles CA
467 Timm,Adam 3348 51:40.9 50:06.4 8:05 M 31 Los Angeles CA
468 Oloughlin,Jean 2746 51:14.0 50:07.2 8:05 F 34 Santa Monica CA
469 Contreras,Andrew 1372 51:17.9 50:08.1 8:05 M 29 La Puente CA
470 Santana,Victor 522 51:01.6 50:09.4 8:05 M 39 Los Angeles CA
471 Carr,Jim 1246 50:26.2 50:11.0 8:06 M 60 Malibu CA
472 Mccallion,Melinda 2511 50:36.3 50:11.2 8:06 F 31 Simi Valley CA
473 Blumenthal,Jason 1101 51:10.6 50:11.7 8:06 M 42 Los Angeles CA
474 Bingham,Leah 1080 50:36.6 50:11.7 8:06 F 29 Simi Valley CA
475 Morris,Paul 436 51:57.1 50:12.2 8:06 M 29 Monterey Park CA
476 Cronin,Courtney 1415 51:44.7 50:14.1 8:06 F 24 Los Angeles CA
477 Welsh,Paul 279 50:45.2 50:14.8 8:06 M 48 Santa Monica CA
478 Deleris,Angelique 1471 52:21.1 50:15.6 8:06 F 31 Santa Monica CA
479 Johnstone,Robert 4822 53:14.3 50:15.8 8:06 M 58 Camarillo CA
480 Whited,Anita 3518 51:51.6 50:15.9 8:06 F 40 Sierra Madre CA
481 Aronson,Michele 976 51:10.1 50:16.6 8:07 F 41 Los Angeles CA
482 Rubey,Theresa 4775 51:20.1 50:17.6 8:07 F 39 Venice CA
483 Cabalar,Nicole 426 53:07.8 50:18.0 8:07 F 25 Santa Monica CA
484 Nicol,Scot 3620 52:29.6 50:18.6 8:07 M 30 El Segundo CA
485 Wright,Kevin 4714 52:29.5 50:18.6 8:07 M 27 Manhattan Beach CA
486 Schanz,Fawn 3091 50:31.3 50:18.7 8:07 F 31 Los Angeles CA
487 Matthew,Marissa 2500 51:29.5 50:20.8 8:07 F 25 Los Angeles CA
488 Bosse,Matthew 1119 50:44.9 50:21.0 8:07 M 37 Sierra Madre CA
489 Mascetta,Michael 4918 50:36.6 50:21.1 8:07 M 40 Redondo Beach CA
490 Surger,Eddie 560 51:29.5 50:21.1 8:07 M 26 Santa Monica CA
491 Defelice,Heather 1469 51:35.2 50:21.3 8:07 F 31 Culver City CA
492 Castellanqs,Brandon 3801 52:25.0 50:22.4 8:07 M 28 Whittier CA
493 Kurath,Roger 111 50:32.4 50:23.9 8:08 M 43 Marina Del Rey CA
494 BarroN.,Sergio 1025 52:15.5 50:24.2 8:08 M 38 La Puente CA
495 Padgett,Harry 2771 51:26.2 50:24.6 8:08 M 29 Pasadena CA
496 Banchero,Kaitlyn 1013 51:25.8 50:24.8 8:08 F 22 Venice CA
497 Berner,Wendy 350 51:10.3 50:25.1 8:08 F 26 Hamburg NY
498 Mendez,Alex 2571 51:15.1 50:27.9 8:08 M 39 Los Angeles CA
499 Dickstein,Doug 4906 50:46.0 50:31.5 8:09 M 39 Los Angeles CA
500 Mohr,Rachel 2608 50:35.4 50:31.7 8:09 F 33 Los Angeles CA
501 Meepos,Barry 2558 55:09.2 50:32.5 8:09 M 50 Santa Monica CA
502 Roset,Melody 2995 51:10.2 50:33.1 8:09 F 44 Los Angeles CA
503 Kuo,Lee 2263 51:06.8 50:33.4 8:09 M 41 Arcadia CA
504 Kredel,Karen 2249 50:36.9 50:33.5 8:09 F 49 Palos Verdes Peninsu CA
505 Hirsch,Brad 1964 51:09.0 50:34.0 8:09 M 50 Calabasas CA
506 Heath,Levi 1931 50:51.6 50:34.6 8:09 M 36 Los Angeles CA
507 Fuentes,Isai 1702 50:42.8 50:34.7 8:09 M 17 Los Angeles CA
508 Cabellon,Jonathan 1219 52:19.4 50:34.9 8:10 M 49 Pomona CA
509 Putnam,John 4737 51:27.3 50:35.9 8:10 M 46 Santa Monica CA
510 Huber,Christopher 2026 51:11.7 50:36.0 8:10 M 50 Santa Monica CA
511 Schmand,Eric 3101 51:11.9 50:37.4 8:10 M 55 Marina Del Rey CA
512 Foster,Mary 1689 51:43.8 50:38.7 8:10 F 21
513 Lynch,Kate 819 50:47.0 50:39.1 8:10 F 42 Laguna Hills CA
514 Villa,Robert 3666 50:54.1 50:39.2 8:10 M 40 Redondo Beach CA
515 Shorin,Allie 3157 51:44.5 50:39.4 8:10 F 18 Palo Alto CA
516 Sparks,Michael 734 52:09.2 50:40.6 8:10 M 28 Santa Monica CA
517 Buelow,Jane 1193 53:35.1 50:40.7 8:10 F 28 Marina Del Rey CA
518 Holmes,Michelle 1984 51:10.7 50:40.7 8:10 F 30 Los Angeles CA
519 Bailey,Craig 1003 51:07.0 50:41.4 8:11 M 44 Venice CA
520 Phelps-torres,Yvonne 2843 53:57.4 50:42.5 8:11 F 38 Victorville CA
521 Hermann,Valerie 161 51:30.8 50:43.0 8:11 F 25 West Hollywood CA
522 Hayne,Paul 1926 52:20.5 50:43.6 8:11 M 29 Venice CA
523 Mandl,Jason 3908 50:54.2 50:46.6 8:11 M 31 Santa Monica CA
524 Williamson,Jim 3534 51:23.3 50:47.5 8:12 M 40 Los Angeles CA
525 Thacker,Robert 534 52:52.0 50:47.5 8:12 M 33 Santa Monica CA
526 Palmer,Jill 533 52:52.1 50:48.1 8:12 F 33 Santa Monica CA
527 Blankenship,Bobby 555 52:59.3 50:50.1 8:12 M 31 Los Angeles CA
528 Karki,Puja 288 51:41.0 50:53.0 8:12 F 32 Los Angeles CA
529 Vargas,Virginia 4725 51:30.2 50:55.0 8:13 F 50 Carson CA
530 Antonio,Jeff 832 51:56.1 50:55.6 8:13 M 43 Encino CA
531 London,Judy 2389 51:02.9 50:56.0 8:13 F 47 Santa Monica CA
532 Duffy,Mike 1553 51:33.7 50:58.1 8:13 M 36 Culver City CA
533 Stewart,Donovan 3259 51:47.9 50:58.3 8:13 M 34 Manhattan Beach CA
534 Fretschl,Julia 3642 51:08.2 50:58.3 8:13 F 52 Hermosa Beach CA
535 Ehrgott,Richard 3714 51:11.3 50:58.9 8:13 M 57 Topanga CA
536 Bromfield,Martha 1175 51:13.1 50:59.3 8:13 F 23 Pasadena CA
537 Greathouse,Michelle 1828 52:29.9 50:59.4 8:13 F 30 Thousand Oaks CA
538 Anderson,Brian 4745 51:48.1 50:59.6 8:13 M 36 Marina Del Rey CA
539 Kaler,Jamie 2127 51:35.9 50:59.8 8:14 M 36 Culver City CA
540 Chipot,Gabby 1308 51:13.8 51:00.5 8:14 F 22 Monrovia CA
541 Oliver,Dene 3709 53:04.2 51:02.3 8:14 M 38 Lomita CA
542 Gill,Jasmine 1776 51:42.4 51:02.3 8:14 F 14 Tarzana CA
543 Winters,Adam 3538 52:25.3 51:04.5 8:14 M 40 Santa Monica CA
544 Bayliss,Victor 1032 52:18.9 51:04.6 8:14 M 37 Studio City CA
545 Mccrory,Dawn 483 52:07.3 51:05.3 8:14 F 51 Marina Del Rey CA
546 Kravitz,Jolanda 2248 51:13.9 51:07.3 8:15 F 37 Culver City CA
547 Sarkissian,Kevin 3074 52:03.9 51:07.6 8:15 M 43 Valencia CA
548 Garcia,Maria Margarita 1740 51:33.4 51:08.7 8:15 F 38 Los Angeles CA
549 Silber,James 3169 51:52.5 51:08.7 8:15 M 47 Santa Monica CA
550 Ewbank,Michael 1622 52:43.1 51:08.9 8:15 M 48 Pacific Palisades CA
551 Nunes,Bianca 525 51:37.4 51:09.3 8:15 F 27 Santa Monica CA
552 Lucero,Michael 2417 51:51.1 51:10.0 8:15 M 24 Maywood CA
553 Cassidy,Jenna 1255 55:16.7 51:11.9 8:15 F 34 El Segundo CA
554 Hayes,Dennis 1923 51:17.2 51:14.4 8:16 M 41 Redondo Beach CA
555 Lim,Stanley 2370 54:03.8 51:15.3 8:16 M 37 West Covina CA
556 Napoli,Nicholas 2668 51:34.0 51:15.9 8:16 M 34 Hermosa Beach CA
557 Lim,Mark 3906 51:48.7 51:16.8 8:16 M 28 Manhattan Beach CA
558 Williams,Pete 4823 53:19.6 51:17.1 8:16 M 57 Pasadena CA
559 Beatty,Emily 542 51:50.1 51:17.2 8:16 F 42 Pacific Palisades CA
560 Chiu,William 743 52:32.3 51:17.6 8:16 M 30 Irvine CA
561 Bensussen,Noelle 475 51:36.4 51:19.3 8:17 F 37 Sherman Oaks CA
562 Trott,John 162 52:51.5 51:19.7 8:17 M 43 Venice CA
563 Mclagan,Stephanie 2531 52:08.5 51:19.7 8:17 F 47 Manhattan Beach CA
564 Desantis,Vincent 1484 51:52.5 51:19.9 8:17 M 13 Pacific Palisades CA
565 Patterson,Daniel 2798 54:22.1 51:20.4 8:17 M 30 Los Angeles CA
566 Schenck,William 359 51:36.2 51:21.3 8:17 M 43 Los Angeles CA
567 Guerrero,Gabriel 1851 52:41.8 51:21.9 8:17 M 28 Los Angeles CA
568 Valentina,Elizabeth 4733 51:31.4 51:24.3 8:17 F 37 Santa Monica CA
569 Milner,Romina 677 52:44.3 51:25.1 8:18 F 36 Pacific Palisades CA
570 Sandzimier,Bruce 3065 52:00.2 51:25.5 8:18 M 55 Woodland Hills CA
571 Bekker,Frank 1047 54:26.1 51:26.9 8:18 M 47 Claremont CA
572 Brent,Will 1155 52:17.4 51:27.8 8:18 M 39 Manhattan Beach CA
573 Pereira,Juan 2818 52:29.4 51:27.9 8:18 M 39 Santa Monica CA
574 Khatod,Monti 3904 52:16.6 51:27.9 8:18 M 40 Santa Monica CA
575 Korsgaard,Skip 2236 51:42.0 51:28.3 8:18 M 70 Manhattan Beach CA
576 Guttmann,Analise 425 54:18.9 51:28.7 8:18 F 25 Santa Monica CA
577 Parks,Russell 2790 52:19.5 51:29.4 8:18 M 36 Manhattan Beach CA
578 Ward,Peter 3475 52:19.6 51:29.4 8:18 M 42 Manhattan Beach CA
579 Matthew,Kimberly 2499 52:34.6 51:30.4 8:18 F 25 Los Angeles CA
580 Rivera,Rick 2962 53:44.9 51:30.5 8:18 M 30 San Dimas CA
581 Boomer,Tom 3713 51:32.7 51:30.9 8:19 M 68 Pasadena CA
582 Mckim,Jon 2530 52:34.0 51:31.6 8:19 M 28 Granada Hills CA
583 Cairns,Alex 3608 53:13.4 51:35.0 8:19 M 28 Santa Monica CA
584 Peacock,Jacob 566 1:00:44.7 51:36.3 8:19 M 32 Santa Monica CA
585 Whalen,Megan 3905 52:38.5 51:38.8 8:20 F 51 Santa Monica CA
586 Bordal,Jane 876 51:47.7 51:40.8 8:20 F 44 Santa Monica CA
587 Ambros,Rick 937 53:08.8 51:41.0 8:20 M 51 Studio City CA
588 Sklar,Rachel 4995 53:29.9 51:41.1 8:20 F 29 Santa Monica CA
589 Sites,Kevin 3182 53:57.4 51:41.2 8:20 M 48 Santa Monica CA
590 Yeager,Nicholas 633 52:58.2 51:41.5 8:20 M 32 Santa Monica CA
591 Williams,Kimberly 222 52:00.4 51:42.5 8:20 F 29 Woodway TX
592 Muller,Alberta 221 52:00.2 51:42.6 8:20 F 36 Newport Beach CA
593 Woo,Elizabeth 3552 54:06.5 51:43.0 8:20 F 31 Pasadena CA
594 Bowman,Michael 1133 53:42.0 51:48.7 8:21 M 26 Santa Monica CA
595 Nguyen-long,Victor 2700 51:57.7 51:49.5 8:22 M 31 Venice CA
596 Horvitz,Michelle 2002 52:37.1 51:49.6 8:22 F 37 Los Angeles CA
597 Frizzell,Barbara 1699 52:04.9 51:50.1 8:22 F 51 Boise ID
598 Hooley,Chip 1988 54:49.7 51:50.1 8:22 M 28 Los Angeles CA
599 Avery,David 986 52:48.4 51:50.6 8:22 M 40 Culver City CA
600 Haglund,Alicia 1867 54:06.3 51:51.2 8:22 F 39 Los Angeles CA
601 Thomas,Alexandra 3330 53:30.1 51:51.8 8:22 F 28 Venice CA
602 Altamura,Tony 927 52:47.8 51:53.0 8:22 M 49 Redondo Beach CA
603 Bojman,Ludmila 332 52:08.7 51:53.3 8:22 F 59 Los Angeles CA
604 Galvan,Richard 1723 54:13.3 51:53.7 8:22 M 26 Escondido CA
605 Lin,Susie 817 52:31.8 51:53.8 8:22 F 39 Santa Monica CA
606 Soo Hoo,Melissa 3221 52:37.0 51:55.9 8:23 F 25 Los Angeles CA
607 Pasternak,Miriam 128 52:19.4 51:57.2 8:23 F 25 West Hills CA
608 Desai,Neil 1482 55:36.4 51:58.4 8:23 M 32 Irvine CA
609 Bryant,Kevin 1191 52:18.2 51:58.8 8:23 M 18 San Bernardino CA
610 Allen,Albert 922 52:00.7 51:59.4 8:23 M 65 Inglewood CA
611 Hirsch,Chona 725 52:49.9 52:00.9 8:23 F 40 Los Angeles CA
612 Amenda,David 939 53:56.6 52:02.3 8:24 M 56 Redondo Beach CA
613 Cohee,Courtney 1351 52:11.5 52:02.4 8:24 F 39 Santa Monica CA
614 Micewicz,Jason 2580 56:08.5 52:03.5 8:24 M 30 El Segundo CA
615 Abasolo,Israel 881 55:32.1 52:03.7 8:24 M 34 Los Angeles CA
616 Sigmon,Catherine 587 54:03.9 52:04.0 8:24 F 31 Santa Monica CA
617 Potter,Anthony 540 52:42.4 52:04.7 8:24 M 32 Santa Monica CA
618 Fernandes,Fara 732 52:42.2 52:05.3 8:24 F 32 Santa Monica CA
619 Douglass,Kimberly 598 52:35.2 52:05.3 8:24 F 26 Los Angeles CA
620 Rodriguez,Eduardo 2981 52:46.5 52:06.0 8:24 M 24 Bell CA
621 Vita,Albert 3448 54:30.1 52:06.2 8:24 M 38 Los Angeles CA
622 Gordon,Gavin 3969 53:52.3 52:07.1 8:24 M 33 Los Angeles CA
623 Hoang,Kimberly 1971 52:39.6 52:08.5 8:25 F 22 Los Angeles CA
624 Jensen,Niki 4869 54:12.9 52:08.6 8:25 F 28 Beverly Hills CA
625 Evan,Kimberly 4741 53:52.6 52:09.2 8:25 F 40 Santa Monica CA
626 Mullisen,Warren 2648 52:13.9 52:09.6 8:25 M 66 Culver City CA
627 Matteson,Kellie 3719 53:18.0 52:09.9 8:25 F 28 Santa Monica CA
628 Korgie,Marcus 2234 54:08.4 52:10.1 8:25 M 34 Los Angeles CA
629 Lee,James 2327 53:00.3 52:10.2 8:25 M 22 Arcadia CA
630 Hayden,Katie 1921 52:53.8 52:10.4 8:25 F 28 Los Angeles CA
631 Liang,Lawrence 796 52:11.0 52:11.6 8:25 M 58
632 Saunders,Andrea 163 53:44.4 52:12.7 8:25 F 32 Marina Del Rey CA
633 Mainstain,Darrin 2450 53:16.4 52:13.0 8:25 M 27 Los Angeles CA
634 Doyle,Andrew 1543 53:21.4 52:13.7 8:25 M 30 North Hollywood CA
635 Strickker,Tom 3809 53:59.3 52:13.7 8:25 M 48 Venice CA
636 Real,Paul 2918 52:47.9 52:14.1 8:26 M 40 Santa Monica CA
637 Fanous,Christy 720 54:14.5 52:14.6 8:26 F 35 Santa Monica CA
638 Chambers,Rob 341 53:04.1 52:14.7 8:26 M 35 Pacific Palisades CA
639 Keng,Pei 2166 52:49.3 52:18.4 8:26 F 28 Los Angeles CA
640 Button,Justin 1216 53:18.6 52:18.5 8:26 M 27 Santa Monica CA
641 Lara,Dolores 2301 52:29.8 52:19.2 8:26 F 56 Aliso Viejo CA
642 Schlendering,Steve 3100 53:20.6 52:19.6 8:26 M 62 Huntsville AL
643 Kohm,Madeline 2231 52:48.6 52:20.0 8:26 F 22 Los Angeles CA
644 Bae,Caroline Mimi 996 52:50.8 52:20.3 8:27 F 40 Los Angeles CA
645 Nakamura,Michelle 2666 52:27.3 52:23.1 8:27 F 47 Burbank CA
646 Fentress,Lee 1643 52:24.7 52:24.7 8:27 M 33 Venice CA
647 Abramovitz,Zohar 884 53:16.7 52:25.2 8:27 M 35 Los Angeles CA
648 Smith,Cynthia 3194 52:46.0 52:25.9 8:27 F 56 Venice CA
649 Ryan,Kevin 98 52:40.9 52:27.6 8:28 M 29 Los Angeles CA
650 Dirks,Jody 779 54:21.9 52:27.6 8:28 F 37 Milwaukee WI
651 Urbom,Nick 3399 54:46.9 52:28.1 8:28 M 29 West Hollywood CA
652 Maraghy,Shannon 2465 54:27.9 52:28.2 8:28 F 35 Los Angeles CA
653 Pounds,Preston 2867 54:20.0 52:30.7 8:28 M 18 Redlands CA
654 Stillsan,Heather 4781 52:49.5 52:30.8 8:28 F 42 Santa Monica CA
655 Blagbrough,Paul 1090 54:51.4 52:32.7 8:29 M 44 Culver City CA
656 Hedrick,Susan 1934 55:28.1 52:33.8 8:29 F 58 Solana Beach CA
657 Hsieh,Henry 2016 53:04.5 52:34.0 8:29 M 35 Los Angeles CA
658 Rosenstock,Melissa 416 53:37.9 52:34.5 8:29 F 35 Santa Monica CA
659 Leal,Juana 2319 52:42.6 52:34.9 8:29 F 38 Los Angeles CA
660 Knapp-ziegler,Jessica 2218 53:30.1 52:35.2 8:29 F 40 Lexington KY
661 Hirsch,Douglas 724 53:37.8 52:36.0 8:29 M 40 Los Angeles CA
662 Snyder,Denise 3208 54:28.3 52:36.4 8:29 F 49 Fullerton CA
663 Federico,Sarah 1639 53:30.2 52:37.1 8:29 F 29 Los Angeles CA
664 Haverstock,Stacy 1914 53:26.0 52:37.2 8:29 F 35 Pasadena CA
665 Hiatt,Hamilton 1957 52:46.9 52:37.3 8:29 M 30 Huntington Beach CA
666 Alpuche,Oliver 3920 52:49.7 52:37.4 8:29 F 29 Los Angeles CA
667 Ward,David 3653 52:49.7 52:37.6 8:29 M 28 Marina Del Rey CA
668 Martini,Sarah 3654 52:49.7 52:37.9 8:29 F 34 Santa Monica CA
669 Zika,Kaitlin 3597 53:16.5 52:38.4 8:29 F 23 Los Angeles CA
670 Gallagher,Leslie 1721 53:43.4 52:38.6 8:29 F 47 Los Angeles CA
671 Kokesh,Stephanie 795 53:00.1 52:38.7 8:29 F 27 Santa Monica CA
672 Preciado,Anthony 3614 52:45.6 52:38.9 8:30 M 28 Sun Valley CA
673 Wypyski,Christopher 3555 54:07.4 52:39.2 8:30 M 0 Venice CA
674 Katz,Rachelle 2149 52:42.1 52:40.6 8:30 F 58 Northridge CA
675 Pagdan,Victor 2774 52:59.8 52:40.6 8:30 M 43 El Segundo CA
676 Robinson,Jeremy 2968 53:49.0 52:41.5 8:30 M 37 Sierra Madre CA
677 Yamato,Sharon 3557 54:24.8 52:43.2 8:30 F 61 Playa Del Rey CA
678 Okabayashi,Donna 310 54:34.8 52:45.3 8:31 F 45 Granada Hills CA
679 Eastland,Erin 1570 52:59.2 52:45.7 8:31 F 32 Santa Monica CA
680 Collins,Christopher 1362 54:29.0 52:46.2 8:31 M 30 Playa Del Rey CA
681 Vidana,Ito 3435 52:58.3 52:46.7 8:31 M 32 Rialto CA
682 Fielding,Angie 4900 53:00.2 52:49.3 8:31 F 42 Los Angeles CA
683 Bovaird,Lisette 361 55:17.6 52:49.6 8:31 F 44 Los Angeles CA
684 Bodkin,Caroline 1106 55:29.9 52:49.8 8:31 F 31 Venice CA
685 Dornbusch,Noreen 1527 53:03.6 52:49.9 8:31 F 30 Los Angeles CA
686 Lovano,Teri 2406 53:32.6 52:50.5 8:31 F 49 Redondo Beach CA
687 Morrison,Karen 431 55:24.6 52:50.6 8:31 F 52 Santa Monica CA
688 Rosenbaum,Dave 4982 53:44.1 52:50.7 8:31 M 34 Santa Monica CA
689 Milan,Tracy 3984 53:08.0 52:51.0 8:31 F 47 Los Angeles CA
690 Mok,Philip 4996 54:53.2 52:53.9 8:32 M 22 Los Angeles CA
691 Roberts,Allyson 2966 53:56.9 52:54.0 8:32 F 52 Rancho Cucamonga CA
692 Kitazume,Hiroaki 2206 53:52.4 52:54.3 8:32 M 32 Los Angeles CA
693 Orrange,Sharon 733 53:21.9 52:54.4 8:32 F 43 Santa Monica CA
694 Levesque,Sarah 265 53:40.2 52:55.0 8:32 F 26 Los Angeles CA
695 Yeon,Rachel Jihee 813 53:23.6 52:55.7 8:32 F 31 Tujunga CA
696 Behnke,Nicole 710 53:59.7 52:56.0 8:32 F 32 Venice CA
697 Tou,Daniel 3710 53:51.7 52:57.1 8:32 M 69 West Hills CA
698 Pounds,Nancy 2866 54:48.1 52:59.2 8:33 F 49 Redlands CA
699 Pierpoint,Linda 678 54:20.5 53:01.3 8:33 F 48 Pacific Palisades CA
700 Gauss,Chris 1752 56:01.2 53:04.6 8:34 M 29 Long Beach CA
701 Archey,Jack 969 55:44.5 53:05.5 8:34 M 40 Playa Del Rey CA
702 Uribe,John 3400 53:10.8 53:06.9 8:34 M 47 West Hollywood CA
703 Hopkins,Christina 373 54:18.3 53:07.3 8:34 F 40 Pacific Palisades CA
704 Reed,Wilma 2923 1:01:06.7 53:08.7 8:34 F 49 Torrance CA
705 Johann,Heather 2081 54:13.9 53:09.2 8:34 F 27 Venice CA
706 Kirchner,Kevin 443 55:29.3 53:09.2 8:34 M 35 Los Angeles CA
707 Kimball,Jason 2193 53:37.0 53:09.4 8:34 M 24 Los Angeles CA
708 Alamillo,Pearla 909 53:18.3 53:09.7 8:34 F 35 Los Angeles CA
709 Mathews,Barbara 321 53:25.4 53:11.0 8:35 F 57 Santa Monica CA
710 Hirst,Richard 1965 54:15.2 53:11.1 8:35 M 26 Culver City CA
711 Mercer,Anne 2574 54:55.0 53:12.5 8:35 F 34 Redondo Beach CA
712 Chum,Soliravy 1326 1:01:10.8 53:13.0 8:35 F 23 Beverly Hills CA
713 Nicol,Kim 3619 55:24.0 53:13.4 8:35 F 28 El Segundo CA
714 Southerland,Ken 3231 54:37.2 53:16.7 8:36 M 45 Santa Monica CA
715 Buran,Diana 4860 54:46.5 53:17.9 8:36 F 34 Los Angeles CA
716 Silva,Fredy 4857 53:27.8 53:19.9 8:36 M 18 Los Angeles CA
717 Boman,Mary Ann 1110 55:00.0 53:20.1 8:36 F 49 Pasadena CA
718 Jasso,Jackie 3997 53:25.6 53:20.1 8:36 F 35 Montebello CA
719 Przytulski,Katie 2880 53:48.5 53:20.5 8:36 F 28 Los Angeles CA
720 Chirone,Brooke 1311 55:16.5 53:20.7 8:36 F 32 Santa Monica CA
721 Cano,Luis 1233 54:02.6 53:21.8 8:36 M 25 Los Angeles CA
722 Olson,Brandon 781 55:16.6 53:22.1 8:36 M 31 Playa Del Rey CA
723 Sailer,Marc 3822 53:38.1 53:22.3 8:37 M 36 Burbank CA
724 Reilly,Sean 2934 53:38.4 53:22.6 8:37 M 33 Playa Del Rey CA
725 Leeper,Carolyn 2336 1:10:02.7 53:23.0 8:37 F 29 Pasadena CA
726 Witt,Elisha 3626 55:59.5 53:24.0 8:37 F 28 Santa Monica CA
727 Decena,Marie 276 55:41.1 53:24.4 8:37 F 31 Long Beach CA
728 Unknown, 3961 55:54.9 53:24.5 8:37 M 0
729 Vollstedt,Brett 3450 56:09.9 53:25.4 8:37 M 31 Sherman Oaks CA
730 Hughes,James 2030 54:33.4 53:25.7 8:37 M 38 Santa Monica CA
731 Au,Abbie 982 53:43.0 53:26.3 8:37 F 39 Northridge CA
732 Yeh,Peter 3724 55:55.2 53:27.6 8:37 M 37 Long Beach CA
733 Spiewak,Benjamin 3237 55:15.9 53:28.1 8:37 M 28 Santa Monica CA
734 Davaloo Khongar,Milad 1448 55:56.1 53:28.1 8:37 M 24 Northridge CA
735 Williams,Lisa 3532 1:05:18.4 53:29.7 8:38 F 29 Los Angeles CA
736 Alvarez,Juan Pablo 932 54:57.4 53:29.8 8:38 M 36 Glendale CA
737 Regino,Elpidio 3992 55:05.9 53:30.7 8:38 M 49 Long Beach CA
738 Soto,Evelyn 4743 54:57.7 53:30.7 8:38 F 30 Newport Beach CA
739 Vasquez,Dena 3420 54:00.9 53:31.0 8:38 F 38 Upland CA
740 Vasquez,Dave 3419 54:00.7 53:31.1 8:38 M 40 Upland CA
741 Jury,Mark 2120 56:16.9 53:32.1 8:38 M 29 Venice CA
742 Gamble,Dolores 3644 54:16.6 53:32.1 8:38 F 46 Manhattan Beach CA
743 Ali,Ahnjel 918 55:14.0 53:32.4 8:38 F 48 Los Angeles CA
744 Reichley,Leigh 4721 54:24.1 53:32.5 8:38 F 37 Los Angeles CA
745 Krakovsky,Apryl 2243 54:09.0 53:32.8 8:38 F 43 Los Angeles CA
746 Bryan,Chase 375 54:10.5 53:33.0 8:38 M 12 Los Angeles CA
747 Ter-stepanian,Mariam 3327 54:14.8 53:33.1 8:38 F 23 Burbank CA
748 Flores,Ileana 1670 54:14.6 53:33.4 8:38 F 38 Los Angeles CA
749 Donahue,Tom 1521 55:35.5 53:33.7 8:38 M 32 Ladera Ranch CA
750 Rearick,Molly 2919 56:18.6 53:34.5 8:38 F 28 Van Nuys CA
751 Miers,Jeremy 2584 57:37.3 53:35.5 8:39 M 27 Santa Monica CA
752 Gokhale,Vedant 4761 54:40.2 53:35.6 8:39 M 33 Manhattan Beach CA
753 Gokhale,Mandaar 3813 54:40.0 53:35.7 8:39 M 43 Manhattan Beach CA
754 Quezada,Adrianna 2890 55:53.2 53:37.5 8:39 F 25 Los Angeles CA
755 Sweeney,Shawn 4813 55:53.0 53:37.7 8:39 F 23 Santa Monica CA
756 Grigaitis,Kristina 1843 55:12.6 53:37.8 8:39 F 35 Costa Mesa CA
757 Stark,Holly 658 54:00.2 53:38.1 8:39 F 26 Valencia CA
758 Santiago,James 3070 54:37.4 53:38.4 8:39 M 30 Valencia CA
759 Gerardo,Monica 1764 55:12.7 53:38.5 8:39 F 34 Corona CA
760 Heavrin,Robert 1932 54:05.7 53:39.4 8:39 M 28
761 Eisen,Melissa 1583 53:57.9 53:40.3 8:39 F 38 Oak Park CA
762 Pellizzer,Gayle 2815 54:15.7 53:41.6 8:40 F 28 Los Angeles CA
763 Denerstein,Caryn 1479 53:59.5 53:41.7 8:40 F 38 Marina Del Rey CA
764 Kuhnert,Macduff 2261 54:35.2 53:42.7 8:40 M 37 Santa Monica CA
765 Unknown, 849 55:01.5 53:42.8 8:40 M 0
766 Kyaw,Christopher 2272 56:27.3 53:43.8 8:40 M 32 Huntington Beach CA
767 Rodas,Melissa 2975 56:27.6 53:44.5 8:40 F 29 Huntington Beach CA
768 Lewis,Andrew 157 56:05.1 53:44.7 8:40 M 36 Los Angeles CA
769 Peters,Jeanine 2830 54:01.4 53:45.9 8:40 F 29 Los Angeles CA
770 Cappel,Mary Lou 1234 54:08.6 53:46.7 8:40 F 61 Huntington Beach CA
771 Tahk,Lisa 3301 55:04.2 53:46.8 8:40 F 34 West Hollywood CA
772 Schwartz,Emily 3685 56:27.8 53:47.1 8:41 F 34 Santa Monica CA
773 Garcia,Marcela 285 57:16.9 53:47.2 8:41 F 36 Covina CA
774 Daniels,Robyn 1441 56:56.1 53:47.3 8:41 F 26 Studio City CA
775 Arraiga,Evelyn 3740 57:16.8 53:47.5 8:41 F 19 Riverside CA
776 Thio,Carolyn 3329 54:39.5 53:50.1 8:41 F 19 Valencia CA
777 Fogarty,Mairin 1678 55:48.1 53:50.4 8:41 F 25 Los Angeles CA
778 Nguyen,Kim 2696 55:41.4 53:50.7 8:41 F 32 San Gabriel CA
779 Eckert,Kay 3646 53:53.0 53:51.1 8:41 M 79 West Covina CA
780 Law,Jacqueline 2307 55:14.3 53:51.3 8:41 F 29 Culver City CA
781 Trainer,Keith 3368 54:26.7 53:51.9 8:41 M 47 La Habra CA
782 Goland,Nicole 1791 54:15.6 53:52.7 8:41 F 25 Woodland Hills CA
783 Chaney,Mathew 1273 55:14.5 53:52.8 8:41 M 39 Culver City CA
784 Lloyd-kolkin,Sarah 2385 54:24.4 53:53.5 8:42 F 29 Santa Monica CA
785 Kelly,Brian 176 54:24.6 53:55.4 8:42 M 36 Santa Monica CA
786 Krajewski,Brandon 2242 56:36.3 53:55.5 8:42 M 27 Santa Monica CA
787 Wong,Troy 3549 55:33.9 53:55.9 8:42 M 44 Diamond Bar CA
788 Bzura,Lori 4846 54:30.2 53:56.2 8:42 F 38 Pacific Palisades CA
789 Bryan,Ines 381 54:34.5 53:56.7 8:42 F 46 Los Angeles CA
790 Reese,Brandy 2926 55:37.5 53:57.2 8:42 F 35 Pasadena CA
791 Paulson,Joseph 2803 56:56.6 53:59.6 8:43 M 32 Venice CA
792 Forester,Molly 1688 54:20.4 53:59.8 8:43 F 43 Saint Charles IL
793 Hooper,Stephen 1990 54:20.7 54:00.7 8:43 M 42 Los Angeles CA
794 Bell,Elizabeth 1051 54:31.1 54:01.0 8:43 F 32 Los Angeles CA
795 Awan,Farial 586 54:22.2 54:02.1 8:43 F 25 Santa Monica CA
796 Vasel,Allison 3417 54:46.6 54:02.5 8:43 F 32 Manhattan Beach CA
797 Hung,Betty 2038 54:22.3 54:03.2 8:43 F 39 Los Angeles CA
798 Barnette,Matt 4717 57:32.9 54:04.1 8:43 M 42 Manhattan Beach CA
799 Doan,Kim 66 57:17.2 54:05.1 8:43 F 44 Los Angeles CA
800 Mcnab,Heather 2545 55:21.9 54:06.2 8:44 F 35 Venice CA
801 Chang,Glen 208 55:48.3 54:06.5 8:44 M 36 Redondo Beach CA
802 Lind,Tom 2374 55:24.2 54:07.4 8:44 M 33 Los Angeles CA
803 Nelson,Karlyn 2682 55:24.2 54:08.1 8:44 F 34 Los Angeles CA
804 Fogt,Darwin 1680 55:35.9 54:09.9 8:44 M 36 Culver City CA
805 Castro,Felipe 1259 55:11.0 54:10.2 8:44 M 30 Los Angeles CA
806 Gonzalez,Jazmin 1805 54:57.7 54:11.7 8:44 F 17 Newhall CA
807 Hughes,Robert 822 56:00.6 54:14.4 8:45 M 57 Venice CA
808 Humphrey,Tami 2037 56:56.5 54:14.5 8:45 F 29 Los Angeles CA
809 Haas-goldberg,Mia 1863 55:01.9 54:15.1 8:45 F 16 Manhattan Beach CA
810 Garcia,Gloria 1734 54:22.8 54:15.3 8:45 F 16 Los Angeles CA
811 Fleitell,Rachel 805 54:56.8 54:15.3 8:45 F 26 Santa Monica CA
812 Bomaster,Cynthia 4777 54:50.1 54:16.7 8:45 F 37 South Windsor CT
813 Kahanamoku,Allison 2126 55:31.0 54:17.6 8:45 F 32 Pacific Palisades CA
814 Sienel,Heather 383 54:49.0 54:17.7 8:45 F 34 Los Angeles CA
815 Ellingsen,Ruth 1586 54:32.4 54:18.5 8:46 F 24 Venice CA
816 Brereton,Jeanine 1156 54:28.6 54:18.6 8:46 F 49 Los Angeles CA
817 Kwon,Yong J 705 56:07.8 54:19.0 8:46 F 30 Los Angeles CA
818 Carlson,Jenni 606 55:01.9 54:19.4 8:46 F 40 Los Angeles CA
819 Su,Luong 561 56:56.6 54:20.1 8:46 M 37 Rosemead CA
820 Sutila,Gigi 3282 55:15.3 54:21.2 8:46 F 56 Santa Monica CA
821 Thomas,John 3332 55:15.1 54:22.9 8:46 M 54 Culver City CA
822 Unknown, 590 55:48.4 54:23.2 8:46 M 0
823 Pendleton,Connie 3972 55:59.1 54:23.7 8:46 F 41 Hawthorne CA
824 Hughes,Kevin 2032 55:48.5 54:23.8 8:46 M 33 Venice CA
825 Punongbayan,Joezen 2884 55:27.2 54:25.9 8:47 M 38 Los Angeles CA
826 Settle,Ami 3131 55:15.1 54:26.3 8:47 F 38 Pacific Palisades CA
827 Robinson,Toni 2971 56:05.8 54:27.1 8:47 F 30 Los Angeles CA
828 Klages,David 245 55:20.3 54:30.1 8:47 M 42 Santa Monica CA
829 Mathews,Alison 2494 55:41.0 54:30.2 8:47 F 33 Marina Del Rey CA
830 O'connor,Kathy 2727 54:45.9 54:31.0 8:48 F 46 Newport Beach CA
831 Mazdisnian,Fariborz 466 54:32.9 54:32.0 8:48 M 49 Los Angeles CA
832 Depalma,Mj 4715 54:43.6 54:34.9 8:48 F 39 Playa Del Rey CA
833 Kane,Scott 4951 57:43.8 54:35.0 8:48 M 31 Van Nuys CA
834 Piercy,Veronique 2848 56:00.6 54:35.1 8:48 F 34 North Hollywood CA
835 Schwab,Ted 3114 55:35.0 54:35.2 8:48 M 51 Santa Monica CA
836 Nohejl,Carolyn 2715 56:35.1 54:36.0 8:48 F 27 Los Angeles CA
837 Jones,Jennifer 16 55:55.0 54:36.0 8:48 F 38 Venice CA
838 Barker,Katie 1017 56:27.0 54:36.2 8:48 F 30 Studio City CA
839 Corbett,Michelle 242 55:30.1 54:36.2 8:48 F 29 Los Angeles CA
840 Moore,John 2623 55:23.1 54:36.3 8:48 M 70 Claremont CA
841 Shimanuki,Kyoko 3733 56:09.6 54:36.7 8:49 F 56 Santa Monica CA
842 Magdovitz,Grant 4734 55:48.6 54:36.8 8:49 M 47 Palm Desert CA
843 Toy,Jonathan 139 57:30.0 54:36.9 8:49 M 28 Long Beach CA
844 Chaney,Caitlin 1272 56:33.2 54:36.9 8:49 F 23 Culver City CA
845 Kreuzer,Robert 2252 58:46.1 54:37.0 8:49 M 32 Redondo Beach CA
846 Espera,Toni 1606 55:15.2 54:37.9 8:49 F 37 Santa Monica CA
847 Linde,Karoline 134 55:34.1 54:40.3 8:49 F 42 Venice CA
848 Nesbit,Jarrod 474 55:40.9 54:40.4 8:49 M 32 Los Angeles CA
849 Kitter,Stacy 2207 54:45.9 54:41.0 8:49 F 33 Santa Monica CA
850 Carlos,Ruby 1242 55:11.6 54:41.2 8:49 F 40 Pacific Palisades CA
851 Moore,Liz 2625 56:14.8 54:41.6 8:49 F 29 Venice CA
852 Carrico,Lillian 1247 55:24.4 54:41.6 8:49 F 35 Los Angeles CA
853 Loya,Angela 4924 54:45.7 54:41.9 8:49 F 33 Malibu CA
854 Park,Joy 190 55:43.9 54:42.2 8:49 F 37 Los Angeles CA
855 Schofield,Athena 3106 54:46.0 54:42.3 8:49 F 41 Malibu CA
856 Vargues,Nelson 3718 55:04.5 54:42.6 8:49 M 43 Van Nuys CA
857 Yang,Dawn Sora 3559 55:21.8 54:42.7 8:49 F 40 Pasadena CA
858 Sharp,Charles 494 55:44.1 54:43.1 8:50 M 40 Los Angeles CA
859 Humphrey,Scott 735 55:59.3 54:43.3 8:50 M 47 Santa Monica CA
860 Meier,Suzanne 2559 54:45.8 54:43.6 8:50 F 44 Hermosa Beach CA
861 Oaida,Catalina 2731 55:55.6 54:44.0 8:50 F 25 Los Angeles CA
862 Baxter,Frank 4755 56:25.0 54:44.9 8:50 M 74 Pacific Palisades CA
863 Habig,Eunice 1865 56:04.1 54:46.2 8:50 F 37
864 Ko,Jae 2221 57:33.8 54:47.1 8:50 M 29 Los Angeles CA
865 Pritchett,Prairie 2874 56:02.8 54:47.6 8:50 F 32 Los Angeles CA
866 Barrera,Mary 1022 57:07.7 54:48.4 8:50 F 45 Moorpark CA
867 Smith,Molly 3204 55:46.6 54:48.7 8:50 F 33 Marina Del Rey CA
868 Smith,Nate 3205 55:46.7 54:48.8 8:50 M 38 Marina Del Rey CA
869 Ho,Catherine 1967 1:06:49.2 54:49.7 8:51 F 25 Los Angeles CA
870 Brandenberger,Wade 1147 56:46.5 54:50.6 8:51 M 33 Santa Monica CA
871 Mcclure,Jennifer 2513 55:18.7 54:50.9 8:51 F 30 Burbank CA
872 Munoz,Maria 2652 54:59.3 54:51.2 8:51 F 16 Los Angeles CA
873 Horwitz,Ann 261 57:11.9 54:51.5 8:51 F 48 Santa Monica CA
874 Cho,Hanna 1314 56:09.6 54:52.4 8:51 F 36 Culver City CA
875 Merz,Christina 3612 57:25.5 54:53.5 8:51 F 25 Los Angeles CA
876 Gauss,Lauren 1753 57:49.8 54:53.8 8:51 F 26 Long Beach CA
877 Saalabi,Sara 3036 57:48.9 54:54.4 8:51 F 26 Westlake Village CA
878 Powers,Peggy 278 55:23.6 54:54.5 8:51 F 60 Marina Del Rey CA
879 Modabber,Trish 275 55:49.7 54:55.2 8:51 F 44 Santa Monica CA
880 Martinez,Rachelle 465 55:43.3 54:56.5 8:52 F 27 Los Angeles CA
881 Bressem,Diane 829 55:43.6 54:57.2 8:52 F 46 Laguna Niguel CA
882 Marlenga,Anne 2474 57:23.6 54:58.1 8:52 F 28 Los Angeles CA
883 Marlenga,Peter 2475 57:24.1 54:58.6 8:52 M 29 Los Angeles CA
884 Newton,Shaun 762 55:38.4 54:59.2 8:52 M 32 Van Nuys CA
885 Alderman,Ashley 913 56:05.6 55:01.6 8:53 F 30 Thousand Oaks CA
886 Nabor,Dustin 2663 56:06.7 55:01.7 8:53 M 35 Thousand Oaks CA
887 Berry,Aubrey 1067 57:25.8 55:01.8 8:53 F 36 Valencia CA
888 Corsa,Winnie 530 55:23.3 55:02.5 8:53 F 29 Los Angeles CA
889 Chittenden,Andrew 3692 57:29.9 55:03.1 8:53 M 23 Culver City CA
890 Kelly,Olivia 2160 56:31.1 55:03.8 8:53 F 35 Santa Monica CA
891 Kelly,Brian 2158 56:31.4 55:03.9 8:53 M 38 Hermosa Beach CA
892 Blount,Charles 4739 55:32.0 55:04.9 8:53 M 38 Los Angeles CA
893 Doan,Quan 1512 56:54.4 55:06.6 8:53 M 29 Chatsworth CA
894 Johnston,Andrew 2096 57:05.0 55:08.4 8:54 M 27 Redondo Beach CA
895 Pittman,Alana 2853 55:26.3 55:08.7 8:54 F 29 Santa Monica CA
896 Anno,Peter 955 58:23.3 55:09.1 8:54 M 40 Torrance CA
897 Matthews,Angela 3708 57:12.5 55:09.8 8:54 F 30 Lomita CA
898 Slattery,Ashley 3189 56:16.5 55:10.5 8:54 F 29 Pasadena CA
899 Filsinger,Peter 1658 56:11.6 55:11.5 8:54 M 39 Pacific Palisades CA
900 Bowman,Kim 1131 58:10.7 55:11.9 8:54 F 34 Moorpark CA
901 Marx,Josh 2487 1:00:35.0 55:11.9 8:54 M 29 Santa Monica CA
902 Barrett,Annie 1023 55:41.4 55:12.1 8:54 F 32 Brooklyn NY
903 Figueroa,Evelyn 1656 57:36.8 55:15.4 8:55 F 25 Los Angeles CA
904 Kredel,Kurt 2250 55:19.7 55:16.6 8:55 M 43 Palos Verdes Peninsu CA
905 Hill,Alicia 3625 55:34.3 55:17.0 8:55 F 13 Los Angeles CA
906 Willett,Aaron 3525 56:21.4 55:17.7 8:55 M 35 Manhattan Beach CA
907 Raichel,Catherine 2898 56:47.4 55:18.9 8:55 F 25 Los Angeles CA
908 Courtade,Sasha 1394 56:33.2 55:20.7 8:56 F 28 Santa Monica CA
909 Nixon,Anthony 457 56:01.0 55:22.4 8:56 M 32 Los Angeles CA
910 Nishizaki,Santor 2710 1:01:30.3 55:22.5 8:56 M 25 Burbank CA
911 O'shaughnessy,Shane 652 55:49.6 55:24.1 8:56 M 20 Santa Monica CA
912 O'shaughnessy,Michael 653 55:49.8 55:24.1 8:56 M 52 Santa Monica CA
913 Unknown, 718 56:55.3 55:24.9 8:56 M 0
914 Schindler,Sara 3611 55:41.6 55:26.5 8:57 F 47 Anaheim CA
915 Baker,Mary 1005 58:29.6 55:31.2 8:57 F 29 Culver City CA
916 Bergen,Sam 3982 58:30.0 55:31.2 8:57 M 28 Santa Monica CA
917 Leus,Joyce 2352 57:48.6 55:31.4 8:57 F 36 Santa Monica CA
918 Leus,Gary 2351 57:48.9 55:31.5 8:57 M 41 Santa Monica CA
919 Scott,Bill 3736 55:59.3 55:32.4 8:57 M 68 Long Beach CA
920 Spence,Carolynn 3236 56:47.9 55:38.1 8:58 F 37 Glendale CA
921 Pfeiffer,Jon 4722 55:54.0 55:38.7 8:59 M 52 Malibu CA
922 Zakowski,Daniel 3587 56:45.7 55:41.3 8:59 M 30 Los Angeles CA
923 Peterson,Beckie 2834 56:07.0 55:42.3 8:59 F 28 Santa Clarita CA
924 Miyamoto,Chinako 773 57:31.2 55:43.2 8:59 F 30 Los Angeles CA
925 King,Modjulie 2198 56:07.3 55:43.3 8:59 F 30 Richmond VA
926 Baer,Jaime 177 56:07.9 55:43.3 8:59 F 26 Venice CA
927 Gonzalez,Oscar 1809 58:03.2 55:43.4 8:59 M 29 Inglewood CA
928 Belanger,Dan 605 57:31.2 55:43.5 8:59 M 36 Los Angeles CA
929 Armand,Brigitte 974 56:26.0 55:44.9 9:00 F 57 Hermosa Beach CA
930 Much,Elizabeth 3968 57:27.6 55:46.1 9:00 F 49 Los Angeles CA
931 Hernandez,Alejandro 109 57:36.7 55:47.2 9:00 M 16 Hawthorne CA
932 Chu,Holly 1324 1:08:31.7 55:50.2 9:00 F 19 Los Angeles CA
933 Pecoraro,Alyse 2809 56:18.6 55:50.6 9:00 F 33 Brooklyn NY
934 Warner,Casey 3478 58:04.6 55:50.9 9:00 F 24 Tomkins Cove NY
935 Ferraro,Steve 1652 58:31.0 55:51.3 9:01 M 33 Irvine CA
936 Diaz,Jeannette 1493 58:31.3 55:51.3 9:01 F 26 Downey CA
937 Skiles,Sara 3184 57:08.9 55:51.8 9:01 F 26 Los Angeles CA
938 Johnson,Brittany 2084 56:54.5 55:52.0 9:01 F 28 Los Angeles CA
939 Garcia,Marcos 1738 1:00:19.5 55:54.7 9:01 M 40 Monrovia CA
940 Krug,Heather 2257 56:13.1 55:54.7 9:01 F 38 Marina Del Rey CA
941 Ortiz,Matthew 149 57:10.9 55:55.8 9:01 M 40 Long Beach CA
942 Sites,Anita 3181 58:11.9 55:56.1 9:01 F 39 Santa Monica CA
943 Ritter,Kevin 2959 56:57.1 55:56.2 9:01 M 35 Manhattan Beach CA
944 Nielsen,Joanne 3636 56:27.1 56:01.6 9:02 F 47 Marina Del Rey CA
945 Hsieh,Daniel 2015 57:20.4 56:04.0 9:03 M 30 Pasadena CA
946 Thomas,Laura 3334 56:43.8 56:04.3 9:03 F 24 Los Angeles CA
947 Walling,Vp 4938 57:33.8 56:05.1 9:03 M 36 Los Angeles CA
948 Ando,Dede 949 56:45.2 56:06.5 9:03 F 49 Rosemead CA
949 Rush,Amy 3025 57:59.4 56:07.3 9:03 F 36 Los Angeles CA
950 Brehm,Sam 1153 56:51.2 56:09.3 9:03 M 53 Woodland Hills CA
951 Doyle,Ellen 1544 56:17.9 56:10.0 9:04 F 45 Redondo Beach CA
952 Kittlaus,Ferdinand 2208 1:07:49.0 56:10.2 9:04 M 29 Whittier CA
953 Sutton-liswith,Sydney 3283 57:15.2 56:10.8 9:04 F 21 Los Angeles CA
954 Morehouse,Amanda 2632 56:43.8 56:11.5 9:04 F 33 Encino CA
955 Spiegel,Jill 709 56:53.8 56:12.3 9:04 F 54 Los Angeles CA
956 Thompson,Reid 3343 57:47.2 56:14.5 9:04 M 41 Los Angeles CA
957 Secor,Perry 3123 56:32.0 56:16.6 9:05 M 56 Los Alamitos CA
958 Adair,Dominique 887 56:47.6 56:16.9 9:05 F 47 Santa Monica CA
959 Zimmerman,James 3598 56:40.3 56:17.2 9:05 M 52 Manhattan Beach CA
960 Parker,Leann 2788 56:31.8 56:17.2 9:05 F 50 Irvine CA
961 Pollard,Zach 2860 58:29.4 56:17.8 9:05 M 35 Santa Monica CA
962 Song,Ginny 329 56:52.7 56:19.3 9:05 F 32 Los Angeles CA
963 Munjas,Brett 2650 56:32.6 56:20.6 9:05 F 29 Santa Monica CA
964 Griffin,Rachel 415 57:24.6 56:21.0 9:05 F 44 Los Angeles CA
965 Cohen,Andrew 1352 56:49.7 56:21.1 9:05 M 42 Encino CA
966 Martinez,Tito 4778 56:55.5 56:21.8 9:05 M 43 Los Angeles CA
967 Reiterer,Laurie 241 57:36.1 56:21.9 9:05 F 43 Playa Del Rey CA
968 Noel,Pete 2714 57:38.1 56:22.5 9:06 M 30 Pasadena CA
969 Sambuchi,Debi 3052 56:56.5 56:23.7 9:06 F 32 Hermosa Beach CA
970 Kelly,Alice 2157 57:23.6 56:24.5 9:06 F 55 Anaheim CA
971 Brough,Cindy 1177 1:00:25.9 56:24.5 9:06 F 26 Santa Monica CA
972 Hollabaugh,Sarah 495 58:33.7 56:24.6 9:06 F 25 Los Angeles CA
973 Henry,Scott 556 58:33.9 56:24.9 9:06 M 26 Los Angeles CA
974 Jacobs,Charmagne 2063 58:41.4 56:26.3 9:06 F 33 Los Angeles CA
975 Peters,Katherine 2831 59:15.5 56:27.2 9:06 F 28 Los Angeles CA
976 Evans,Jeff 575 56:45.2 56:27.9 9:06 M 48 Venice CA
977 Maalouf,Genane 4989 59:10.5 56:29.7 9:07 F 33 Encino CA
978 Alas,Myra 910 56:50.4 56:33.5 9:07 F 36 Los Angeles CA
979 Simmons,Jason 4751 57:40.4 56:34.1 9:07 M 39 Lynwood CA
980 Craswell,Ellen 192 56:49.9 56:34.2 9:07 F 24 Los Angeles CA
981 Desantis,Denise 1483 57:07.7 56:35.3 9:08 F 51 Pacific Palisades CA
982 Ruiseco,Monica 3020 58:15.6 56:35.7 9:08 F 30 Chatsworth CA
983 Veling,Kathy 133 57:49.0 56:35.8 9:08 F 49 Los Angeles CA
984 Hegeman,Trisha 1935 58:15.8 56:35.9 9:08 F 30 Los Angeles CA
985 Kludt,Krissy 2216 58:35.5 56:36.5 9:08 F 26 Los Angeles CA
986 Boucher,Jennifer 1122 57:42.2 56:36.7 9:08 F 18 Long Beach CA
987 Lyon,Bert 2427 59:07.9 56:38.0 9:08 M 33
988 Layne,Jon 2313 59:08.1 56:38.4 9:08 M 32 Newport Beach CA
989 Gudas,Jean 4837 58:08.4 56:40.1 9:08 F 57 Los Angeles CA
990 Higdon,Janet 1958 59:34.7 56:41.7 9:09 F 35 Culver City CA
991 Jennings,Liz 824 58:20.0 56:42.1 9:09 F 30 Santa Monica CA
992 Huber,Caroline 2025 57:18.7 56:43.6 9:09 F 15 Santa Monica CA
993 Ross,Calvin 4969 57:35.0 56:44.2 9:09 M 15 Santa Monica CA
994 Hopkinss,Emma 4865 57:34.3 56:44.4 9:09 F 15 Venice CA
995 Hopkins,Alli 4864 57:35.4 56:45.5 9:09 F 10 Venice CA
996 Buhrman,Rich 3624 57:18.6 56:45.6 9:09 M 39 Redondo Beach CA
997 Vanos,Jeanie 3413 58:03.3 56:45.6 9:09 F 53 Topanga CA
998 Devaney,Shannon 1486 58:15.0 56:45.6 9:09 F 31 Los Angeles CA
999 Choi,James 3913 59:32.5 56:45.7 9:09 M 28 Los Angeles CA
1000 Sayer,Lara 463 58:59.3 56:45.9 9:09 F 37 Redondo Beach CA
1001 Fugate,Nick 4772 59:14.1 56:46.0 9:09 M 24 Santa Monica CA
1002 Hudson,Rob 4853 58:15.0 56:46.1 9:09 M 42 Los Angeles CA
1003 Levit,Ann 2358 57:13.6 56:46.4 9:09 F 40 Los Angeles CA
1004 Coyle,Devin 1402 58:19.1 56:47.1 9:10 M 29 Venice CA
1005 Levene,Michelle 2353 57:42.0 56:48.0 9:10 F 41 Costa Mesa CA
1006 Scott,Maria 3735 57:10.5 56:48.0 9:10 F 46 Long Beach CA
1007 Morbete,Lisa 3693 58:34.6 56:48.4 9:10 F 40 Santa Monica CA
1008 Estrada,Gerardo 1616 57:49.9 56:50.8 9:10 M 15 Los Angeles CA
1009 Rice,Evan 2943 58:00.8 56:51.2 9:10 M 11 Chino Hills CA
1010 Watanabe,Larry 3482 58:03.5 56:53.8 9:11 M 48 Chino Hills CA
1011 Glenn,Jacquelyn 1786 57:22.9 56:54.9 9:11 F 36 Redondo Beach CA
1012 Barling-white,Emily 1020 59:53.0 56:56.1 9:11 F 29 Venice CA
1013 Brady,Rachel 1143 59:35.4 56:56.8 9:11 F 13 Northridge CA
1014 Ralston,Bobby 2902 59:20.0 56:59.6 9:12 M 46 Los Angeles CA
1015 Mahrer,Anat 2449 57:31.1 57:00.4 9:12 F 33 Los Angeles CA
1016 Newberry,Terrell 403 57:10.6 57:01.3 9:12 M 62 Los Angeles CA
1017 Weary,Taylor 3485 58:58.5 57:01.8 9:12 F 17 Santa Monica CA
1018 Cho,Christine 207 58:16.5 57:02.3 9:12 F 27 Los Angeles CA
1019 Vermut,Marc 810 58:07.5 57:03.4 9:12 M 38 Los Angeles CA
1020 Santiago,Lauren 3071 59:05.8 57:03.5 9:12 F 27 Studio City CA
1021 Dominguez,Carlos 3726 57:24.2 57:04.5 9:12 M 48 Granada Hills CA
1022 Kuwana,Torrie 853 57:41.8 57:04.9 9:12 F 33 Pacific Palisades CA
1023 Erhart,Chris 1598 57:15.3 57:05.2 9:12 F 20 Los Angeles CA
1024 Duca,Bee 3986 57:53.1 57:05.3 9:12 F 18 Redondo Beach CA
1025 Doucette,Jessica 1535 59:51.5 57:05.9 9:13 F 24 El Segundo CA
1026 Adelman,Tamara 771 57:58.8 57:06.4 9:13 F 39 Santa Monica CA
1027 Wright,Cami 184 57:43.0 57:06.4 9:13 F 40 Santa Monica CA
1028 De La Cruz,Obidiah 1460 58:06.0 57:06.7 9:13 M 14 Los Angeles CA
1029 Camarata,Tony 1227 58:23.4 57:06.8 9:13 M 36 Aliso Viejo CA
1030 Kinnear,Lizelette 2200 58:33.1 57:07.4 9:13 F 30 North Hollywood CA
1031 Ewing,Zach 1624 57:20.6 57:08.1 9:13 M 33 Santa Monica CA
1032 Mitchell,Heath 2603 57:29.3 57:08.3 9:13 M 35 Weatherford OK
1033 Greenlaw,David 643 59:05.0 57:08.4 9:13 M 50 Acton CA
1034 Pickett,David 268 58:29.4 57:09.8 9:13 M 43 Carson CA
1035 Goodin,William 1810 57:33.9 57:11.3 9:13 M 63 Manhattan Beach CA
1036 Craig,Shannon 1406 58:15.7 57:12.0 9:14 F 20 Los Angeles CA
1037 Orourke,Christina 3917 58:31.3 57:13.3 9:14 F 23 Los Angeles CA
1038 Phillips,Nancy 2845 58:08.0 57:14.3 9:14 F 50 Castaic CA
1039 Leon,Michael 4773 59:43.0 57:14.9 9:14 M 23 Placentia CA
1040 Davison,Lori 202 57:15.8 57:15.8 9:14 F 58 Los Angeles CA
1041 Youngs,Tessa 3613 58:05.1 57:16.8 9:14 F 16 Santa Monica CA
1042 Schmitt,Claire 3103 59:38.1 57:17.2 9:14 F 22 Venice CA
1043 Birkholz,Carriean 3722 58:29.7 57:17.2 9:14 F 38 Los Angeles CA
1044 Holden,Matthias 3648 58:12.6 57:17.7 9:14 M 46 Long Beach CA
1045 Winkelman,Drew 4707 58:01.2 57:17.9 9:15 M 43 Woodland Hills CA
1046 Carlisle,Tobias 1240 58:00.1 57:17.9 9:15 M 31 Santa Monica CA
1047 Lane,Chris 3694 58:30.1 57:17.9 9:15 M 33 Los Angeles CA
1048 Stanley,Canie 4726 57:51.3 57:18.4 9:15 F 39 Agoura Hills CA
1049 Slavich,Destinie 3190 57:45.3 57:18.8 9:15 F 22 Los Angeles CA
1050 Cowan,Monica 1400 59:45.8 57:19.3 9:15 F 23 Culver City CA
1051 Rodriguez,Sabrina 4703 58:25.2 57:20.6 9:15 F 33 West Covina CA
1052 Chung,Michelle 20 57:35.7 57:21.0 9:15 F 27 Elmwood Park IL
1053 Kabe,Nickole 2123 58:03.6 57:21.4 9:15 F 32 Santa Monica CA
1054 Roberts,Krista 3985 58:09.5 57:22.3 9:15 F 18 Manhattan Beach CA
1055 Pritchard,Grant 2873 58:26.7 57:27.4 9:16 M 29 Santa Monica CA
1056 Nakamoto,Todd 2665 58:26.5 57:27.9 9:16 M 42 Santa Monica CA
1057 Kohl,Sue 2230 1:00:21.7 57:28.8 9:16 F 60 Pacific Palisades CA
1058 Hill,Brianna 336 59:39.5 57:30.3 9:17 F 25 Los Angeles CA
1059 Hochstrasser,Stephen 442 57:37.1 57:30.5 9:17 M 43 Los Angeles CA
1060 Perigoe,Robin 2822 59:16.1 57:31.3 9:17 F 25 Playa Del Rey CA
1061 Chennault,Ryan 1293 57:59.1 57:31.3 9:17 M 33 Inglewood CA
1062 Yoshino,Sue 3571 58:02.4 57:32.4 9:17 F 56 Orange CA
1063 Kabe,Erika 4814 58:14.4 57:32.5 9:17 F 62 Palos Verdes Peninsu CA
1064 Sackett,Benjamin 3038 59:39.8 57:33.7 9:17 M 36 Playa Del Rey CA
1065 Pierce,Desiree 2847 57:39.1 57:34.6 9:17 F 39 Los Angeles CA
1066 Wahlgren,Kari 3458 1:00:20.0 57:34.9 9:17 F 33 Burbank CA
1067 Howard,Tim 2013 58:40.0 57:36.0 9:17 M 57 Simi Valley CA
1068 Sage,Tino 3042 1:00:20.4 57:36.1 9:17 F 43 Los Angeles CA
1069 Hawari,Ashraf 1917 58:38.5 57:36.4 9:17 M 32 Las Vegas NV
1070 Lawson,Jeremy 189 59:27.4 57:36.9 9:18 M 31 Los Angeles CA
1071 Federico,Hope 3672 57:41.1 57:37.4 9:18 F 64 Saint Paul MN
1072 Kim,Sujung 2190 1:00:14.9 57:40.6 9:18 F 33 Los Angeles CA
1073 Edwards,Shelley 3831 1:00:36.6 57:40.8 9:18 F 52 Surfside CA
1074 Edwards,Lauren 3830 1:00:36.5 57:41.1 9:18 F 26 Long Beach CA
1075 Hensler,David 546 58:27.4 57:43.1 9:19 M 27 North Hollywood CA
1076 Pederson,Shawni 547 58:27.4 57:43.3 9:19 F 26 Canyon Country CA
1077 Bertasjus,Liene 1070 58:32.7 57:44.3 9:19 F 23 Los Angeles CA
1078 Willis,Kelley 4720 58:24.7 57:44.8 9:19 M 55 Venice CA
1079 Kersbergen,Kari 2170 58:44.0 57:45.6 9:19 F 23 Los Angeles CA
1080 Cha,Shawna 1264 58:57.4 57:46.2 9:19 F 45 Pasadena CA
1081 Everhart,Elizabeth 1621 59:18.1 57:47.2 9:19 F 26 Los Angeles CA
1082 Castillo,Joe 1257 59:11.2 57:47.3 9:19 M 54 Lomita CA
1083 Dobles,Raffaella 3965 1:00:17.5 57:48.2 9:19 F 21 Venice CA
1084 Fitzpatrick,Tom 3964 1:00:19.4 57:49.0 9:20 M 38 Venice CA
1085 Delseni,Richard 1474 58:44.8 57:51.9 9:20 M 37 Miami FL
1086 Herrel,Randall 1953 59:56.4 57:52.9 9:20 M 25 Newport Coast CA
1087 King,Kelly 401 59:09.5 57:53.4 9:20 F 49 Manhattan Beach CA
1088 Smith,Austen 3191 1:00:22.7 57:54.2 9:20 F 37 Los Angeles CA
1089 Rawlings,John 3630 59:06.1 57:54.6 9:20 M 27 Los Angeles CA
1090 Rawlings,Heidi 3631 59:06.4 57:55.5 9:21 F 23 Los Angeles CA
1091 Cordoba,Carlos 1379 59:25.0 57:56.7 9:21 M 47 Sherman Oaks CA
1092 Benjamin,Alan 1058 59:55.8 58:00.8 9:21 M 57 Santa Monica CA
1093 Mendoza,Zachary 2573 58:49.1 58:01.0 9:21 M 18 Canyon Country CA
1094 Gulash,Liz 3668 1:00:31.1 58:01.3 9:22 F 30 Hermosa Beach CA
1095 Mejia Coteo,Marilyn 2564 58:11.2 58:02.3 9:22 F 16 Los Angeles CA
1096 Spicola,Christine 3731 58:05.4 58:02.8 9:22 F 53 Rancho Cucamonga CA
1097 Barkman,Jon 4810 59:28.7 58:03.8 9:22 M 37 Santa Monica CA
1098 Adam,Zev 3661 59:46.6 58:03.9 9:22 M 28 Santa Monica CA
1099 Bersch,Kirsten 4809 59:28.7 58:04.0 9:22 M 6 Santa Monica CA
1100 Schaffer,Patrick 3088 59:46.9 58:04.3 9:22 M 33 Santa Monica CA
1101 Brown,Steve 1182 1:00:05.9 58:04.3 9:22 M 63 Venice CA
1102 Unknown, 3953 58:26.0 58:04.4 9:22 M 0
1103 Bissonette,Mike 1088 59:28.7 58:05.0 9:22 M 31 West Hollywood CA
1104 Luna,Anabel 2424 59:32.0 58:06.6 9:22 F 30 Los Angeles CA
1105 Medel,Alexandra 2554 58:58.8 58:07.4 9:22 F 16 Valencia CA
1106 Stern,Zachary 3256 59:32.1 58:07.4 9:22 M 25 Los Angeles CA
1107 Harrod,Nicolette 1898 59:58.9 58:07.5 9:23 F 30 Los Angeles CA
1108 Cohen,Brad 3979 59:14.1 58:07.6 9:23 M 57 Los Angeles CA
1109 Levinrad,Eric 2357 58:21.4 58:07.6 9:23 M 44 Santa Monica CA
1110 Tan,Jayme 3308 58:59.1 58:07.6 9:23 F 16 Santa Clarita CA
1111 Haas,Paul 1862 58:35.4 58:09.0 9:23 M 41 Beverly Hills CA
1112 Morley,Neil 2637 59:16.0 58:11.6 9:23 M 45 Santa Monica CA
1113 Hankins,Aaron 1887 59:55.1 58:12.0 9:23 M 30 Los Angeles CA
1114 Rios,Amanda 2957 1:00:39.0 58:12.8 9:23 F 33 Los Angeles CA
1115 Karp,Josh 3954 58:25.8 58:12.9 9:23 M 36 Santa Monica CA
1116 Takahashi,Kenna 3303 59:28.7 58:13.0 9:23 F 41 Venice CA
1117 Berry,Jesse 1068 1:00:38.8 58:13.3 9:23 F 29 Los Angeles CA
1118 Furutani,Mayu 693 1:06:10.4 58:13.9 9:24 F 37 Hacienda Heights CA
1119 Lee,Jacob 4904 59:04.6 58:14.2 9:24 M 10 Stevenson Ranch CA
1120 Maudlin,Carrie 2503 59:15.7 58:14.8 9:24 F 27 San Francisco CA
1121 Rose,Henry 2991 59:20.4 58:14.8 9:24 M 25 Alexandria VA
1122 Furutani,Akihisa 692 1:06:11.8 58:15.0 9:24 M 34 Hacienda Heights CA
1123 Bryant,David 64 1:01:11.7 58:17.0 9:24 M 29 Whittier CA
1124 Tanjuaquio,Dianne 3314 59:29.5 58:18.8 9:24 F 24 Van Nuys CA
1125 Stewart,Julie Ohara 3262 1:00:16.2 58:19.7 9:24 F 38 Manhattan Beach CA
1126 Stewart,John 3261 1:00:16.3 58:19.9 9:25 M 37 Manhattan Beach CA
1127 Schad,Robert 3083 58:55.7 58:20.6 9:25 M 51 Burbank CA
1128 Schmidt,Susan 451 58:35.0 58:20.8 9:25 F 25 Los Angeles CA
1129 Valbuena,Maryann 3723 59:50.2 58:22.9 9:25 F 41 Redondo Beach CA
1130 Hilal,Thomas 4942 59:20.3 58:23.4 9:25 M 36 Venice CA
1131 Clifford,Lauren 1345 1:00:59.6 58:25.4 9:25 F 28 Los Angeles CA
1132 Cruz,Dalia 1424 59:25.6 58:25.4 9:25 F 18 Los Angeles CA
1133 Johnston,Jen 2097 1:00:23.6 58:25.9 9:25 F 27 Redondo Beach CA
1134 Culton,Don 3678 1:01:40.8 58:26.3 9:26 M 70 Los Angeles CA
1135 Ueable,Brooke 510 1:00:33.0 58:27.1 9:26 F 27 Los Angeles CA
1136 Kudo,Takako 2258 1:08:27.7 58:27.8 9:26 F 34 Valencia CA
1137 Capell,Kristine 223 1:00:33.0 58:27.9 9:26 F 29 Los Angeles CA
1138 Unwin,Stephen 3802 58:34.9 58:28.1 9:26 M 57 Pasadena CA
1139 Dunphy,Julia 4999 58:38.1 58:28.5 9:26 F 68 Harbor City CA
1140 Tittle,Anne 3353 59:35.0 58:30.1 9:26 F 35 Hawthorne CA
1141 Gilkerson,Dennis 3993 59:09.7 58:30.5 9:26 M 48 Manhattan Beach CA
1142 Watkins,Sharon 55 59:47.2 58:31.0 9:26 F 58 Manhattan Beach CA
1143 Peck,Yohan 2808 1:00:11.9 58:32.1 9:26 M 32 Los Angeles CA
1144 Thomasson,Sharon 5002 1:00:21.6 58:32.8 9:27 F 46 Manhattan Beach CA
1145 Fuentes,Yarima 1703 1:00:25.7 58:32.8 9:27 F 16 Los Angeles CA
1146 Huarte,Anne 2024 1:00:22.0 58:33.0 9:27 F 44 Venice CA
1147 Hodgson,Christine 4935 58:57.3 58:33.4 9:27 F 34 West Hollywood CA
1148 Keiley,Harry 2156 1:00:02.8 58:33.7 9:27 M 47 Santa Monica CA
1149 Brady,John 1142 1:01:13.0 58:34.1 9:27 M 50 Northridge CA
1150 Currie,Samantha 3665 59:43.2 58:34.7 9:27 F 24 Santa Monica CA
1151 Carducci,Brett 1239 59:09.0 58:35.1 9:27 M 35 Santa Monica CA
1152 Lee,Sung 2335 1:00:27.4 58:35.5 9:27 M 38 Los Angeles CA
1153 Kates,Mark 4883 1:00:18.1 58:37.7 9:27 M 38 Los Angeles CA
1154 Espitia,Elisa 1612 1:01:01.1 58:38.3 9:27 F 28 Palmdale CA
1155 Masangcay,Jeff 2489 1:00:31.9 58:38.3 9:27 M 27 Los Angeles CA
1156 Sayre,Michelle 3081 59:03.0 58:38.9 9:28 F 37 Manhattan Beach CA
1157 Otto,Jeff 689 1:00:13.8 58:42.4 9:28 M 34 Santa Monica CA
1158 Hendison,Matthew 1942 59:06.4 58:42.4 9:28 M 44 North Hollywood CA
1159 Hart,Trish 1900 59:06.6 58:42.6 9:28 F 44
1160 Cartier,Nathaniel 1251 59:10.3 58:42.6 9:28 M 32 Los Angeles CA
1161 Devine,Kimberly 1488 1:01:15.8 58:44.0 9:28 F 23 Los Angeles CA
1162 Spelman,Martha 3235 59:12.3 58:48.4 9:29 F 57 Playa Del Rey CA
1163 Ortega-zuco,Courtney 758 59:15.3 58:48.7 9:29 F 31 Los Angeles CA
1164 Dao,Linda 1444 59:17.1 58:48.7 9:29 F 31 Alhambra CA
1165 Kerley,Lee 2168 1:00:35.3 58:48.8 9:29 M 32 Los Angeles CA
1166 Alfond,Rebekah 916 1:01:11.1 58:49.2 9:29 F 30 Santa Monica CA
1167 Ward,Renee 3476 1:00:35.2 58:49.6 9:29 F 34 Los Angeles CA
1168 Madden Lennertz,Shannon 2441 59:09.4 58:50.1 9:29 F 38 Redondo Beach CA
1169 Hartwick,Amy 1905 59:34.9 58:50.3 9:29 F 36 Valley Village CA
1170 Nguyen,Khang 2695 1:11:38.2 58:50.9 9:30 M 24 Sun Valley CA
1171 Greco,Mellissa 1830 59:13.5 58:52.1 9:30 F 37 Venice CA
1172 Paulson,Courtney 4735 1:01:46.0 58:52.1 9:30 F 32 Venice CA
1173 Hubbell,Mary 4959 59:23.8 58:52.6 9:30 F 53 Santa Monica CA
1174 Poarch,Justin 4802 1:00:37.3 58:53.2 9:30 M 39 Sandy UT
1175 Nee,Chris 328 1:00:48.0 58:53.4 9:30 F 41 Venice CA
1176 Sailer,Annaji 3823 59:09.8 58:53.9 9:30 F 34 Burbank CA
1177 Taylor,Michelle 3323 1:00:37.5 58:54.6 9:30 F 34 Altadena CA
1178 Hama,Ayako 1872 59:21.2 58:55.2 9:30 F 29 Los Angeles CA
1179 Nepal,Umesh 117 59:13.4 58:57.8 9:31 M 46 Simi Valley CA
1180 Ambrosio,Alejandra 938 1:01:21.7 58:59.6 9:31 F 35 Playa Del Rey CA
1181 Hampton,Sunshine 4730 1:02:16.3 59:01.4 9:31 F 26 Scottsdale AZ
1182 Murphy,Caitlin 738 59:30.9 59:01.6 9:31 F 26 Santa Monica CA
1183 Hohls,Elke 1978 1:03:11.8 59:02.3 9:31 F 41 Santa Monica CA
1184 Meservy,Jill 2576 1:02:16.8 59:03.7 9:32 F 39 Adelanto CA
1185 Icasiano,Jasmine 379 59:43.1 59:06.6 9:32 F 28 Torrance CA
1186 Ruvalcaba,Nancy 378 59:44.4 59:07.4 9:32 F 30 Redondo Beach CA
1187 Unknown, 834 59:56.8 59:09.7 9:33 M 0
1188 Lesinski,Christie 2349 1:00:06.0 59:10.6 9:33 F 41 Los Angeles CA
1189 Clark,Nancy 4932 59:40.5 59:11.1 9:33 F 43 Bellevue WA
1190 Butensky,Steven 1211 1:00:06.3 59:11.3 9:33 M 44 Los Angeles CA
1191 Green,Carole 1833 59:41.0 59:11.7 9:33 F 31 Los Angeles CA
1192 Lewis,Darcy 2362 1:00:06.1 59:12.5 9:33 F 43 Los Angeles CA
1193 Hammond,Jennifer 4704 1:00:17.8 59:12.9 9:33 F 35 Walnut CA
1194 Gearig,Rachel 1757 1:02:36.4 59:13.0 9:33 F 29 Granada Hills CA
1195 Galbraith,Amy 3805 1:00:00.1 59:14.8 9:33 F 67 Venice CA
1196 Schewe,Trish 3094 1:00:45.9 59:17.5 9:34 F 51 Van Nuys CA
1197 Puerner,James 603 1:00:29.6 59:18.3 9:34 M 50 Huntington Beach CA
1198 Hummer,Melissa 688 1:00:49.9 59:18.3 9:34 F 32 Santa Monica CA
1199 Udagawa,Shiou 3391 59:23.4 59:20.6 9:34 F 35 West Hollywood CA
1200 Bustamante,Roberto 1210 1:01:04.3 59:20.8 9:34 M 37 Fullerton CA
1201 Solis,Theresa 3216 1:01:32.3 59:21.0 9:34 F 36 Santa Monica CA
1202 Patch,Annie 2793 1:00:58.3 59:21.1 9:34 F 37 Van Nuys CA
1203 Ben-ami,Gali 1054 59:50.5 59:21.6 9:34 F 27 Los Angeles CA
1204 Simenas,Shaina 3174 59:40.0 59:21.6 9:34 F 23 Los Angeles CA
1205 Sanabria,Parmenio 195 1:02:00.9 59:23.2 9:35 M 26 Los Angeles CA
1206 El-armale,Donna 164 1:00:16.6 59:24.6 9:35 F 44 Los Angeles CA
1207 Onwunyi,Brittany 3817 59:57.3 59:25.2 9:35 F 26 Marina Del Rey CA
1208 Green,Kayla 4974 1:01:26.7 59:25.3 9:35 F 30 Los Angeles CA
1209 Warner,Jennifer 3819 59:36.9 59:25.5 9:35 F 28 North Hollywood CA
1210 Alvidrez,Leticia 150 1:01:19.4 59:29.7 9:36 F 37 Whittier CA
1211 Moon,Susie 717 1:01:01.6 59:30.9 9:36 F 58 Manhattan Beach CA
1212 Elegado,Jo 394 1:02:25.9 59:31.6 9:36 M 36 Monrovia CA
1213 Kuo,Lisa 2264 1:00:04.9 59:32.4 9:36 F 41 Arcadia CA
1214 Simeone,Mark 588 1:01:32.5 59:32.4 9:36 M 36 Santa Monica CA
1215 Jacobsen,Anne 2065 1:00:58.7 59:34.1 9:36 F 40 Culver City CA
1216 Kurtley,Jennifer 2265 1:00:56.4 59:34.6 9:37 F 27 West Hollywood CA
1217 Bess,Laura 1073 59:47.4 59:34.7 9:37 F 47 Los Angeles CA
1218 Mascetta,Alena 4917 1:02:14.0 59:34.9 9:37 F 38 Redondo Beach CA
1219 Crump,Isobel 1422 1:01:51.2 59:38.1 9:37 F 48 Claremont CA
1220 Link,Dustin 3921 1:01:55.7 59:40.4 9:37 M 33 Marina Del Rey CA
1221 Taniguchi-sabol,Shelley 3312 1:00:56.2 59:40.8 9:38 F 37 Manhattan Beach CA
1222 Wales,James 589 1:07:56.6 59:41.2 9:38 M 41 Redondo Beach CA
1223 Bian,Lucy 1077 1:12:24.0 59:41.7 9:38 F 21 Los Angeles CA
1224 Pottinger,Wade 296 1:00:43.4 59:43.0 9:38 M 38 Culver City CA
1225 Smith,Jennifer 3981 1:01:58.3 59:43.0 9:38 F 36 La Quinta
1226 Vita,Karin 3449 1:02:09.7 59:45.7 9:38 F 29 Los Angeles CA
1227 Ugas,Berta 3393 1:01:22.6 59:46.8 9:39 F 44 San Pedro CA
1228 Murray,Linda 2656 1:01:02.0 59:48.2 9:39 F 53 Manhattan Beach CA
1229 Convento,Jason 1374 1:06:11.6 59:50.0 9:39 M 24 Los Angeles CA
1230 Magner,Christine 4872 1:01:40.9 59:50.3 9:39 F 28 Los Angeles CA
1231 Magana,Daniel 2445 1:01:26.7 59:51.4 9:39 M 51 North Hills CA
1232 Velaquez,Stephanie 3425 1:00:44.6 59:53.8 9:40 F 17 Canyon Country CA
1233 Saavedra,Pearl 4780 1:01:04.1 59:53.9 9:40 F 40 Santa Monica CA
1234 Arrieta,Crystal 979 1:02:31.7 59:55.9 9:40 F 29 Woodland Hills CA
1235 Romero,Massiel 62 1:01:57.3 59:56.2 9:40 F 24 Los Angeles CA
1236 Seal,Chris 3121 1:00:04.6 59:57.2 9:40 F 58 Northridge CA
1237 Levy,Joshua 2360 1:00:26.1 59:59.6 9:41 M 29 Beverly Hills CA
1238 Akiba,Tamami 641 1:00:05.3 1:00:00.6 9:41 F 43 Torrance CA
1239 Bird,Frank 1084 1:00:47.7 1:00:01.3 9:41 M 47 San Pedro CA
1240 Leao,Andrea 2320 1:00:32.4 1:00:01.5 9:41 F 37 Santa Monica CA
1241 Karis,Diane 392 1:02:15.1 1:00:01.8 9:41 F 41 Studio City CA
1242 Horta,Gil 2000 1:00:48.1 1:00:02.7 9:41 M 39 Manhattan Beach CA
1243 Johnson,Paul 4808 1:00:47.3 1:00:02.7 9:41 M 42 San Pedro CA
1244 Vu,Anna 3454 1:00:44.9 1:00:03.3 9:41 F 26 Santa Monica CA
1245 Clark,January 1335 1:00:21.8 1:00:04.0 9:41 F 29 Santa Monica CA
1246 Avalos,Deanna 984 1:02:23.9 1:00:04.3 9:41 F 29 Los Angeles CA
1247 Schaffer,Bran 3807 1:00:44.0 1:00:05.2 9:41 M 30 Arcadia CA
1248 Goodman,Randi 535 1:00:43.4 1:00:05.6 9:42 F 40 Santa Monica CA
1249 Gray,Laura 484 1:01:12.4 1:00:05.6 9:42 F 39 Los Angeles CA
1250 Melendrez,Eric 2566 1:01:15.6 1:00:05.7 9:42 M 14 Rancho Cucamonga CA
1251 Futaba,Debbie 1710 1:00:44.7 1:00:05.8 9:42 F 30 Arcadia CA
1252 Quinto,Mark 79 1:00:41.9 1:00:05.9 9:42 M 32 Playa Del Rey CA
1253 Schofield,Derek 3107 1:01:01.3 1:00:08.9 9:42 M 29 Santa Monica CA
1254 Biagioni,Michele 380 1:01:07.1 1:00:09.1 9:42 F 54 Santa Monica CA
1255 Decker,Lauren 1466 1:01:22.7 1:00:09.4 9:42 F 34 Marina Del Rey CA
1256 Song,Toni 801 1:01:34.4 1:00:10.7 9:42 F 32 Los Angeles CA
1257 Laflin,Emily 2275 1:02:15.2 1:00:10.8 9:42 F 27 Burbank CA
1258 Robinson,Rob S. 2970 1:01:08.4 1:00:13.1 9:43 M 43 Santa Monica CA
1259 Carter,Dennis 1249 1:01:08.6 1:00:13.3 9:43 M 51 Los Angeles CA
1260 Davidson,Casey 1449 1:02:11.3 1:00:13.4 9:43 M 27 Hermosa Beach CA
1261 Watson,Sarah 3484 1:01:19.8 1:00:14.0 9:43 F 34 Santa Monica CA
1262 Clark,Marilyn 1337 1:00:54.9 1:00:16.1 9:43 F 72 Marina Del Rey CA
1263 Long,Sabrina 2392 1:02:28.6 1:00:17.0 9:43 F 22 Lancaster CA
1264 Long,Alba 2390 1:02:28.9 1:00:17.5 9:43 F 48 Tulsa OK
1265 Dour,Halina 1539 1:00:32.8 1:00:19.0 9:44 F 24 Los Angeles CA
1266 Mitsui,Toshiaki 400 1:01:04.2 1:00:19.0 9:44 M 51 Torrance CA
1267 Quigley,Matthew 2891 1:02:35.1 1:00:20.9 9:44 M 26 Santa Monica CA
1268 Ramirez,Silvia 2906 1:06:33.8 1:00:23.1 9:44 F 39 North Hollywood CA
1269 Bailey,Alexis 1002 1:05:29.4 1:00:23.9 9:45 F 28 Los Angeles CA
1270 Meyer,Wendy 2578 1:04:26.7 1:00:25.0 9:45 F 52 Mission Viejo CA
1271 Reeder,Christy 2924 1:01:13.9 1:00:26.2 9:45 F 29 Pasadena CA
1272 Fernandez,Veronica 1649 1:01:17.4 1:00:27.2 9:45 F 17 Valencia CA
1273 Sadia,Kim 3040 1:01:13.4 1:00:27.2 9:45 F 18 Canyon Country CA
1274 Zamora,Nancy 3591 1:00:38.9 1:00:27.8 9:45 F 50 Los Angeles CA
1275 Munson,Erica 2653 1:02:09.0 1:00:28.9 9:45 F 31 Pasadena CA
1276 Bibicoff,Hillary 21 1:01:42.1 1:00:31.2 9:46 F 44 Los Angeles CA
1277 Kim,Eunyoung 2186 1:02:38.4 1:00:31.8 9:46 F 32 Irvine CA
1278 Koerber,Angela 3695 1:01:26.4 1:00:33.6 9:46 F 36 Torrance CA
1279 Alexander,Evelyn 201 1:01:45.2 1:00:33.8 9:46 F 39 Los Angeles CA
1280 Kodama,Clarence 3659 1:02:35.7 1:00:34.5 9:46 M 52 Torrance CA
1281 Corless,Sarah 1384 1:02:25.0 1:00:35.1 9:46 F 28 Los Angeles CA
1282 Brown,Laura 4811 1:02:25.0 1:00:35.1 9:46 F 25 Santa Monica CA
1283 Campbell,Sharon 115 1:02:18.9 1:00:36.4 9:47 F 38 Corona Del Mar CA
1284 Lai,Wayne 4882 1:02:52.1 1:00:37.8 9:47 M 37 Santa Monica CA
1285 Luegenbiehl,Kelly 2420 1:02:43.1 1:00:39.8 9:47 F 32 Los Angeles CA
1286 Nelson,Greta 2681 1:04:58.4 1:00:40.6 9:47 F 32 Santa Monica CA
1287 Noble,Adam 3707 1:02:49.3 1:00:40.7 9:47 M 36 Los Angeles CA
1288 Krider,Elizabeth 2253 1:02:20.7 1:00:41.1 9:47 F 38 Pasadena CA
1289 Condon,Gary 1368 1:03:25.7 1:00:42.3 9:47 M 57 Los Angeles CA
1290 Raphael,Alison 462 1:02:40.9 1:00:45.9 9:48 F 34 Santa Monica CA
1291 Williams,Brent 3527 1:01:20.0 1:00:46.0 9:48 M 32 West Hollywood CA
1292 Moore,Erica 2621 1:01:19.9 1:00:46.3 9:48 F 31 West Hollywood CA
1293 Musser,Thomas 2657 1:01:26.6 1:00:46.8 9:48 M 38
1294 Kraft,Jill 4819 1:03:24.9 1:00:46.8 9:48 F 39 Los Angeles CA
1295 Underwood,Ryan 3395 1:02:01.8 1:00:47.9 9:48 M 26 Glendale CA
1296 Hurst,Victoria 719 1:02:49.4 1:00:49.3 9:49 F 34 Pacific Palisades CA
1297 Green,John 135 1:01:39.4 1:00:51.5 9:49 M 61 Playa Del Rey CA
1298 Levitt,Bob 258 1:01:28.4 1:00:52.1 9:49 M 53 Pacific Palisades CA
1299 Cheyne,William 1302 1:01:29.1 1:00:52.6 9:49 M 41 Encino CA
1300 Freitag,David 260 1:01:28.7 1:00:52.6 9:49 M 48 Pacific Palisades CA
1301 Hall,Robin 1869 1:01:30.1 1:00:53.2 9:49 F 44 Encino CA
1302 Johnson,Matt 2093 1:01:21.6 1:00:54.4 9:49 M 23 North Hollywood CA
1303 Moore,Sasha 4767 1:01:31.0 1:00:54.5 9:49 F 33 Santa Monica CA
1304 Vargues,Alana 3717 1:01:17.2 1:00:54.6 9:49 F 14 Van Nuys CA
1305 Smith,Jacqueline 3198 1:01:58.9 1:00:55.6 9:50 F 23 West Hollywood CA
1306 King,Suzanne 2199 1:01:58.7 1:00:55.8 9:50 F 23 West Hollywood CA
1307 Preciado,Gloria 2871 1:02:56.9 1:00:56.2 9:50 F 41 Upland CA
1308 Kim,Esther 2184 1:02:46.8 1:00:56.3 9:50 F 25 Los Angeles CA
1309 Mo,Vivian 477 1:01:48.4 1:00:56.3 9:50 F 37 Los Angeles CA
1310 Nasser,Elina 476 1:01:49.6 1:00:57.5 9:50 F 32 Santa Monica CA
1311 Castillo,Ivy 1256 1:04:09.1 1:00:58.1 9:50 F 32 Santa Monica CA
1312 May,Armin 2506 1:02:17.1 1:00:58.6 9:50 M 51 Torrance CA
1313 Lee,Jina 2330 1:02:49.8 1:01:00.0 9:50 F 25 Los Angeles CA
1314 Stark,Steve 657 1:01:22.7 1:01:00.8 9:50 M 59 Valencia CA
1315 Ortiz,Jesus 2758 1:01:30.3 1:01:01.8 9:51 M 40 Norwalk CA
1316 Thompson,April 3670 1:02:38.8 1:01:01.9 9:51 F 38 Culver City CA
1317 Fournier,Shera 855 1:01:46.5 1:01:03.2 9:51 F 24 Santa Monica CA
1318 Chen,Yen 1286 1:02:26.4 1:01:04.4 9:51 F 33 Culver City CA
1319 Edwards,Kimberly 444 1:02:06.6 1:01:05.4 9:51 F 37 Inglewood CA
1320 Dicenzo,Louis 1498 1:03:22.8 1:01:06.8 9:51 M 49 Marina Del Rey CA
1321 Solis,Leslie 3215 1:01:58.3 1:01:07.4 9:52 F 17 Canyon Country CA
1322 Ayam-lau,Genaro 339 1:02:03.7 1:01:07.5 9:52 M 67 Hawthorne CA
1323 Mclaughlin,Heather 2534 1:01:25.9 1:01:09.5 9:52 F 30 Venice CA
1324 Christensen,Karen 4926 1:01:25.6 1:01:09.6 9:52 F 31 Playa Del Rey CA
1325 Mazariegos,Peggy 2508 1:01:37.3 1:01:10.9 9:52 F 36 Santa Monica CA
1326 Joo,Samuel 2111 1:03:04.4 1:01:11.2 9:52 M 37 Los Angeles CA
1327 Boehmke,Jennifer 1108 1:03:25.5 1:01:11.4 9:52 F 34 Playa Del Rey CA
1328 Viola,Anna 178 1:01:37.3 1:01:12.2 9:52 F 21 Temple City CA
1329 Hartranft,Christina 1904 1:02:05.3 1:01:12.4 9:52 F 27 Upland CA
1330 Gin,Jeanine 1778 1:02:05.4 1:01:12.4 9:52 F 29 Riverside CA
1331 Booth,Jennifer 251 1:02:42.7 1:01:12.5 9:52 F 32 Santa Monica CA
1332 Abbott-whitley,Mike 882 1:03:20.5 1:01:14.1 9:53 M 29 Northridge CA
1333 Bol,Ashley 1109 1:02:20.0 1:01:14.2 9:53 F 30 Los Angeles CA
1334 Ruschioni,Lisa 3024 1:02:20.3 1:01:14.3 9:53 F 30 Los Angeles CA
1335 Jamet,Adriana 4784 1:04:40.0 1:01:14.5 9:53 F 31 Los Angeles CA
1336 Gehring,Kristen 1759 1:04:40.1 1:01:14.6 9:53 F 29 Los Angeles CA
1337 Fox,John 1690 1:02:14.4 1:01:15.4 9:53 M 44 Los Angeles CA
1338 Eckert,Peter 3647 1:01:19.0 1:01:16.4 9:53 M 56 West Covina CA
1339 Blanco,Hector 1092 1:02:13.8 1:01:17.1 9:53 M 15 Los Angeles CA
1340 Demertzi,Melina 816 1:01:46.1 1:01:18.8 9:53 F 27 Los Angeles CA
1341 Harroff,Sarah 775 1:01:48.6 1:01:18.9 9:53 F 29 Culver City CA
1342 Farr,Justin 1636 1:01:57.7 1:01:19.3 9:53 M 27 Marina Del Rey CA
1343 Bedwell,Melanie 1044 1:01:57.6 1:01:19.3 9:53 F 24 Los Angeles CA
1344 Mattenson,Myles 2496 1:03:53.4 1:01:19.9 9:54 M 68 Woodland Hills CA
1345 Cheng,Jennifer 1289 1:19:33.1 1:01:20.0 9:54 F 25 Rosemead CA
1346 Brand,Anne 3963 1:02:45.0 1:01:21.0 9:54 F 52 Culver City CA
1347 Chan,Anita 1270 1:08:18.2 1:01:21.1 9:54 F 26 Los Angeles CA
1348 Oh,David 2741 1:08:18.4 1:01:21.2 9:54 M 29 Los Angeles CA
1349 Borges,Jessica 3903 1:03:52.8 1:01:23.1 9:54 F 25 Marina Del Rey CA
1350 Cultrera,Maria 3901 1:03:52.7 1:01:23.5 9:54 F 27 Santa Monica CA
1351 Feldman,Phil 3980 1:03:37.6 1:01:24.7 9:54 M 63 Los Angeles CA
1352 Stephenso,Tessa 3688 1:02:46.7 1:01:25.4 9:54 F 30 Santa Monica CA
1353 Lloyd,Samantha 543 1:01:58.8 1:01:25.5 9:54 F 42 Santa Monica CA
1354 Cochran,Sonja 1350 1:02:05.3 1:01:25.9 9:55 F 41 El Segundo CA
1355 Chen-aparicio,Annie 1287 1:03:53.7 1:01:26.8 9:55 F 41 Pasadena CA
1356 Vargas,Maria 3415 1:02:55.5 1:01:27.5 9:55 F 40 Inglewood CA
1357 Bingham,Elaine 1079 1:02:23.9 1:01:28.5 9:55 F 46 Santa Clarita CA
1358 Griffin,Caitlin 1839 1:01:55.8 1:01:29.9 9:55 F 21 Orange CA
1359 Bautista,Christine 1031 1:02:14.8 1:01:30.5 9:55 F 34 Santa Ana CA
1360 Fisher,Michael 355 1:03:09.2 1:01:30.7 9:55 M 33 Venice CA
1361 Salzedo,Lorena 427 1:04:22.4 1:01:31.8 9:55 F 24
1362 Hurst,David 2043 1:02:42.7 1:01:34.4 9:56 M 40 Pasadena CA
1363 Obedoza,Cherrey 17 1:09:47.9 1:01:34.9 9:56 F 31 Long Beach CA
1364 Ching,Vina 1306 1:02:27.4 1:01:35.7 9:56 F 30 Van Nuys CA
1365 Tilley,Sarah 3347 1:02:32.6 1:01:36.3 9:56 F 36 Valley Village CA
1366 Lam,Lynn 19 1:09:50.6 1:01:37.8 9:56 F 33 Redondo Beach CA
1367 Brettingen,Nicole 1158 1:02:48.9 1:01:37.9 9:56 F 34 Newport Beach CA
1368 Cirillo,Joe 4871 1:02:13.5 1:01:39.9 9:57 M 70 Pacific Palisades CA
1369 Schneider,Mary 3105 1:02:29.1 1:01:41.1 9:57 F 34 Manhattan Beach CA
1370 Sullivan,Aimee 4953 1:04:53.8 1:01:41.3 9:57 F 40 El Segundo CA
1371 Laca,Wendy 266 1:04:43.4 1:01:42.8 9:57 F 36 Los Angeles CA
1372 Kimball,Annie 2192 1:02:10.1 1:01:43.0 9:57 F 21 Los Angeles CA
1373 Ivry,Donna 2060 1:03:38.0 1:01:45.0 9:58 F 25 Venice CA
1374 Choi,Anna 144 1:02:10.1 1:01:46.4 9:58 F 24 Los Angeles CA
1375 Truscott,Anne 3381 1:02:53.0 1:01:46.5 9:58 F 51 Manhattan Beach CA
1376 Hamilton,Heather 1876 1:03:32.9 1:01:48.6 9:58 F 43 Inglewood CA
1377 Morris,Steve 4816 1:03:35.0 1:01:49.5 9:58 M 47 Walnut CA
1378 Suh,Jin 3277 1:06:43.4 1:01:51.0 9:59 M 46 Los Angeles CA
1379 Wsnters,S 531 1:03:44.2 1:01:52.3 9:59 F 45 Pacific Palisades CA
1380 O'keefe,Martin 2729 1:08:17.7 1:01:53.9 9:59 M 50 Cypress CA
1381 Gearig,Aisha 1756 1:05:18.9 1:01:54.3 9:59 F 33 Los Angeles CA
1382 Zimmerman,Janet 3599 1:02:20.8 1:01:54.7 9:59 F 44 Manhattan Beach CA
1383 Sanabria,Ana 198 1:04:32.8 1:01:55.1 9:59 F 44 Los Angeles CA
1384 Sampras,Gus 3054 1:02:16.5 1:01:56.1 9:59 M 43 Rancho Palos Verdes CA
1385 Galindo,Esperanza 1720 1:03:38.6 1:01:58.5 10:00 F 31 Los Angeles CA
1386 Maxwell,Desmond 3634 1:03:19.4 1:02:00.2 10:00 M 15 Los Angeles CA
1387 Chouhan,Umang 3932 1:05:17.9 1:02:00.8 10:00 M 30 Santa Monica CA
1388 Courtney,Taya 3618 1:04:11.5 1:02:03.2 10:01 F 22 Los Angeles CA
1389 Gehrke,Amanda 1760 1:04:08.5 1:02:04.2 10:01 F 32 Berkeley CA
1390 Sudar,Lindsey 3276 1:02:20.7 1:02:06.5 10:01 F 25 Santa Monica CA
1391 Madden,Sabrina 3828 1:03:47.3 1:02:06.9 10:01 F 28 Thousand Oaks CA
1392 Quinto,Danielle 80 1:02:43.4 1:02:07.6 10:01 F 30 Playa Del Rey CA
1393 Sakamoto,Jason 3043 1:05:26.0 1:02:08.1 10:01 M 29 Sherman Oaks CA
1394 Viramontes,Valerie 3447 1:08:16.4 1:02:08.4 10:01 F 25 Temple City CA
1395 Hsu,Joshua 2017 1:05:14.7 1:02:11.6 10:02 M 41 Pasadena CA
1396 Fournier,Jeanna 8 1:02:57.8 1:02:14.6 10:02 F 22 Santa Monica CA
1397 Unknown, 856 1:02:58.1 1:02:14.6 10:02 M 0
1398 Georgilas,Stacy 3829 1:03:32.4 1:02:15.7 10:03 F 36 Santa Monica CA
1399 Pelais,Alice 2810 1:02:33.3 1:02:17.6 10:03 F 33 West Covina CA
1400 Masselink,Luke 2492 1:04:01.3 1:02:17.8 10:03 M 33 Los Angeles CA
1401 Masselink,Saralyn 2493 1:04:01.3 1:02:18.3 10:03 F 35 Los Angeles CA
1402 Piche,Nichole 2846 1:03:33.2 1:02:20.4 10:03 F 26 Studio City CA
1403 Bowman,Scott 1134 1:03:33.6 1:02:20.5 10:03 M 30 North Hollywood CA
1404 Lowery,William 3669 1:04:16.0 1:02:20.6 10:03 M 32 Santa Monica CA
1405 Vegamora,Romulo 3423 1:04:51.5 1:02:20.8 10:03 M 27 Los Angeles CA
1406 O'brien,Greg 2726 1:03:46.7 1:02:21.3 10:03 M 34 Venice CA
1407 Snyder,Dusty 604 1:02:25.3 1:02:21.4 10:03 M 77 Santa Monica CA
1408 Doheny,Kathleen 761 1:03:00.4 1:02:21.9 10:04 F 61 Burbank CA
1409 Castruita,Amanda 1261 1:02:51.0 1:02:22.0 10:04 F 23 Fullerton CA
1410 Storm,Karin 668 1:03:25.4 1:02:23.6 10:04 F 34 Fountain Valley CA
1411 Tsung,Karen 3974 1:03:14.6 1:02:23.7 10:04 F 22 Monterey Park CA
1412 Leung,Fiona 2350 1:03:14.6 1:02:24.0 10:04 F 22 West Covina CA
1413 Fackrell,Niki 1626 1:04:06.6 1:02:24.2 10:04 F 30 Altadena CA
1414 Conde,Brigitte 334 1:03:40.9 1:02:24.3 10:04 F 48 Gardena CA
1415 Bryant,Marc 137 1:05:19.5 1:02:24.7 10:04 M 34 Los Angeles CA
1416 Daines,Laura 3924 1:04:06.9 1:02:24.9 10:04 F 32 Pasadena CA
1417 Matthew,Jackie 2498 1:03:29.8 1:02:26.1 10:04 F 27 Los Angeles CA
1418 Crosswell,Ben 3696 1:04:01.0 1:02:28.1 10:05 M 27
1419 Dupont,Alexandra 1564 1:04:01.4 1:02:28.2 10:05 F 25 Santa Monica CA
1420 Killian,Wendelyn 2178 1:04:17.0 1:02:30.1 10:05 F 38 Los Angeles CA
1421 Reodica,Shalimar 2936 1:03:04.4 1:02:30.3 10:05 F 34 Santa Monica CA
1422 Kolesar,Christina 2233 1:03:41.5 1:02:31.0 10:05 F 30 Santa Monica CA
1423 Le,Brandon 739 1:03:44.9 1:02:31.1 10:05 M 33 Los Angeles CA
1424 Charney,Rebekah 740 1:03:44.7 1:02:31.8 10:05 F 24 Los Angeles CA
1425 Couture,Christine 1398 1:04:36.4 1:02:32.0 10:05 F 30 Los Angeles CA
1426 Henry,Kelli 742 1:03:44.4 1:02:32.3 10:05 F 26 Los Angeles CA
1427 Chen,David 1285 1:03:09.6 1:02:37.3 10:06 M 37 Irvine CA
1428 Martinez,Gloria 3922 1:05:13.1 1:02:37.6 10:06 F 37 Downey CA
1429 Salcido,Christy 3046 1:03:11.8 1:02:39.4 10:06 F 41 Sherman Oaks CA
1430 Walther,Kendy 3468 1:03:11.6 1:02:39.6 10:06 F 41 Chatsworth CA
1431 Pelina,Janille 2813 1:04:41.9 1:02:39.6 10:06 F 23 Long Beach CA
1432 Senechal,Keith 3126 1:05:10.2 1:02:41.2 10:07 M 65 Redondo Beach CA
1433 White,Kathleen 220 1:04:00.3 1:02:43.8 10:07 F 43 Los Angeles CA
1434 Belarmino,Bryant 811 1:03:04.8 1:02:45.1 10:07 M 30 Chatsworth CA
1435 Debenedictis,Don 3609 1:05:27.5 1:02:45.7 10:07 M 56 Whittier CA
1436 Kenny,Amanda 2167 1:03:44.5 1:02:45.8 10:07 F 31 Simi Valley CA
1437 Kenny,Matt 3662 1:03:44.6 1:02:46.0 10:07 M 35 Simi Valley CA
1438 Nuccilli,Kevin 673 1:04:56.1 1:02:46.8 10:08 M 55 Pacific Palisades CA
1439 Velazquez,Eric 750 1:05:24.2 1:02:47.1 10:08 M 25 Sylmar CA
1440 Vinh,Tram 3445 1:03:56.9 1:02:47.9 10:08 F 26 Gardena CA
1441 Matsuguma,Dalyn 2495 1:03:57.5 1:02:48.7 10:08 F 27 Redondo Beach CA
1442 Bruggeman,Dean 440 1:06:05.2 1:02:48.8 10:08 M 47 Los Angeles CA
1443 Hiraishh,Brooke 4868 1:04:35.9 1:02:48.9 10:08 F 27 Los Angeles CA
1444 Turner,Meagaan 3390 1:03:57.3 1:02:49.0 10:08 F 26 Redondo Beach CA
1445 Marsdensiragusa,Pam 3639 1:04:01.5 1:02:49.3 10:08 F 54 Glendale CA
1446 Syme,Maggie 3299 1:04:21.5 1:02:53.8 10:09 F 30 San Diego CA
1447 Pearson,Adria 2807 1:04:21.5 1:02:53.9 10:09 F 31 Long Beach CA
1448 Kumi Thomas,Ama 2262 1:03:08.1 1:02:54.6 10:09 F 32 Los Angeles CA
1449 Papineau,Jacqueline 2781 1:05:23.0 1:02:55.8 10:09 F 28 Los Angeles CA
1450 Nelson,Trevor 519 1:03:35.5 1:02:57.4 10:09 M 28 Marina Del Rey CA
1451 Oswald,Laura 337 1:05:07.7 1:02:57.6 10:09 F 26 Los Angeles CA
1452 Medina,Mary 2556 1:03:03.8 1:02:57.9 10:09 F 58 Downey CA
1453 Taylor,Laura 3322 1:03:53.2 1:02:59.0 10:10 F 21 Valencia CA
1454 Beltran,Javier 4738 1:06:00.7 1:03:00.9 10:10 M 33 Los Angeles CA
1455 Montes,Analilia 2617 1:07:26.3 1:03:01.5 10:10 F 29 Covina CA
1456 Pullman,Kyle M 2883 1:05:01.0 1:03:03.8 10:10 F 28 Seattle WA
1457 Magsakay,Myrvhick 2447 1:06:29.0 1:03:06.2 10:11 F 34 North Hollywood CA
1458 Finkel,Leigh 1662 1:04:54.7 1:03:07.4 10:11 F 28 Santa Monica CA
1459 Wixted,Mary 3541 1:04:07.4 1:03:08.5 10:11 F 49 Anaheim CA
1460 Williams,John 3531 1:03:20.1 1:03:09.5 10:11 M 73 Culver City CA
1461 Fischette,Monica 651 1:05:24.0 1:03:10.5 10:11 F 37 Santa Monica CA
1462 Meigs,Charles 4820 1:04:25.3 1:03:11.2 10:11 M 66 Los Angeles CA
1463 Ewing,Jeannette 1623 1:04:48.7 1:03:12.3 10:12 F 59 Upland CA
1464 Chapman,Cristina 1278 1:04:12.7 1:03:14.2 10:12 F 38 Irvine CA
1465 Moorhead,Jennifer 2629 1:04:48.2 1:03:19.3 10:13 F 42 Los Angeles CA
1466 Lagunoff,Abby 2277 1:04:49.7 1:03:19.6 10:13 F 30 Los Angeles CA
1467 Piper,Mackenzie 2849 1:04:30.5 1:03:20.5 10:13 F 19 Los Angeles CA
1468 Olson,Marce 2749 1:06:43.3 1:03:20.8 10:13 F 45 Los Angeles CA
1469 Breunling,Kendra 1164 1:04:30.6 1:03:21.0 10:13 F 19 San Jose CA
1470 Costantino,Char 1392 1:04:58.7 1:03:22.6 10:13 F 54 Upland CA
1471 Bernhardt,Hillary 4774 1:06:02.7 1:03:24.6 10:14 F 21 Los Angeles CA
1472 Meyers,Gene 5176 1:07:53.0 1:03:27.6 10:14 M 76 Marina Del Rey CA
1473 Subin,Max 460 1:03:58.7 1:03:27.7 10:14 M 35 Los Angeles CA
1474 Melamed,Sahar 4931 1:03:58.7 1:03:28.4 10:14 F 29 Los Angeles CA
1475 Shipley,Anne 45 1:20:09.6 1:03:28.5 10:14 F 41 Redondo Beach CA
1476 Subin,Heather 459 1:03:59.4 1:03:29.2 10:14 F 32 Los Angeles CA
1477 Rupp,Diana 3022 1:05:36.1 1:03:29.3 10:14 F 41 Torrance CA
1478 De Lannoy-reynolds,Yasmine 1462 1:06:04.8 1:03:29.7 10:14 F 44 Los Angeles CA
1479 Harris,Lisa 46 1:20:10.1 1:03:29.7 10:14 F 41 Redondo Beach CA
1480 Pueblo Von Ins,Tara 2882 1:05:19.1 1:03:30.5 10:15 F 33 Los Angeles CA
1481 Barts,Britta 158 1:05:52.9 1:03:35.5 10:15 F 37 Los Angeles CA
1482 Brown,Summer 1183 1:06:06.1 1:03:38.5 10:16 F 30 Inglewood CA
1483 Bulman,Regge 1197 1:05:58.3 1:03:40.7 10:16 M 45 Venice CA
1484 Rodriguez,Chantal 60 1:06:08.9 1:03:41.1 10:16 F 28 Los Angeles CA
1485 Bueno,Jenny 1194 1:05:56.8 1:03:41.4 10:16 F 38 Woodland Hills CA
1486 Nelson,Jess 518 1:04:19.6 1:03:42.0 10:16 F 27 Marina Del Rey CA
1487 Donovan,Tiffany 1523 1:06:25.2 1:03:44.6 10:17 F 30 Encino CA
1488 Gelber,Jeffrey 1762 1:04:55.3 1:03:46.3 10:17 M 28 Sherman Oaks CA
1489 Morales,Tracie 736 1:12:17.2 1:03:48.8 10:18 F 25 Los Angeles CA
1490 Kang,Janet 793 1:05:42.4 1:03:49.0 10:18 F 26 Los Angeles CA
1491 Tortolani,Mike 3361 1:06:18.9 1:03:50.0 10:18 M 20 Castro Valley CA
1492 Guzman,Gabriel 1856 1:06:36.6 1:03:50.1 10:18 M 50 Westlake Village CA
1493 Murayama,Fusako 34 1:04:58.2 1:03:52.1 10:18 F 38 Torrance CA
1494 Sagae,Yuko 37 1:04:58.8 1:03:52.7 10:18 F 43 Palos Verdes Peninsu CA
1495 Tavares,Alethea 3319 1:05:28.6 1:03:53.3 10:18 F 34 Costa Mesa CA
1496 Coakley,Andrea 286 1:05:32.4 1:03:54.6 10:18 F 36 Seal Beach CA
1497 Neusch,Sarah 2689 1:05:25.4 1:03:54.7 10:19 F 24 Culver City CA
1498 Rowe,Amanda 287 1:05:32.2 1:03:55.1 10:19 F 36 Long Beach CA
1499 Dundas,Andrea 1559 1:04:52.8 1:03:55.1 10:19 F 33 North Hollywood CA
1500 Lawry,Meg 2310 1:05:25.7 1:03:55.4 10:19 F 25 Culver City CA
1501 Molnar,Melanie 2610 1:05:39.0 1:03:55.5 10:19 F 27 Los Angeles CA
1502 Zelaya,Gloria 4879 1:06:13.5 1:03:55.5 10:19 F 32 Los Angeles CA
1503 Albarez,Margaret 715 1:05:30.4 1:03:55.6 10:19 F 67 Manhattan Beach CA
1504 Leboeuf,Nicole 2321 1:07:06.8 1:03:55.9 10:19 F 1 Indio CA
1505 Robinson/polen,Laura 2972 1:05:25.7 1:03:56.1 10:19 F 35 Los Angeles CA
1506 Breuer,Sydnee 1163 1:05:16.5 1:03:56.2 10:19 F 43 Santa Monica CA
1507 Demchenko,Nataliya Demchenko 511 1:34:37.5 1:03:58.2 10:19 F 28 Encino CA
1508 Maglaya,Jennifer 2446 1:04:04.5 1:03:58.8 10:19 F 35 Redondo Beach CA
1509 Saxe,Robert 3637 1:05:23.1 1:04:01.4 10:20 M 66 La Canada Flintridge CA
1510 Kuecuek,Guelsah 2259 1:05:24.7 1:04:02.2 10:20 F 28 Culver City CA
1511 Aldrich,Daniel 915 1:04:58.8 1:04:02.9 10:20 M 42 Studio City CA
1512 Ludwig,Don 4911 1:04:58.9 1:04:03.0 10:20 M 42 Canyon Country CA
1513 Hawkins,Michelle 453 1:06:42.2 1:04:03.7 10:20 F 31 North Hollywood CA
1514 Clarke,Bill 1340 1:05:14.1 1:04:04.7 10:20 M 48 Los Angeles CA
1515 Craig,Chisato 3989 1:05:41.9 1:04:04.9 10:20 F 40 Los Angeles CA
1516 Kaehler,Thom 2125 1:05:14.9 1:04:05.7 10:20 M 59 Lomita CA
1517 Greco,Mike 1831 1:04:26.7 1:04:05.9 10:20 M 39 Venice CA
1518 Hiller,Diana 768 1:05:11.7 1:04:07.0 10:20 F 42 Los Angeles CA
1519 Rivera,Beatriz 2961 1:06:04.6 1:04:09.5 10:21 F 16 Los Angeles CA
1520 Acevedo,Edwin 3615 1:04:19.4 1:04:12.6 10:21 M 26 San Fernando CA
1521 Glass,Maribeth 1785 1:04:33.3 1:04:14.6 10:22 F 25 Los Angeles CA
1522 Ross,Maria 784 1:06:41.6 1:04:14.9 10:22 F 29 Los Angeles CA
1523 Duhaime,Ryan 1554 1:04:33.1 1:04:15.1 10:22 M 25 Marina Del Rey CA
1524 Mulchandani,Hema 2645 1:04:58.1 1:04:16.9 10:22 F 34 Los Angeles CA
1525 Korn,Jarod 3680 1:04:42.5 1:04:17.3 10:22 M 26 Venice CA
1526 O'rourke,Lisa 2730 1:06:31.3 1:04:18.9 10:22 F 32 Manhattan Beach CA
1527 Housman,Laurie 2010 1:07:05.3 1:04:19.5 10:23 F 26 Beverly Hills CA
1528 Lim,Sunny 702 1:06:09.4 1:04:21.2 10:23 F 33 Valencia CA
1529 Schacter,Beth 3082 1:06:15.3 1:04:21.3 10:23 F 34 Los Angeles CA
1530 Cappocchi,Anna 1235 1:04:53.9 1:04:22.0 10:23 F 36 Burbank CA
1531 Martinez,Olivia 767 1:07:16.0 1:04:23.7 10:23 F 51 Torrance CA
1532 Haynes,Kip 1927 1:06:49.7 1:04:26.3 10:24 M 37 Culver City CA
1533 Haynes,Micah 1928 1:06:50.2 1:04:26.8 10:24 F 12 Culver City CA
1534 Bruni,Claude 280 1:04:48.8 1:04:27.3 10:24 M 74 Los Angeles CA
1535 Nunley,Kristina 2723 1:05:02.7 1:04:29.7 10:24 F 32 Moorpark CA
1536 Valle,Natalia 3411 1:04:46.0 1:04:35.6 10:25 F 15 Los Angeles CA
1537 Figueroa,Nanci 1657 1:07:10.4 1:04:37.8 10:25 F 42 Los Angeles CA
1538 Nix,Meaghan 113 1:06:19.2 1:04:38.1 10:26 F 38 Los Angeles CA
1539 Dexter,Angie 211 1:06:48.6 1:04:40.5 10:26 F 26 Simi Valley CA
1540 Dexter,Jennifer 607 1:06:48.4 1:04:40.7 10:26 F 28 Simi Valley CA
1541 Brown,Brenda 1179 1:07:39.0 1:04:40.7 10:26 F 51 El Segundo CA
1542 Vasquez,Elizabeth 3421 1:06:31.6 1:04:41.7 10:26 F 16 Los Angeles CA
1543 Cheng,Chester 1288 1:06:16.8 1:04:41.9 10:26 M 29 Arcadia CA
1544 Jelline,Maureen 2072 1:05:26.5 1:04:43.6 10:26 F 28 Los Angeles CA
1545 Lakin,Cherie 2383 1:05:43.9 1:04:45.8 10:27 F 38 Valencia CA
1546 Bonilla,Sandra 1115 1:05:44.2 1:04:46.0 10:27 F 47 Valencia CA
1547 Marcus,Aaron 2470 1:07:26.1 1:04:47.0 10:27 M 40 Santa Monica CA
1548 Brandt,Chris 1148 1:06:04.5 1:04:47.4 10:27 M 25 Santa Monica CA
1549 Greco,Jaclyn 1829 1:06:04.3 1:04:48.2 10:27 F 24 Santa Monica CA
1550 Sobel,Craig 244 1:05:47.3 1:04:49.5 10:27 M 50 North Hills CA
1551 Sewell,Rose 243 1:05:47.1 1:04:50.3 10:27 F 53 Granada Hills CA
1552 Klein,Marvin 2212 1:05:39.1 1:04:52.2 10:28 M 66 Claremont CA
1553 Deerin,Christine 1468 1:07:07.6 1:04:54.0 10:28 F 33 Redondo Beach CA
1554 Bayers,Mark 4766 1:06:13.7 1:04:59.2 10:29 M 53 Los Angeles CA
1555 Crooks,Keeva 1417 1:05:32.6 1:04:59.2 10:29 F 16 Canyon Country CA
1556 Cruz,Eloisa 3976 1:05:26.2 1:04:59.9 10:29 F 36 Los Angeles CA
1557 Goodman,Susan 521 1:06:56.2 1:05:00.1 10:29 F 51 Los Angeles CA
1558 Winter,Alan 520 1:06:57.2 1:05:01.2 10:29 M 53 Los Angeles CA
1559 Sandoval,Sophia 3063 1:06:06.7 1:05:01.4 10:29 F 40 Pico Rivera CA
1560 Garrett,Breeana 1749 1:06:19.3 1:05:02.1 10:29 F 25 Los Angeles CA
1561 Rosen,Christy 2994 1:06:20.6 1:05:03.1 10:30 F 42 Los Angeles CA
1562 Rodriguez,Yasmin 2986 1:09:22.6 1:05:03.5 10:30 F 31 Chula Vista CA
1563 Bederman,Sarah 1042 1:06:20.8 1:05:03.6 10:30 F 27 West Hollywood CA
1564 Hendrickson,Deanna 1943 1:06:26.5 1:05:04.3 10:30 F 27 Santa Monica CA
1565 Cox,Rhianna 1401 1:06:26.5 1:05:04.4 10:30 F 28 Los Angeles CA
1566 Lopez,Lauren 3617 1:05:30.2 1:05:07.2 10:30 F 24 Los Angeles CA
1567 Young,Sabrina 3577 1:05:30.2 1:05:07.2 10:30 F 21 Los Angeles CA
1568 Gold,Kevin 1792 1:08:59.9 1:05:08.0 10:30 M 35 Granada Hills CA
1569 Melton,James 2567 1:05:55.8 1:05:08.4 10:30 M 70 Upland CA
1570 Improta,Jessica 3621 1:06:25.2 1:05:09.3 10:31 F 32 Santa Monica CA
1571 Phan,Phuong 2842 1:07:08.4 1:05:09.6 10:31 F 28 Manhattan Beach CA
1572 Marcus,Nancy 2471 1:07:51.7 1:05:12.1 10:31 F 41 Santa Monica CA
1573 Lowe,Alie 124 1:07:49.4 1:05:13.5 10:31 F 26 Santa Monica CA
1574 Goble,Carey 121 1:07:49.4 1:05:13.7 10:31 F 26 Santa Monica CA
1575 Mcgraw,Colleen 2523 1:07:03.5 1:05:15.6 10:32 F 43 Redondo Beach CA
1576 Fisher,Lesli 1663 1:05:45.5 1:05:15.7 10:32 F 26 Valencia CA
1577 Lavery,Richard 2306 1:05:45.9 1:05:16.2 10:32 M 27 Santa Clarita CA
1578 Persico,Katie 2828 1:05:51.8 1:05:19.7 10:32 F 20 Simi Valley CA
1579 Acosta,Petra 374 1:06:38.3 1:05:20.8 10:32 F 36 Los Angeles CA
1580 Held,Jessica 1939 1:06:07.1 1:05:24.4 10:33 F 36 Canyon Country CA
1581 Yopp,Sophia 3935 1:10:41.2 1:05:26.2 10:33 F 1 Santa Monica CA
1582 Comstock,Elizabeth 1367 1:06:45.2 1:05:26.7 10:33 F 39 Los Angeles CA
1583 Gonzalez,Sylvia 247 1:06:53.5 1:05:27.9 10:34 F 47 Norwalk CA
1584 Zarlengo,Alyssa 3592 1:05:55.9 1:05:28.1 10:34 F 29 Los Angeles CA
1585 Hawari,Alice 1916 1:06:30.1 1:05:28.3 10:34 F 31 Las Vegas NV
1586 Kinsella,William 2202 1:06:43.3 1:05:29.3 10:34 M 37 Los Angeles CA
1587 Ferguson,Todd 1646 1:07:11.4 1:05:30.1 10:34 M 41 Marina Del Rey CA
1588 Foreman,Raegen 1687 1:06:57.6 1:05:30.4 10:34 F 33 Venice CA
1589 Rodriguez,Alexis 2979 1:06:08.2 1:05:30.5 10:34 F 38 North Hollywood CA
1590 Lowe,Michael 3925 1:07:31.6 1:05:32.2 10:34 M 31 Long Beach CA
1591 Friedman,Marne 1697 1:06:44.0 1:05:35.3 10:35 F 34 Brooklyn NY
1592 Stahl,Mary 3240 1:07:58.5 1:05:36.5 10:35 F 28 West Hollywood CA
1593 Stark,Rachel 3247 1:07:58.3 1:05:37.0 10:35 F 27 Venice CA
1594 Patel,Niti 344 1:07:04.0 1:05:37.1 10:35 F 26 Marina Del Rey CA
1595 Roberts,Deena 345 1:07:03.9 1:05:38.0 10:35 F 26 Camarillo CA
1596 Begunova,Svetlana 1046 1:05:38.2 1:05:38.2 10:35 F 28 Los Angeles CA
1597 Gordon,Amy 209 1:07:33.8 1:05:39.3 10:35 F 28 Calabasas CA
1598 Ferenbach,Emily 1645 1:08:06.3 1:05:39.7 10:35 F 23 Culver City CA
1599 Ragsac,Ted 2897 1:08:29.4 1:05:42.8 10:36 M 44 Woodland Hills CA
1600 Sakazaki,Itsuko 36 1:06:51.6 1:05:43.8 10:36 F 45 Long Beach CA
1601 Kato,Naomi 33 1:06:51.7 1:05:44.3 10:36 F 41 Rancho Palos Verdes CA
1602 Tanaka,Naoko 32 1:06:52.7 1:05:45.3 10:36 F 48 San Pedro CA
1603 Hallsman,Karen 1870 1:08:04.2 1:05:47.4 10:37 F 39 Sherman Oaks CA
1604 Escamilla,Ester 1603 1:08:33.6 1:05:48.0 10:37 F 36 Sylmar CA
1605 Chi,Hsianglan 557 1:06:36.1 1:05:48.6 10:37 F 28 Pasadena CA
1606 Nations,Holly 2673 1:06:43.2 1:05:49.3 10:37 F 29 Los Angeles CA
1607 Hong,Heejung 1987 1:06:12.3 1:05:49.5 10:37 F 30 Lomita CA
1608 Cates,E 532 1:07:42.2 1:05:50.3 10:37 F 45 Pacific Palisades CA
1609 Lynch,Jennifer 2426 1:07:52.1 1:05:51.1 10:37 F 38 Santa Monica CA
1610 Branley,Sara 1151 1:08:21.7 1:05:56.6 10:38 F 28 Mountain View CA
1611 Hernandez,Angelica 108 1:07:46.9 1:05:57.3 10:38 F 45 Hawthorne CA
1612 Steiger,Deanna 3251 1:06:29.0 1:05:58.1 10:38 F 31 Marina Del Rey CA
1613 Kowalski,Jim 2241 1:08:55.7 1:06:04.7 10:39 M 62 Pacific Palisades CA
1614 Weintraub,Jill 4765 1:07:57.7 1:06:06.4 10:40 F 52 Pacific Palisades CA
1615 Mqrris,Tricia 4815 1:07:52.6 1:06:07.4 10:40 F 45 Walnut CA
1616 Daidone,Danielle 642 1:08:03.5 1:06:08.0 10:40 F 41 Culver City CA
1617 Narahara,Nobuhiro 2670 1:07:35.2 1:06:09.6 10:40 M 33 Los Angeles CA
1618 Shknevsky,Fabienne 3156 1:07:52.4 1:06:11.5 10:41 F 35 Tarzana CA
1619 Hupalo,Anita 2042 1:07:51.4 1:06:12.4 10:41 F 38 Canoga Park CA
1620 Richards,Wendy 2946 1:06:23.2 1:06:12.5 10:41 F 51 Huntington Beach CA
1621 Fink,Cassandra 1661 1:08:37.2 1:06:14.2 10:41 F 31 Los Angeles CA
1622 Brydon,Carly 1192 1:08:37.6 1:06:14.4 10:41 F 31 Los Angeles CA
1623 Rosicki,Jill 2996 1:08:19.4 1:06:14.7 10:41 F 49 Culver City CA
1624 Patton,Melissa 4812 1:08:19.3 1:06:14.8 10:41 F 43 Culver City CA
1625 Laxineta,Samara 3914 1:06:49.7 1:06:15.0 10:41 F 20 Los Angeles CA
1626 Sheppard,Annalyse 3915 1:06:49.6 1:06:15.0 10:41 F 19 Groveland CA
1627 Sopher,Ariana 3916 1:06:49.7 1:06:15.5 10:41 F 19 Los Angeles CA
1628 Barboza,Gladis 1016 1:06:58.3 1:06:17.8 10:42 F 26 Pasadena CA
1629 Miranda,Teresa 2601 1:06:58.4 1:06:18.1 10:42 F 22 Glendale CA
1630 Chin,John 1304 1:06:39.5 1:06:18.4 10:42 M 60 Upland CA
1631 Ayoub,Richard 992 1:08:38.9 1:06:18.8 10:42 M 51 West Hollywood CA
1632 Lumanau,Asteria 2423 1:07:44.6 1:06:20.8 10:42 F 29 Beverly Hills CA
1633 Nemec,Sharon 551 1:07:00.0 1:06:26.1 10:43 F 52 Sherman Oaks CA
1634 Napoli,Valerie 2669 1:07:20.9 1:06:27.3 10:43 F 43 Anaheim CA
1635 Dorsey,Tanya 1532 1:06:55.4 1:06:29.4 10:43 F 21 Orange CA
1636 Sathapornwongkul,Sandy 395 1:09:06.7 1:06:31.6 10:44 F 25 Los Angeles CA
1637 Trinidad,Sandra 3804 1:08:15.9 1:06:31.9 10:44 F 34 Mission Hills CA
1638 Bocan,Dave 1103 1:07:36.7 1:06:33.4 10:44 M 62 Los Angeles CA
1639 Rutter,Susan 145 1:06:52.5 1:06:33.9 10:44 F 55 Los Angeles CA
1640 Newburn,Leslie 2692 1:07:50.0 1:06:34.0 10:44 F 42 Hermosa Beach CA
1641 Cody,Molly 481 1:07:25.9 1:06:34.0 10:44 F 31 Woodland Hills CA
1642 Coughlin,Amy 1393 1:07:43.5 1:06:35.8 10:44 F 24 Santa Monica CA
1643 Garcia,Luis 1736 1:06:47.3 1:06:38.6 10:45 M 17 Los Angeles CA
1644 Bost,Jacqueline 1120 1:09:31.0 1:06:38.8 10:45 F 40 Marina Del Rey CA
1645 Davis,Krista 4927 1:09:31.1 1:06:39.0 10:45 F 31 Marina Del Rey CA
1646 Wildhaber,Susanne 110 1:06:51.4 1:06:43.1 10:46 F 41 Marina Del Rey CA
1647 Cabral,Maria 3689 1:10:16.2 1:06:46.1 10:46 F 31 Manhattan Beach CA
1648 RosÚn,Khadijah 3007 1:07:01.8 1:06:46.3 10:46 F 27 Reedsville WI
1649 Fee,Amy 119 1:09:12.5 1:06:46.8 10:46 F 40 Santa Monica CA
1650 Palechek,Jill 2777 1:08:01.6 1:06:48.0 10:46 F 33 Loveland OH
1651 Toca,Eula 3355 1:10:01.4 1:06:48.2 10:46 F 34 Los Angeles CA
1652 Gonzalez,Christina 249 1:08:14.6 1:06:48.7 10:47 F 21 Whittier CA
1653 Sadia,Charmaine 3039 1:07:35.4 1:06:49.3 10:47 F 18 Canyon Country CA
1654 Shim,Diane 3741 1:07:25.8 1:06:52.2 10:47 F 34 Los Angeles CA
1655 Diguido,Rosemarie 368 1:09:44.7 1:06:53.4 10:47 F 31 Los Angeles CA
1656 Chirchick,Stacey 1309 1:07:38.6 1:06:54.2 10:47 F 40 Studio City CA
1657 Ross,Paula 3004 1:07:38.6 1:06:54.3 10:47 F 49 Northridge CA
1658 Munn,Sandy 2651 1:09:53.4 1:06:56.7 10:48 F 56 Bellflower CA
1659 Galban,Cecilia 4831 1:07:21.7 1:06:59.5 10:48 F 30 Los Angeles CA
1660 Oldak,Salomon 4770 1:08:24.6 1:07:00.1 10:48 M 49 Los Angeles CA
1661 Alexander,Lisa 4729 1:08:24.8 1:07:00.2 10:48 F 52 Los Angeles CA
1662 Eoh,Ken 704 1:08:54.7 1:07:05.9 10:49 M 39 Reseda CA
1663 Espinosa,Heidy 1608 1:09:10.9 1:07:06.6 10:49 F 42 Culver City CA
1664 Welch,Kelsey 3495 1:09:54.7 1:07:07.1 10:50 F 29 Anaheim CA
1665 Chern,Denise 1296 1:09:17.4 1:07:09.9 10:50 F 35 Fullerton CA
1666 Homsher,Jennifer 1985 1:08:06.1 1:07:10.4 10:50 F 26 Henderson NV
1667 Le,Rosalyn 3975 1:08:07.7 1:07:11.8 10:50 F 23 Garden Grove CA
1668 Ramos,Karen 2910 1:07:24.4 1:07:12.8 10:50 F 16 Los Angeles CA
1669 Andrade,Miachelle 250 1:08:38.9 1:07:13.6 10:51 F 53 Whittier CA
1670 Gonzalez,Noemi 1807 1:07:54.3 1:07:14.2 10:51 F 50 Van Nuys CA
1671 Monzon,Belle 2619 1:08:00.6 1:07:17.1 10:51 F 33 Anaheim CA
1672 Ibanez,Andre 2050 1:08:00.6 1:07:17.6 10:51 M 34 Anaheim CA
1673 Chern,Pete 1297 1:09:28.1 1:07:20.2 10:52 M 34 Fullerton CA
1674 Susco,Kelly 545 1:07:43.4 1:07:21.0 10:52 F 37 Los Angeles CA
1675 Campos,Jennifer 1229 1:10:39.9 1:07:25.7 10:53 F 37 Gardena CA
1676 Miller,Allison 524 1:09:19.4 1:07:26.3 10:53 F 29 Santa Monica CA
1677 Quemada,Taleah 2889 1:08:03.4 1:07:28.3 10:53 F 28 Pahoa HI
1678 Leavitt,Amy 311 1:09:24.6 1:07:29.4 10:53 F 34 Granada Hills CA
1679 Correa,Adrianna 1390 1:09:42.5 1:07:30.1 10:53 F 34 Los Angeles CA
1680 Vinke,Casey 3446 1:09:30.2 1:07:31.3 10:53 F 30 Burbank CA
1681 Heymann,Simone 1956 1:07:55.0 1:07:32.1 10:54 F 30 Los Angeles CA
1682 Kerr,Aaron 599 1:07:54.3 1:07:32.3 10:54 M 42 Santa Monica CA
1683 Kim,Simone 3967 1:09:08.1 1:07:33.2 10:54 F 26 Torrance CA
1684 Park,Julie 802 1:09:08.3 1:07:33.6 10:54 F 29 North Hollywood CA
1685 Lipsky,Jill 2377 1:08:53.4 1:07:35.9 10:54 F 39 Pacific Palisades CA
1686 Sangha,Kam 3067 1:08:57.2 1:07:37.8 10:54 F 45 Los Angeles CA
1687 Rocha,Amy 576 1:10:18.5 1:07:40.9 10:55 F 31 Los Angeles CA
1688 Stearns Lawson,Brooke 3248 1:09:13.8 1:07:48.6 10:56 F 33 Venice CA
1689 Tucker,Julia 3386 1:09:35.8 1:07:50.1 10:56 F 26 Pasadena CA
1690 Rowe,Emily 3012 1:08:52.9 1:07:50.4 10:57 F 22 Los Angeles CA
1691 Mcneill,Analise 2550 1:09:36.3 1:07:50.6 10:57 F 24 Burbank CA
1692 Benavides,Xochil 1057 1:08:51.7 1:07:50.8 10:57 F 22 Venice CA
1693 Deese,Frank 728 1:09:50.0 1:07:51.5 10:57 M 50 Los Angeles CA
1694 Macaraeg,Brendon 654 1:10:13.9 1:07:55.8 10:57 M 42 Culver City CA
1695 Guzman,Jose 1858 1:10:49.6 1:08:03.2 10:59 M 37 Panorama City CA
1696 Brand,Stacey 1145 1:09:59.4 1:08:04.3 10:59 F 32 Culver City CA
1697 Morrow,Victoria 246 1:10:30.7 1:08:04.4 10:59 F 43 Santa Monica CA
1698 Salazar,Lisa 3045 1:10:43.7 1:08:06.2 10:59 F 35 Los Angeles CA
1699 Dibiagio,Christina 1497 1:10:04.2 1:08:07.2 10:59 F 27 Hermosa Beach CA
1700 Bimeds,Joy 647 1:09:40.2 1:08:11.2 11:00 F 32
1701 Mabry,John 879 1:10:37.8 1:08:15.1 11:01 M 29 Los Angeles CA
1702 Pickett,Tish 270 1:09:37.8 1:08:18.3 11:01 F 41 Carson CA
1703 Ritter Simon,Robyn 2960 1:08:55.6 1:08:18.6 11:01 F 49 Los Angeles CA
1704 Jahulin,Deb 612 1:09:24.0 1:08:18.7 11:01 F 72
1705 Rubio,Jackie 3017 1:11:42.2 1:08:18.7 11:01 F 39 Wilmington CA
1706 Phan,Phuong 2841 1:10:27.6 1:08:19.3 11:01 F 27 Anaheim CA
1707 Atkinson,Monique 272 1:09:39.7 1:08:19.9 11:01 F 41 Los Angeles CA
1708 Mosby,Nina 95 1:08:31.0 1:08:21.1 11:01 F 41 Culver City CA
1709 Ruth,Lucia 3029 1:09:47.0 1:08:21.9 11:02 F 31 Huntington Beach CA
1710 Quinn,Leslie 335 1:09:37.4 1:08:22.2 11:02 F 56 Los Angeles CA
1711 Reyes,Mario 3931 1:10:28.9 1:08:22.2 11:02 M 35 Los Angeles CA
1712 Lopez,Evelyn 2395 1:09:09.2 1:08:24.0 11:02 F 36 West Covina CA
1713 Barrios,Kaila 1024 1:09:09.2 1:08:24.3 11:02 F 14 Placentia CA
1714 Kelly,Caitlin 4994 1:11:43.1 1:08:26.6 11:02 F 28 Santa Monica CA
1715 Delgado,Erika 1472 1:10:17.0 1:08:26.7 11:02 F 33 San Gabriel CA
1716 Moore,Rachel 2627 1:10:28.5 1:08:31.9 11:03 F 17 Santa Monica CA
1717 Fung,Alan 1704 1:26:49.8 1:08:34.8 11:04 M 25 Rosemead CA
1718 Huizing,Heather 2033 1:10:36.0 1:08:35.4 11:04 F 35 Los Angeles CA
1719 Inouye,Lisa 2058 1:11:32.8 1:08:36.0 11:04 F 40 Santa Monica CA
1720 Shariatmadari,Negar 3146 1:09:22.3 1:08:36.7 11:04 F 32 Los Angeles CA
1721 Garcia,Olga 1742 1:10:24.2 1:08:37.9 11:04 F 29 Valencia CA
1722 Cheng,Jolene 1290 1:26:50.0 1:08:38.1 11:04 F 24 Rosemead CA
1723 Feagins,Craig 342 1:09:34.4 1:08:39.9 11:05 M 54 Marina Del Rey CA
1724 Nelson,Barbara 2680 1:09:04.7 1:08:41.0 11:05 F 52 Woodland Hills CA
1725 Feagins,Shino 343 1:09:37.3 1:08:42.6 11:05 F 36 Marina Del Rey CA
1726 Reynolds,Amy 2942 1:10:17.0 1:08:43.2 11:05 F 34 Burbank CA
1727 Flinn,Lindsay 578 1:08:48.7 1:08:44.8 11:05 F 30 Santa Monica CA
1728 Bull,Scott 4908 1:11:00.2 1:08:49.4 11:06 M 53 Los Angeles CA
1729 Holmes,Jill 1982 1:10:48.7 1:08:51.3 11:06 F 44 Los Angeles CA
1730 Brassell,Elizabeth 363 1:09:27.2 1:08:53.5 11:07 F 33
1731 Chern,Vivian 1298 1:11:11.0 1:09:03.5 11:08 F 32 Fullerton CA
1732 Trent,Greg 3374 1:12:07.7 1:09:05.3 11:09 M 22 Hawaiian Gardens CA
1733 Geiger,Leslie 1761 1:10:45.5 1:09:05.8 11:09 F 37 Playa Del Rey CA
1734 Moore,Mohini 2626 1:10:39.4 1:09:10.3 11:09 F 33 Los Angeles CA
1735 Lawler,Megan 2308 1:10:32.7 1:09:10.4 11:09 F 29 Culver City CA
1736 Stanley,Rachel 3245 1:10:33.3 1:09:11.6 11:10 F 33 Culver City CA
1737 Montelongo,Sandra 471 1:09:31.3 1:09:14.0 11:10 F 39 Marina Del Rey CA
1738 Kambe,Sachiko 2129 1:10:38.7 1:09:14.9 11:10 F 48 Marina Del Rey CA
1739 Deocampo,Paola 1480 1:11:31.8 1:09:21.7 11:11 F 31 Marina Del Rey CA
1740 Carden,Nicole 1238 1:11:32.1 1:09:22.1 11:11 F 30 Monrovia CA
1741 Payne,Tameka 3656 1:11:28.6 1:09:25.5 11:12 F 36 Valencia CA
1742 Chong,Evelyn 3667 1:10:39.0 1:09:26.8 11:12 F 30 Glendale CA
1743 Shahverdian,Ramela 3144 1:10:39.0 1:09:27.3 11:12 F 29 Glendale CA
1744 Hassman,Ariel 1912 1:11:01.1 1:09:28.0 11:12 F 32 Venice CA
1745 Dautermann,Terry 1447 1:15:46.2 1:09:29.1 11:12 M 52 Buena Park CA
1746 Horn,Mark 1993 1:12:16.9 1:09:35.4 11:13 M 45 Granada Hills CA
1747 Horn,Erin 1992 1:12:17.6 1:09:36.1 11:14 F 14 Granada Hills CA
1748 Pasternach,Gisele 4977 1:10:56.5 1:09:36.5 11:14 F 53 Los Angeles CA
1749 Ridinger,Robin 28 1:09:40.1 1:09:37.6 11:14 F 51 Sherman Oaks CA
1750 Vaitai,Maele 3406 1:12:50.5 1:09:38.0 11:14 F 32 Adelanto CA
1751 Elfalan,Jonathan 765 1:12:42.9 1:09:39.4 11:14 M 28 Long Beach CA
1752 Moali,Nazanin 263 1:11:10.4 1:09:39.8 11:14 F 29 Los Angeles CA
1753 Hoo,Christine 763 1:12:42.9 1:09:39.8 11:14 F 27 Long Beach CA
1754 Mirbagheri,Atefeh 264 1:11:10.5 1:09:40.0 11:14 F 28 Camarillo CA
1755 Chae,Sandra 804 1:11:20.1 1:09:40.5 11:14 F 35 Los Angeles CA
1756 Chang,Jenny 1275 1:11:48.5 1:09:41.4 11:14 F 26 Costa Mesa CA
1757 Hundley,Liz 417 1:12:21.0 1:09:44.6 11:15 F 22 Los Angeles CA
1758 Rasch,Mary 686 1:12:19.0 1:09:45.5 11:15 F 33 Santa Monica CA
1759 Martinez,Charles 2483 1:11:01.9 1:09:46.4 11:15 M 55 Los Angeles CA
1760 Martinez,Amy 2482 1:11:01.8 1:09:46.5 11:15 F 54 Los Angeles CA
1761 Gonzalez,Adriana 814 1:12:01.7 1:09:46.9 11:15 F 29 Los Angeles CA
1762 Tan,Maddie 3310 1:10:49.8 1:09:47.3 11:15 F 18 Santa Clarita CA
1763 French,Robert T. 4873 1:12:36.6 1:09:47.5 11:15 M 30 Los Angeles CA
1764 Molnar,Michelle 2611 1:10:28.8 1:09:47.7 11:15 F 25 Lake Forest CA
1765 La,Arron 2273 1:11:56.2 1:09:49.2 11:16 M 26 Fountain Valley CA
1766 Rubio,Anais 3016 1:11:40.0 1:09:49.8 11:16 F 17 Los Angeles CA
1767 Antonsen,Amy 961 1:11:31.1 1:09:51.6 11:16 F 25 Agoura Hills CA
1768 Leyva,Julio 2364 1:10:44.1 1:09:51.9 11:16 M 40 Culver City CA
1769 Drusen,Valene 1548 1:11:09.9 1:09:52.3 11:16 F 61 Lancaster CA
1770 Bartholomay,Kristin 3983 1:11:31.5 1:09:52.4 11:16 F 25 Agoura Hills CA
1771 Oran,Alicia 2755 1:12:42.6 1:09:53.9 11:16 F 39 West Covina CA
1772 Madamba,Gina 27 1:11:21.7 1:10:03.2 11:18 F 38 Torrance CA
1773 Gupte,Siya 1853 1:11:20.0 1:10:17.9 11:20 F 26 Los Angeles CA
1774 Stoddard,Catherine 833 1:11:31.5 1:10:31.1 11:22 F 37 Sherman Oaks CA
1775 Lium,Deborah 445 1:13:04.7 1:10:31.3 11:22 F 46 Thousand Oaks CA
1776 Arancibia,Pamela 966 1:13:10.7 1:10:36.9 11:23 F 20 Fountain Valley CA
1777 Leduff,Jessica 2322 1:11:28.5 1:10:37.8 11:24 F 29 Sherman Oaks CA
1778 Huynh,Billy 2047 1:13:02.4 1:10:38.1 11:24 M 39 Culver City CA
1779 Traba,Analisa 3364 1:11:28.7 1:10:38.4 11:24 F 43 Sherman Oaks CA
1780 Lee,David 2324 1:12:39.2 1:10:38.9 11:24 M 28 Woodland Hills CA
1781 Goss,Angela 1818 1:11:29.3 1:10:39.5 11:24 F 45 Sherman Oaks CA
1782 Looney,Kyle 2394 1:12:56.0 1:10:40.9 11:24 F 29 Los Angeles CA
1783 Park,Alisha 2784 1:12:43.9 1:10:43.8 11:24 F 30 Torrance CA
1784 Sakuda,Linda 3044 1:11:23.6 1:10:45.3 11:25 F 46 Whittier CA
1785 Mcdonough,Kristy 4962 1:10:47.4 1:10:45.9 11:25 F 27 Los Angeles CA
1786 Trachtman,Jeri 3365 1:11:31.3 1:10:48.4 11:25 F 46 Redondo Beach CA
1787 Batiste,Melanie 1029 1:11:55.5 1:10:50.1 11:26 F 51 Torrance CA
1788 Trahan,Mary 3366 1:13:07.1 1:10:52.2 11:26 F 30 Los Angeles CA
1789 Kistler,Andrea 2205 1:13:36.3 1:10:53.9 11:26 F 27 Los Angeles CA
1790 Nakata,Arlene 2667 1:17:53.1 1:10:54.6 11:26 F 40 Redondo Beach CA
1791 Evans,Jennifer 1617 1:12:31.4 1:10:56.8 11:27 F 34 Newport Beach CA
1792 Serey,Tiffanie 3128 1:12:29.2 1:11:03.5 11:28 F 30 Long Beach CA
1793 Bland,Phillip 4746 1:15:03.2 1:11:04.1 11:28 M 52 Los Angeles CA
1794 Bland,Stephen 4747 1:15:04.0 1:11:04.6 11:28 M 77 Los Angeles CA
1795 Tuason,Danielle 3385 1:14:14.5 1:11:06.3 11:28 F 28 Long Beach CA
1796 Myers,Cheryl 2 1:14:07.9 1:11:10.6 11:29 F 31 Los Angeles CA
1797 Myers,Scott 1 1:14:07.9 1:11:10.7 11:29 M 33 Los Angeles CA
1798 Walters,Keith 3467 1:13:28.1 1:11:15.9 11:30 M 49 Lakewood CA
1799 Hennessey,Brett 1945 1:14:08.9 1:11:21.1 11:31 M 30 Los Angeles CA
1800 Riofrio,Brianna 2956 1:14:08.8 1:11:21.2 11:31 F 25 Los Angeles CA
1801 Austgen,Janice 3988 1:12:05.6 1:11:23.5 11:31 F 61 South Pasadena CA
1802 Villegas,Stephanie 656 1:11:48.6 1:11:27.8 11:32 F 30 Valencia CA
1803 Ruiz-perez,Stephanie 3021 1:13:24.2 1:11:30.3 11:32 F 35 Mission Hills CA
1804 Javan,Lila 3679 1:13:16.4 1:11:34.3 11:33 F 39 Santa Monica CA
1805 Blake,Natasha 63 1:13:20.9 1:11:35.5 11:33 F 36 Los Angeles CA
1806 Crocket,Roxanne 1413 1:13:51.1 1:11:36.3 11:33 F 33 Burbank CA
1807 Zendejas,Maytee 821 1:14:13.4 1:11:36.3 11:33 F 38 Sylmar CA
1808 Mair,Rebecca 2451 1:13:50.9 1:11:36.7 11:33 F 30 North Hollywood CA
1809 Crook,Jon 1416 1:14:26.8 1:11:36.7 11:33 M 32 North Hollywood CA
1810 Mckenna,Matthew 2528 1:14:26.5 1:11:37.6 11:33 M 26 North Hollywood CA
1811 Velasquez,Laura 3428 1:14:26.9 1:11:37.6 11:33 F 25 North Hollywood CA
1812 Villegas,Gabe 655 1:11:59.4 1:11:38.5 11:33 M 30 Valencia CA
1813 Milner,Dylan 2596 1:13:52.1 1:11:38.6 11:33 M 28 Los Angeles CA
1814 Broughton,Blair 1178 1:14:38.8 1:11:47.7 11:35 F 26 Marina Del Rey CA
1815 Velasquez,Shelley 3429 1:14:39.4 1:11:49.1 11:35 F 27 Arcadia CA
1816 Levine,Jaclyn 4768 1:14:28.1 1:11:50.9 11:35 F 31 Los Angeles CA
1817 Orantes,Brenda 2756 1:14:36.7 1:11:55.8 11:36 F 34 Riverside CA
1818 Simmons,Rebecca 3176 1:13:38.3 1:12:00.4 11:37 F 27 Venice CA
1819 Thompson,Kariel 3342 1:13:38.4 1:12:00.4 11:37 F 26 Pacific Palisades CA
1820 Valenzuela,Bridget 3408 1:13:04.3 1:12:01.5 11:37 F 19 Newhall CA
1821 Smith,Brianna 179 1:12:28.6 1:12:03.0 11:37 F 22 North Hollywood CA
1822 Arias,Karen 3934 1:16:16.8 1:12:04.0 11:37 F 51 Los Angeles CA
1823 Espinoza,Jennifer 1609 1:14:05.7 1:12:04.9 11:38 F 36 Marina Del Rey CA
1824 Dahl,Leah 1439 1:12:58.9 1:12:05.0 11:38 F 27 Los Angeles CA
1825 Neil,Jani 3697 1:15:51.3 1:12:05.1 11:38 M 32 Rancho Santa Margari CA
1826 Deese,Ben 729 1:14:06.0 1:12:08.6 11:38 M 18 Los Angeles CA
1827 Kleinman,Maddie 52 1:28:57.2 1:12:13.6 11:39 F 19
1828 Shipley,Chandler 50 1:28:57.4 1:12:15.1 11:39 M 19
1829 Motawet,Mahsa 2641 1:13:18.5 1:12:15.9 11:39 F 18 Canyon Country CA
1830 Aguillon,Wendy 901 1:12:32.1 1:12:20.4 11:40 F 16 Los Angeles CA
1831 Kim,Hye-min 2187 1:12:33.2 1:12:23.9 11:41 F 16 Los Angeles CA
1832 Moreno,Dolores 2633 1:15:18.9 1:12:29.9 11:42 F 29 Whittier CA
1833 Lee,David 2325 1:12:39.4 1:12:39.4 11:43 M 28 Woodland Hills CA
1834 Marin,Vanessa 351 1:14:55.0 1:12:40.1 11:43 F 37 Santa Monica CA
1835 Curry,Joy 714 1:14:18.4 1:12:43.6 11:44 F 71 Manhattan Beach CA
1836 Smith,Jenalyn 3199 1:15:01.9 1:12:44.7 11:44 F 24 Santa Monica CA
1837 Zimmerman,Robert 3600 1:13:12.4 1:12:46.5 11:44 M 12 Manhattan Beach CA
1838 Page,Chelsey 2775 1:13:29.5 1:12:46.5 11:44 F 38 Pasadena CA
1839 Ko,Jae 2222 1:15:34.1 1:12:47.3 11:44 M 29 Los Angeles CA
1840 Becker,Lauren 1041 1:14:48.9 1:12:47.5 11:44 F 22 Covina CA
1841 Perez,Ryan 684 1:14:02.4 1:12:48.0 11:45 M 30 Los Angeles CA
1842 Rieman,John 683 1:14:02.3 1:12:48.7 11:45 M 31 Beverly Hills CA
1843 Rieman,Anne 685 1:14:02.3 1:12:50.1 11:45 F 33 Los Angeles CA
1844 Frijmersum,Malaika 1698 1:15:44.4 1:12:52.6 11:45 F 39 Marina Del Rey CA
1845 Rose,Laura 2992 1:15:44.2 1:12:52.7 11:45 F 30 Santa Monica CA
1846 Palomo,Armando 482 1:15:22.2 1:12:55.9 11:46 M 42 Lynwood CA
1847 Mcdonald,Elizabeth 565 1:22:06.6 1:12:56.8 11:46 F 36 Santa Monica CA
1848 Murphy,Crystal 317 1:14:46.0 1:12:57.8 11:46 F 30 Los Angeles CA
1849 Jimenez,Gisela 2078 1:13:46.3 1:13:01.4 11:47 F 32 Chatsworth CA
1850 Reynes,Carol 2941 1:15:24.8 1:13:02.0 11:47 F 48 Venice CA
1851 Kolar,Kouy 3686 1:15:25.6 1:13:03.1 11:47 F 36 Santa Monica CA
1852 Nnvice,Ken 3690 1:15:25.8 1:13:03.3 11:47 M 48 Santa Monica CA
1853 Opaz,Gabriella 2753 1:15:24.4 1:13:03.4 11:47 F 35
1854 Contratto,Josie 1371 1:13:42.6 1:13:04.0 11:47 F 44 Los Angeles CA
1855 Garrett,Evelyn 4970 1:14:05.3 1:13:07.8 11:48 F 49 Los Angeles CA
1856 Briones,Mercy 646 1:14:36.9 1:13:07.9 11:48 F 34 Northridge CA
1857 Rakunas,Anne 4955 1:15:25.2 1:13:08.5 11:48 F 46 Santa Monica CA
1858 Zaylia,Jessie 3595 1:15:35.9 1:13:10.2 11:48 F 31 Corona CA
1859 Bhatanawin,Michael 348 1:15:32.4 1:13:13.6 11:49 M 27 Brea CA
1860 Weidner,Linda 3491 1:14:58.0 1:13:16.8 11:49 F 61 Placentia CA
1861 Nguyen,Manhvu 2697 1:15:31.3 1:13:18.2 11:49 F 26 Los Angeles CA
1862 An,Phuong 941 1:15:31.4 1:13:18.6 11:49 F 26 Pomona CA
1863 Sanchez Chan,Ligaya 3056 1:15:48.6 1:13:19.1 11:50 F 32 Chino CA
1864 Rajpara,Amee 2900 1:15:34.0 1:13:22.3 11:50 F 27 Fontana CA
1865 Rasmussen,Laurie 2914 1:16:16.3 1:13:27.1 11:51 F 54 Pacific Palisades CA
1866 Sanchez,Elaine 3057 1:15:27.7 1:13:34.3 11:52 F 26 Los Angeles CA
1867 Flores,Nataly 1673 1:14:27.9 1:13:34.4 11:52 F 16 Acton CA
1868 Garcia,Fidel 1733 1:14:28.1 1:13:34.8 11:52 M 47 Woodland Hills CA
1869 Kestin,Leslie 601 1:15:06.3 1:13:35.2 11:52 F 55 Culver City CA
1870 Farish,Stacey 1634 1:14:20.2 1:13:48.2 11:54 F 31 Studio City CA
1871 Leavell,Paris 446 1:16:26.0 1:13:52.6 11:55 F 43 El Cajon CA
1872 Ruivivar,Anne 584 1:16:43.2 1:13:55.4 11:55 F 34 Valley Village CA
1873 Voroshilovsky,Olga 3451 1:14:03.0 1:13:56.2 11:56 F 37 Los Angeles CA
1874 Malloy,Alena 2458 1:16:16.2 1:13:56.8 11:56 F 32 Los Angeles CA
1875 Doan,Loan 1511 1:16:05.0 1:13:56.9 11:56 F 27 Rancho Palos Verdes CA
1876 Years,Chandra 485 1:15:04.5 1:13:57.1 11:56 F 45 Santa Monica CA
1877 Bates,Shelley 501 1:15:32.7 1:14:01.1 11:56 F 50 Burbank CA
1878 Eimer,Toby 602 1:15:35.7 1:14:03.6 11:57 F 54 Encino CA
1879 Matthews,Monique 2501 1:15:54.4 1:14:09.8 11:58 F 39 Culver City CA
1880 Gordy,Terry 1815 1:14:56.6 1:14:17.3 11:59 M 28 Pasadena CA
1881 Brundage,Tony 1186 1:15:06.2 1:14:18.3 11:59 M 32 Claremont CA
1882 Kim-fanelli,Morgan 2191 1:16:46.3 1:14:19.2 11:59 F 42 Pasadena CA
1883 Diaz,Wendy 4856 1:15:20.3 1:14:20.2 11:59 F 18 Los Angeles CA
1884 Alleyne,Rebecca 923 1:16:45.1 1:14:23.3 12:00 F 40 Studio City CA
1885 Forshee,Brianna 314 1:15:14.7 1:14:27.4 12:01 F 26 Valencia CA
1886 Lee,Minnie 2333 1:16:44.5 1:14:27.9 12:01 F 38 Playa Del Rey CA
1887 Tsubakiyama,Kiyohide 3383 1:16:34.8 1:14:29.2 12:01 M 52 Santa Monica CA
1888 Jimenez,Marcus 2080 1:15:13.1 1:14:32.7 12:01 M 28 Claremont CA
1889 Latman,Nat 2305 1:15:25.3 1:14:32.8 12:01 M 47 Oak Park CA
1890 Schaefer,Kathy 3085 1:15:13.1 1:14:33.0 12:01 F 54 Rancho Cucamonga CA
1891 Velazquez,Jessica 751 1:17:11.6 1:14:35.1 12:02 F 25 Sylmar CA
1892 Coze,Kelvin 1403 1:14:35.2 1:14:35.2 12:02 M 49 Los Angeles CA
1893 Gray,Stephanie 1827 1:16:40.9 1:14:40.9 12:03 F 28 Long Beach CA
1894 Lowe,Erica 2410 1:16:41.6 1:14:41.8 12:03 F 28 Garden Grove CA
1895 Sturm,Rebekah 418 1:15:58.0 1:14:42.9 12:03 F 28 Los Angeles CA
1896 Hunter,Bekki 3739 1:15:58.6 1:14:43.2 12:03 F 34 Eagle ID
1897 Bernard,Jodi 4762 1:15:30.9 1:14:52.7 12:05 F 35 Los Angeles CA
1898 Hedman,Ileana 4763 1:15:31.3 1:14:53.4 12:05 F 38 Burbank CA
1899 Lampassi,Wendi 2294 1:15:39.5 1:14:58.7 12:06 F 44 Canoga Park CA
1900 Duzick,Sharlene 1568 1:16:02.8 1:14:59.0 12:06 F 29 Canyon Country CA
1901 Lampassi,Giovani 2293 1:15:40.1 1:14:59.5 12:06 M 41 Canoga Park CA
1902 Shackelford,Tatum 3136 1:16:26.7 1:15:03.5 12:06 F 12 Thousand Oaks CA
1903 Shackelford,Ricky 3135 1:16:26.7 1:15:03.7 12:06 M 47 Thousand Oaks CA
1904 Enriquez Jr,Santiago 1597 1:17:46.9 1:15:06.5 12:07 M 41 La Puente CA
1905 Saracho,Pearl 3712 1:16:28.1 1:15:06.5 12:07 F 44 Pasadena CA
1906 Holly,Martin 4998 1:16:55.1 1:15:07.5 12:07 M 39 El Segundo CA
1907 Flores,Vanessa 1674 1:16:02.5 1:15:09.1 12:07 F 18 Acton CA
1908 Sullivan,Angela 3278 1:17:52.2 1:15:10.3 12:07 F 32 Los Angeles CA
1909 Canas,David 3711 1:16:33.5 1:15:11.6 12:08 M 52 Altadena CA
1910 Al-harthi,Marion 908 1:18:08.3 1:15:14.4 12:08 F 50 Beverly Hills CA
1911 Al-harithi,Hana 907 1:18:08.3 1:15:14.9 12:08 F 27 Beverly Hills CA
1912 Al-harithi,Alia 906 1:18:08.8 1:15:15.1 12:08 F 25 Beverly Hills CA
1913 Jackson,Simonette 3803 1:16:00.7 1:15:17.2 12:09 F 40 Reseda CA
1914 Lamas,Kimberley 2287 1:15:27.0 1:15:18.1 12:09 F 16 Los Angeles CA
1915 Cigliano,Gerald 1330 1:16:44.6 1:15:18.4 12:09 M 57 Santa Monica CA
1916 Soga,Hirono 3211 1:16:45.5 1:15:19.2 12:09 F 35 Burbank CA
1917 Fallon,Sandra 1628 1:16:47.5 1:15:20.7 12:09 F 51 Santa Monica CA
1918 Lorenzo,Cheryl 2402 1:17:37.1 1:15:23.0 12:10 F 40 Los Angeles CA
1919 Garcia,Menen 1741 1:17:06.5 1:15:31.5 12:11 M 68 North Hills CA
1920 Sanchez,Cain 3055 1:17:06.5 1:15:56.0 12:15 M 29 Rancho Cucamonga CA
1921 Wilson,Sheri 4852 1:18:50.0 1:16:02.3 12:16 F 28 Santa Monica CA
1922 Contreras,Rosalva 1373 1:17:26.5 1:16:02.5 12:16 F 30 San Bernardino CA
1923 May,Andreia 2505 1:17:10.4 1:16:02.8 12:16 F 40 Woodland Hills CA
1924 May,Jack 2507 1:17:10.6 1:16:02.9 12:16 M 36 Woodland Hills CA
1925 Dempsey,Kelly 1476 1:17:12.6 1:16:05.4 12:16 F 31 Pasadena CA
1926 Holden,Blythe 621 1:17:29.1 1:16:08.5 12:17 F 40
1927 Denos,Ginny 620 1:17:30.5 1:16:09.9 12:17 F 49 Malibu CA
1928 Ho,Chi Hui 1968 1:16:47.2 1:16:10.8 12:17 F 31 Corona CA
1929 Lebastchi,Mitra 541 1:18:11.4 1:16:11.7 12:17 F 27 Santa Monica CA
1930 De La Vega,Enrico 1461 1:16:59.5 1:16:14.4 12:18 M 37 Woodland Hills CA
1931 Guitierrez,Erin 3664 1:17:52.5 1:16:16.3 12:18 F 31 Los Angeles CA
1932 Lin,Reggie 2373 1:34:22.4 1:16:19.6 12:19 M 26 San Gabriel CA
1933 Wong,Vince 3550 1:34:35.2 1:16:22.3 12:19 M 26 Rosemead CA
1934 Ridley,Nikki 2953 1:18:42.3 1:16:29.5 12:20 F 65 Manhattan Beach CA
1935 Yepes,Gregory 3567 1:17:17.1 1:16:32.5 12:21 M 38 Los Angeles CA
1936 Meza,Beatris 2579 1:17:32.7 1:16:34.2 12:21 F 15 Los Angeles CA
1937 Fernandez Cruz,Angel 1647 1:16:45.9 1:16:38.8 12:22 M 17 Los Angeles CA
1938 Sweet,Pammela 3292 1:18:20.7 1:16:39.0 12:22 F 50 Los Angeles CA
1939 Fink,Amelia 1659 1:18:22.9 1:16:54.2 12:24 F 24 Los Angeles CA
1940 Fink,Angela 1660 1:18:23.5 1:16:54.6 12:24 F 28 Los Angeles CA
1941 Yepes,Melissa 3568 1:17:39.6 1:16:55.7 12:24 F 33 Los Angeles CA
1942 Beecher,Evan 4838 1:19:40.0 1:16:57.7 12:25 M 28 Los Angeles CA
1943 Beecher,Aubrey 4839 1:19:41.5 1:16:59.3 12:25 F 24 Los Angeles CA
1944 Kesel,Lauren 2173 1:19:59.5 1:17:02.6 12:26 F 30 Irvine CA
1945 Junger,Paul 2117 1:19:53.0 1:17:02.7 12:26 M 69 Los Angeles CA
1946 Kesel,Leslie 2174 1:19:59.4 1:17:03.5 12:26 F 24 Irvine CA
1947 Azami,Walid 993 1:19:57.6 1:17:09.6 12:27 M 34 Anaheim CA
1948 Harshbarger,Matt 1899 1:19:57.6 1:17:09.9 12:27 M 29 Anaheim CA
1949 Perez,Carlos 3960 1:17:23.4 1:17:20.4 12:28 M 26 Downey CA
1950 Posner,Lindsay 622 1:19:34.3 1:17:23.6 12:29 F 27 Los Angeles CA
1951 Eagan,Kristina 625 1:17:50.6 1:17:26.3 12:29 F 28 Los Angeles CA
1952 Skinner,Kelly 167 1:18:21.2 1:17:34.7 12:31 F 48 Lancaster CA
1953 Lee,Alan 3957 1:19:30.1 1:17:39.3 12:32 M 26 Burbank CA
1954 Hoshi,Bev 2003 1:18:53.2 1:17:42.9 12:32 F 60 Diamond Bar CA
1955 Bird,Leslie 1085 1:19:35.5 1:17:59.1 12:35 F 36 Los Angeles CA
1956 Latman,Jenny 2304 1:18:52.8 1:18:01.1 12:35 F 46 Oak Park CA
1957 Collins,William 1363 1:20:30.8 1:18:09.0 12:36 M 75 San Pedro CA
1958 Collins,Chris 1361 1:20:31.1 1:18:09.5 12:36 M 41 San Pedro CA
1959 Brainard,Carol 1144 1:22:30.2 1:18:11.4 12:37 F 52 Los Angeles CA
1960 Stevens,Michelle 3258 1:21:04.6 1:18:16.8 12:38 F 41 Torrance CA
1961 Cole,Carrie 1356 1:21:16.9 1:18:18.7 12:38 F 31 Playa Del Rey CA
1962 Galaviz,Izchel 3628 1:20:54.9 1:18:23.5 12:39 F 18 South El Monte CA
1963 Smith,Rebecca 648 1:21:15.2 1:18:29.8 12:40 F 28 Sherman Oaks CA
1964 Portnoy,Danielle 3616 1:20:33.2 1:18:30.4 12:40 F 28 Pasadena CA
1965 Chebbi,Julie 1284 1:21:18.5 1:18:32.2 12:40 F 48 Canyon Country CA
1966 Conklin,Jeanne 1370 1:20:22.5 1:18:41.8 12:42 F 67 Los Angeles CA
1967 Eskridge,Tami 1604 1:20:22.8 1:18:43.0 12:42 F 63 Los Angeles CA
1968 Hernandez,Simone 1952 1:30:31.9 1:18:52.3 12:43 F 39 Whittier CA
1969 Ayestaran,Amparo 990 1:21:22.4 1:19:08.3 12:46 F 59 Winnetka CA
1970 Martinez,Diana 3909 1:19:31.9 1:19:10.5 12:46 F 29 Los Angeles CA
1971 Burguiere,Rachel 1202 1:28:37.8 1:19:29.6 12:49 F 31 Marina Del Rey CA
1972 Doktor,Christelle 1513 1:28:37.6 1:19:29.7 12:49 F 33 Marina Del Rey CA
1973 Albertson,Tom 912 1:20:56.6 1:19:33.3 12:50 M 46 South Pasadena CA
1974 Quintero,Roxanna 2892 1:20:56.6 1:19:33.4 12:50 F 36 Hacienda Heights CA
1975 Tang,Lina 562 1:22:14.9 1:19:40.4 12:51 F 32 South El Monte CA
1976 Rottmann,Jacqueline 3010 1:22:00.2 1:19:51.1 12:53 F 51 Playa Del Rey CA
1977 Cardone,Sara 114 1:21:38.5 1:19:57.0 12:54 F 37 Los Angeles CA
1978 Alomo,Lola 924 1:21:19.1 1:19:58.2 12:54 F 35 El Monte CA
1979 Baek,John 997 1:24:26.7 1:20:06.1 12:55 M 35 Redondo Beach CA
1980 Osuna,Adrienne 2763 1:22:40.0 1:20:30.8 12:59 F 25 Lancaster CA
1981 Cordova,Katia 1380 1:23:20.6 1:21:04.7 13:05 F 27 Los Angeles CA
1982 Balam,Mariela 450 1:23:20.6 1:21:04.8 13:05 F 33 Culver City CA
1983 Garcia,Sheryl 1746 1:21:23.5 1:21:10.5 13:06 F 43 Wilmington CA
1984 Garcia,Ricardo 1743 1:21:24.4 1:21:11.1 13:06 M 43 Wilmington CA
1985 Maxwell,Gregory 3633 1:22:35.1 1:21:16.9 13:07 M 40 Los Angeles CA
1986 Alberto,Mae 911 1:21:20.0 1:21:20.0 13:07 F 36 Valley Village CA
1987 Glaser,Casey 1784 1:21:20.0 1:21:20.0 13:07 M 17 Van Nuys CA
1988 Maxwell,Raven 3632 1:22:39.6 1:21:21.0 13:07 F 11 Los Angeles CA
1989 Butler,Michelle 1215 1:23:51.1 1:21:23.2 13:08 F 59 Glendale CA
1990 Enriquez,Teresa 3629 1:24:00.4 1:21:29.2 13:09 F 21 South El Monte CA
1991 Wright,Roger 749 1:24:17.2 1:21:39.6 13:10 M 58 Sylmar CA
1992 Wright,Katherine 748 1:24:17.1 1:21:40.3 13:10 F 54 Sylmar CA
1993 Kang,Jasmine 803 1:23:50.0 1:22:10.3 13:15 F 37 Los Angeles CA
1994 Russell,Gail 3716 1:23:12.3 1:22:11.2 13:15 F 51 Los Angeles CA
1995 Dusenbury,Colin 3927 1:23:12.6 1:22:11.4 13:15 M 32 Los Angeles CA
1996 Baez-silva,Jennifer 999 1:24:09.0 1:22:13.2 13:16 F 29 Los Angeles CA
1997 Anderson,Katrina 948 1:24:09.2 1:22:13.4 13:16 F 27 Redondo Beach CA
1998 Bell,Darius 1050 1:24:08.2 1:22:15.7 13:16 M 27 Los Angeles CA
1999 Daroca,Danielle 1446 1:24:08.2 1:22:16.4 13:16 F 27 Los Angeles CA
2000 Pollock,Sharon 2863 1:25:36.2 1:22:35.0 13:19 F 54 Los Alamitos CA
2001 Jones,Samantha 2110 1:25:18.8 1:23:20.6 13:27 F 43 Canoga Park CA
2002 Hayes,Elizabeth 1924 1:25:15.3 1:23:32.2 13:28 F 28 Los Angeles CA
2003 Stevenson,Kerry 4874 1:25:15.1 1:23:32.5 13:28 F 34 Santa Monica CA
2004 Froula,Kara 4956 1:25:15.1 1:23:33.4 13:29 F 29 Santa Monica CA
2005 Brown,Cynthia 4870 1:25:15.4 1:23:33.6 13:29 F 29 Santa Monica CA
2006 Grunwald,Samson 1846 1:24:10.7 1:23:41.1 13:30 M 12 Los Angeles CA
2007 Grunwald,Tiffany 1847 1:24:20.8 1:23:51.3 13:32 F 43 Los Angeles CA
2008 Luke,Crystal 2422 1:26:23.6 1:23:54.0 13:32 F 35 Mira Loma CA
2009 Robledo,Brenda 2974 1:26:03.4 1:24:20.1 13:36 F 29 Bellflower CA
2010 Kira,Kimberly 2204 1:25:17.1 1:24:27.4 13:37 F 29 Winnetka CA
2011 Hammonds,Andrea 1878 1:27:10.1 1:24:35.0 13:39 F 41 Acton CA
2012 Necessary,Tammie 2677 1:27:10.3 1:24:35.6 13:39 F 49 Acton CA
2013 Tang,Susie 563 1:27:42.3 1:25:06.9 13:44 F 35 South El Monte CA
2014 Becerra,Adriana 3910 1:25:31.6 1:25:10.0 13:44 F 34 Santa Monica CA
2015 Mattson,Cindy 691 1:28:17.0 1:25:26.3 13:47 F 41 Los Angeles CA
2016 Shah,Disha 346 1:26:57.0 1:25:30.9 13:48 F 29 Los Angeles CA
2017 Maldonado,Shauna 2454 1:28:27.4 1:25:38.3 13:49 F 30 Los Angeles CA
2018 Cho,Charles 1313 1:30:12.8 1:26:14.5 13:55 M 37 Gardena CA
2019 Mizutani,Carla 627 1:29:17.3 1:26:44.7 13:59 F 31 Los Angeles CA
2020 Montemayor,Erica 628 1:29:17.4 1:26:44.9 14:00 F 36 Rancho Palos Verdes CA
2021 Zavala,Maria 3593 1:29:36.8 1:26:47.8 14:00 F 32 Compton CA
2022 Weidner,Erin 3490 1:27:20.5 1:26:50.8 14:00 F 48 Rancho Santa Fe CA
2023 Ochoa,Monica 2734 1:28:48.5 1:27:04.0 14:03 F 43 Redondo Beach CA
2024 Smith,Gary 3196 1:29:46.0 1:27:12.3 14:04 M 54 Dothan AL
2025 Phuong,Jimmy 564 1:30:18.1 1:27:42.9 14:09 M 38 Garden Grove CA
2026 Leeper,Christina 2337 1:44:25.7 1:27:45.9 14:09 F 31 Upland CA
2027 White,Raissa 3516 1:30:49.2 1:27:46.6 14:09 F 38 Los Angeles CA
2028 Chacon,Marie 1265 1:29:59.4 1:27:48.2 14:10 F 41 Los Angeles CA
2029 Holland,Rasalyn 3682 1:30:32.8 1:27:49.6 14:10 F 36 Los Angeles CA
2030 Caldero,Sabrina 1224 1:30:01.7 1:27:50.5 14:10 F 40 Los Angeles CA
2031 Redmond,Amie 2922 1:29:20.9 1:27:56.9 14:11 F 38 Fontana CA
2032 Ries,Michelle 364 1:30:33.1 1:27:58.8 14:11 F 35 Redondo Beach CA
2033 Gilbert,Brad 1771 1:30:35.4 1:28:10.5 14:13 M 44 Manhattan Beach CA
2034 Barling,Rose 1019 1:31:21.4 1:28:24.1 14:16 F 34 Los Angeles CA
2035 Pollock,Sara 2862 1:31:32.4 1:28:30.4 14:17 F 26 Los Alamitos CA
2036 Kim,Jennifer 703 1:30:23.3 1:28:33.9 14:17 F 32 Los Angeles CA
2037 Danner,Patti 1442 1:31:38.0 1:29:06.3 14:22 F 49 Ventura CA
2038 Rees,Cindy 166 1:30:54.8 1:30:06.2 14:32 F 64 Pacific Palisades CA
2039 Mcnary,Josephine 2547 1:33:02.1 1:30:06.5 14:32 F 31 Santa Monica CA
2040 Mcnary,Robert 2548 1:33:02.3 1:30:06.7 14:32 M 30 Santa Monica CA
2041 Danowsky,Nancy 170 1:30:54.4 1:30:07.2 14:32 F 60 Simi Valley CA
2042 Garalde,Marissa 1726 1:31:24.1 1:30:17.6 14:34 F 46 Hawthorne CA
2043 Garalde, JR.,Romeo 1727 1:31:24.2 1:30:17.6 14:34 M 19 Hawthorne CA
2044 Milick,Amy 420 1:32:47.6 1:30:21.4 14:34 F 50 San Pedro CA
2045 Guglielmo,Vickie 421 1:32:48.1 1:30:21.7 14:34 F 55 San Pedro CA
2046 Borchardt,Marie 422 1:32:48.8 1:30:22.8 14:35 F 56 San Pedro CA
2047 Dumandan,Erika 408 1:33:37.9 1:31:48.3 14:48 F 25 Los Angeles CA
2048 Hayes,Chareese 1922 1:50:48.0 1:32:16.8 14:53 F 43 Los Angeles CA
2049 Siragusa,Jordan 3641 1:33:55.4 1:32:32.8 14:56 M 21 Glendale CA
2050 Petty,Vicki 2839 1:35:19.1 1:32:46.7 14:58 F 44 Canoga Park CA
2051 Andrews,Laura 951 1:35:24.4 1:33:13.4 15:02 F 52 Downey CA
2052 Durfee,Jessica 1567 1:33:59.0 1:33:33.7 15:05 F 33 Los Angeles CA
2053 Masias,Gaston 2490 1:33:59.2 1:33:34.6 15:06 M 29 Los Angeles CA
2054 Chao,Jennnifer 1276 1:33:38.3 1:33:38.3 15:06 F 27 Baldwin Park CA
2055 Symington,Jennifer 787 1:36:18.7 1:33:39.1 15:06 F 44 Santa Monica CA
2056 Miranda-cruz,Mirella 2602 1:36:12.2 1:33:39.8 15:06 F 30 Ontario CA
2057 Galaviz,Jose 1718 1:36:12.9 1:33:40.8 15:07 M 35 Diamond Bar CA
2058 Lywen-dill,Josie 2430 1:34:28.3 1:34:02.9 15:10 F 49 Woodland Hills CA
2059 Neustadter,Jon 2690 1:36:39.8 1:34:13.4 15:12 M 41 Los Angeles CA
2060 Lawlor,Lee 2309 1:36:41.0 1:34:14.9 15:12 F 41 Los Angeles CA
2061 Jensen,Mia 2076 1:34:51.5 1:34:51.5 15:18 F 33 Torrance CA
2062 Dang,Andy 1440 1:36:42.0 1:36:42.0 15:36 M 25 Rosemead CA
2063 Holmes,Kathleen 3820 1:39:43.8 1:37:52.7 15:47 F 57 La Canada Flintridge CA
2064 Holmes,David 3821 1:39:44.7 1:37:53.0 15:47 M 57 La Canada Flintridge CA
2065 Joyce,Erin 2114 1:38:04.9 1:38:04.9 15:49 F 44 Northridge CA
2066 Llamzon,Arvin 2381 1:40:00.9 1:38:13.9 15:51 M 26 Mira Loma CA
2067 Llamzon,Jhona 3956 1:40:01.5 1:38:14.4 15:51 F 29 Mira Loma CA
2068 Stromberg,Jonathan 3272 1:40:55.5 1:38:18.1 15:51 M 25
2069 Schmidt,Herbert 3102 1:40:56.3 1:38:18.9 15:51 M 68 Woodland Hills CA
2070 Taylor,Nancy 3325 1:38:56.1 1:38:38.2 15:55 F 49 Los Angeles CA
2071 Janigian,Suzanne 3730 1:39:42.7 1:38:53.3 15:57 F 53 Glendale CA
2072 Green,Patty 136 1:41:49.8 1:39:01.3 15:58 F 64 Playa Del Rey CA
2073 Rome,David 2989 1:39:52.9 1:39:06.5 15:59 M 26 Canyon Country CA
2074 Galaviz,Sandra 3627 1:41:52.4 1:39:19.8 16:01 F 48 Arcadia CA
2075 Anello,Denise 3923 1:42:49.7 1:40:25.6 16:12 F 48 Hermosa Beach CA
2076 Smith,Theresa 3929 1:42:52.0 1:40:28.0 16:12 F 52 Los Angeles CA
2077 Warner,Tiffany 3928 1:42:52.6 1:40:28.3 16:12 F 22 Playa Del Rey CA
2078 Smith,Lindsey 5004 1:42:53.0 1:40:29.0 16:12 F 15 Los Angeles CA
2079 Funk,Stephanie 315 1:41:24.3 1:40:35.6 16:13 F 41 Valencia CA
2080 Han,Peter 316 1:41:25.5 1:40:37.7 16:14 M 28 Valencia CA
2081 Kerson,Sharon 2171 1:41:42.6 1:40:39.7 16:14 F 68 Culver City CA
2082 Santora,Susan 3072 1:43:34.0 1:40:41.9 16:15 F 62 Santa Monica CA
2083 Meamber,Chris 2552 1:43:05.8 1:42:16.9 16:30 F 45 Las Vegas NV
2084 Aguilar,Susan 900 1:44:34.3 1:42:50.0 16:35 F 27 Los Angeles CA
2085 Klapproth,Danielle 2209 1:48:29.9 1:45:30.2 17:01 F 45 Los Angeles CA
2086 Augenblick,Elizabeth 983 1:48:29.4 1:45:30.3 17:01 F 67 Los Angeles CA
2087 Galaviz,Myra 1719 1:48:45.6 1:46:12.3 17:08 F 34 Diamond Bar CA
2088 Brisley,Lisa 171 1:46:29.9 1:46:29.9 17:11 F 42 Simi Valley CA
2089 Lloyd-kolkin,Donna 2382 1:46:43.0 1:46:43.0 17:13 F 63 Washington DC
2090 Dirks,Jennifer 778 1:50:14.4 1:47:12.3 17:17 F 39 Playa Del Rey CA
2091 Dirks,Connie 780 1:50:15.7 1:47:13.3 17:18 F 58 Sheboygan WI
2092 Dunmore,Miriom 4783 1:49:47.4 1:49:08.4 17:36 F 45 Long Beach CA
2093 Rose,Deborah 4842 1:53:02.3 1:50:09.3 17:46 F 63 Glenview IL
2094 Compton,Deborah 360 1:57:03.7 1:56:42.4 18:49 F 48 Manhattan Beach CA